<?xml version="1.0" encoding="UTF-8" standalone="no" ?>
<gpx xmlns="http://www.topografix.com/GPX/1/1" xmlns:xsi="http://www.w3.org/2001/XMLSchema-instance" xsi:schemaLocation="http://www.topografix.com/GPX/1/1 http://www.topografix.com/GPX/1/1/gpx.xsd" version="1.1" creator="VisuGPX - https://www.visugpx.com">
  <metadata>
    <name>J2-Mézilhac St Andéol-de-Vals 47km 1600D+</name>
  </metadata>
  <trk>
    <name><![CDATA[Mézilhac Antraigues 40kms D+1200-18901001]]></name>
    <extensions>
      <line xmlns="http://www.topografix.com/GPX/gpx_style/0/2">
        <color>0000FF</color>
        <width>4</width>
      </line>
    </extensions>
    <trkseg>
      <trkpt lat="44.80834" lon="4.35062">
        <ele>1135</ele>
        <time>2024-05-04T10:35:26Z</time>
      </trkpt>
      <trkpt lat="44.80842" lon="4.35035">
        <ele>1131</ele>
        <time>2024-05-04T10:35:31Z</time>
      </trkpt>
      <trkpt lat="44.80847" lon="4.35">
        <ele>1128</ele>
        <time>2024-05-04T10:35:37Z</time>
      </trkpt>
      <trkpt lat="44.80845" lon="4.34978">
        <ele>1128</ele>
        <time>2024-05-04T10:35:40Z</time>
      </trkpt>
      <trkpt lat="44.80821" lon="4.34893">
        <ele>1126</ele>
        <time>2024-05-04T10:35:56Z</time>
      </trkpt>
      <trkpt lat="44.80817" lon="4.34865">
        <ele>1125</ele>
        <time>2024-05-04T10:36:00Z</time>
      </trkpt>
      <trkpt lat="44.80811" lon="4.34844">
        <ele>1124</ele>
        <time>2024-05-04T10:36:04Z</time>
      </trkpt>
      <trkpt lat="44.80809" lon="4.34788">
        <ele>1122</ele>
        <time>2024-05-04T10:36:13Z</time>
      </trkpt>
      <trkpt lat="44.80813" lon="4.34731">
        <ele>1120</ele>
        <time>2024-05-04T10:36:23Z</time>
      </trkpt>
      <trkpt lat="44.80805" lon="4.34697">
        <ele>1119</ele>
        <time>2024-05-04T10:36:29Z</time>
      </trkpt>
      <trkpt lat="44.80804" lon="4.34682">
        <ele>1119</ele>
        <time>2024-05-04T10:36:31Z</time>
      </trkpt>
      <trkpt lat="44.80795" lon="4.3466">
        <ele>1119</ele>
        <time>2024-05-04T10:36:35Z</time>
      </trkpt>
      <trkpt lat="44.8081" lon="4.34631">
        <ele>1118</ele>
        <time>2024-05-04T10:36:41Z</time>
      </trkpt>
      <trkpt lat="44.8081" lon="4.34623">
        <ele>1118</ele>
        <time>2024-05-04T10:36:43Z</time>
      </trkpt>
      <trkpt lat="44.80802" lon="4.34595">
        <ele>1118</ele>
        <time>2024-05-04T10:36:48Z</time>
      </trkpt>
      <trkpt lat="44.8078" lon="4.34563">
        <ele>1120</ele>
        <time>2024-05-04T10:36:55Z</time>
      </trkpt>
      <trkpt lat="44.80768" lon="4.34549">
        <ele>1121</ele>
        <time>2024-05-04T10:36:59Z</time>
      </trkpt>
      <trkpt lat="44.80763" lon="4.34547">
        <ele>1121</ele>
        <time>2024-05-04T10:37:00Z</time>
      </trkpt>
      <trkpt lat="44.80734" lon="4.34498">
        <ele>1124</ele>
        <time>2024-05-04T10:37:11Z</time>
      </trkpt>
      <trkpt lat="44.80704" lon="4.34455">
        <ele>1129</ele>
        <time>2024-05-04T10:37:21Z</time>
      </trkpt>
      <trkpt lat="44.807" lon="4.34441">
        <ele>1130</ele>
        <time>2024-05-04T10:37:23Z</time>
      </trkpt>
      <trkpt lat="44.8069" lon="4.34426">
        <ele>1132</ele>
        <time>2024-05-04T10:37:26Z</time>
      </trkpt>
      <trkpt lat="44.80676" lon="4.34396">
        <ele>1134</ele>
        <time>2024-05-04T10:37:32Z</time>
      </trkpt>
      <trkpt lat="44.80666" lon="4.34365">
        <ele>1136</ele>
        <time>2024-05-04T10:37:38Z</time>
      </trkpt>
      <trkpt lat="44.80635" lon="4.34309">
        <ele>1135</ele>
        <time>2024-05-04T10:37:50Z</time>
      </trkpt>
      <trkpt lat="44.80618" lon="4.34268">
        <ele>1134</ele>
        <time>2024-05-04T10:37:58Z</time>
      </trkpt>
      <trkpt lat="44.80604" lon="4.34249">
        <ele>1134</ele>
        <time>2024-05-04T10:38:02Z</time>
      </trkpt>
      <trkpt lat="44.80596" lon="4.34223">
        <ele>1135</ele>
        <time>2024-05-04T10:38:07Z</time>
      </trkpt>
      <trkpt lat="44.80608" lon="4.34193">
        <ele>1138</ele>
        <time>2024-05-04T10:38:13Z</time>
      </trkpt>
      <trkpt lat="44.80608" lon="4.34172">
        <ele>1139</ele>
        <time>2024-05-04T10:38:16Z</time>
      </trkpt>
      <trkpt lat="44.80616" lon="4.34139">
        <ele>1143</ele>
        <time>2024-05-04T10:38:22Z</time>
      </trkpt>
      <trkpt lat="44.80623" lon="4.34128">
        <ele>1144</ele>
        <time>2024-05-04T10:38:24Z</time>
      </trkpt>
      <trkpt lat="44.80624" lon="4.34121">
        <ele>1144</ele>
        <time>2024-05-04T10:38:26Z</time>
      </trkpt>
      <trkpt lat="44.80613" lon="4.34074">
        <ele>1149</ele>
        <time>2024-05-04T10:38:34Z</time>
      </trkpt>
      <trkpt lat="44.8061" lon="4.34024">
        <ele>1155</ele>
        <time>2024-05-04T10:38:42Z</time>
      </trkpt>
      <trkpt lat="44.80609" lon="4.33939">
        <ele>1163</ele>
        <time>2024-05-04T10:38:56Z</time>
      </trkpt>
      <trkpt lat="44.80615" lon="4.33897">
        <ele>1167</ele>
        <time>2024-05-04T10:39:03Z</time>
      </trkpt>
      <trkpt lat="44.8061" lon="4.33884">
        <ele>1169</ele>
        <time>2024-05-04T10:39:06Z</time>
      </trkpt>
      <trkpt lat="44.80603" lon="4.33875">
        <ele>1170</ele>
        <time>2024-05-04T10:39:08Z</time>
      </trkpt>
      <trkpt lat="44.80594" lon="4.33851">
        <ele>1172</ele>
        <time>2024-05-04T10:39:12Z</time>
      </trkpt>
      <trkpt lat="44.80591" lon="4.33821">
        <ele>1175</ele>
        <time>2024-05-04T10:39:17Z</time>
      </trkpt>
      <trkpt lat="44.80584" lon="4.33801">
        <ele>1177</ele>
        <time>2024-05-04T10:39:21Z</time>
      </trkpt>
      <trkpt lat="44.80575" lon="4.33745">
        <ele>1183</ele>
        <time>2024-05-04T10:39:31Z</time>
      </trkpt>
      <trkpt lat="44.80569" lon="4.33725">
        <ele>1184</ele>
        <time>2024-05-04T10:39:34Z</time>
      </trkpt>
      <trkpt lat="44.80554" lon="4.33696">
        <ele>1186</ele>
        <time>2024-05-04T10:39:40Z</time>
      </trkpt>
      <trkpt lat="44.80534" lon="4.3365">
        <ele>1191</ele>
        <time>2024-05-04T10:39:49Z</time>
      </trkpt>
      <trkpt lat="44.80533" lon="4.33643">
        <ele>1191</ele>
        <time>2024-05-04T10:39:50Z</time>
      </trkpt>
      <trkpt lat="44.80521" lon="4.3362">
        <ele>1194</ele>
        <time>2024-05-04T10:39:55Z</time>
      </trkpt>
      <trkpt lat="44.8052" lon="4.33591">
        <ele>1197</ele>
        <time>2024-05-04T10:40:00Z</time>
      </trkpt>
      <trkpt lat="44.80515" lon="4.33573">
        <ele>1199</ele>
        <time>2024-05-04T10:40:03Z</time>
      </trkpt>
      <trkpt lat="44.80495" lon="4.33532">
        <ele>1202</ele>
        <time>2024-05-04T10:40:11Z</time>
      </trkpt>
      <trkpt lat="44.80452" lon="4.33454">
        <ele>1207</ele>
        <time>2024-05-04T10:40:28Z</time>
      </trkpt>
      <trkpt lat="44.80433" lon="4.3343">
        <ele>1209</ele>
        <time>2024-05-04T10:40:34Z</time>
      </trkpt>
      <trkpt lat="44.80418" lon="4.33405">
        <ele>1210</ele>
        <time>2024-05-04T10:40:39Z</time>
      </trkpt>
      <trkpt lat="44.80416" lon="4.33398">
        <ele>1210</ele>
        <time>2024-05-04T10:40:40Z</time>
      </trkpt>
      <trkpt lat="44.80412" lon="4.33396">
        <ele>1210</ele>
        <time>2024-05-04T10:40:41Z</time>
      </trkpt>
      <trkpt lat="44.80398" lon="4.33365">
        <ele>1210</ele>
        <time>2024-05-04T10:40:47Z</time>
      </trkpt>
      <trkpt lat="44.8039" lon="4.33338">
        <ele>1211</ele>
        <time>2024-05-04T10:40:52Z</time>
      </trkpt>
      <trkpt lat="44.80359" lon="4.3328">
        <ele>1213</ele>
        <time>2024-05-04T10:41:04Z</time>
      </trkpt>
      <trkpt lat="44.8035" lon="4.33257">
        <ele>1214</ele>
        <time>2024-05-04T10:41:09Z</time>
      </trkpt>
      <trkpt lat="44.80301" lon="4.33193">
        <ele>1220</ele>
        <time>2024-05-04T10:41:24Z</time>
      </trkpt>
      <trkpt lat="44.80287" lon="4.33192">
        <ele>1221</ele>
        <time>2024-05-04T10:41:27Z</time>
      </trkpt>
      <trkpt lat="44.80274" lon="4.33181">
        <ele>1222</ele>
        <time>2024-05-04T10:41:31Z</time>
      </trkpt>
      <trkpt lat="44.80265" lon="4.33165">
        <ele>1224</ele>
        <time>2024-05-04T10:41:34Z</time>
      </trkpt>
      <trkpt lat="44.80257" lon="4.33158">
        <ele>1225</ele>
        <time>2024-05-04T10:41:37Z</time>
      </trkpt>
      <trkpt lat="44.80238" lon="4.33153">
        <ele>1225</ele>
        <time>2024-05-04T10:41:41Z</time>
      </trkpt>
      <trkpt lat="44.80225" lon="4.33135">
        <ele>1225</ele>
        <time>2024-05-04T10:41:45Z</time>
      </trkpt>
      <trkpt lat="44.80223" lon="4.33122">
        <ele>1226</ele>
        <time>2024-05-04T10:41:48Z</time>
      </trkpt>
      <trkpt lat="44.80215" lon="4.33103">
        <ele>1227</ele>
        <time>2024-05-04T10:41:51Z</time>
      </trkpt>
      <trkpt lat="44.80208" lon="4.33045">
        <ele>1230</ele>
        <time>2024-05-04T10:42:01Z</time>
      </trkpt>
      <trkpt lat="44.80201" lon="4.33028">
        <ele>1230</ele>
        <time>2024-05-04T10:42:04Z</time>
      </trkpt>
      <trkpt lat="44.80194" lon="4.3296">
        <ele>1231</ele>
        <time>2024-05-04T10:42:16Z</time>
      </trkpt>
      <trkpt lat="44.80191" lon="4.32953">
        <ele>1230</ele>
        <time>2024-05-04T10:42:17Z</time>
      </trkpt>
      <trkpt lat="44.80183" lon="4.32898">
        <ele>1230</ele>
        <time>2024-05-04T10:42:26Z</time>
      </trkpt>
      <trkpt lat="44.80177" lon="4.3284">
        <ele>1231</ele>
        <time>2024-05-04T10:42:36Z</time>
      </trkpt>
      <trkpt lat="44.80177" lon="4.32799">
        <ele>1232</ele>
        <time>2024-05-04T10:42:43Z</time>
      </trkpt>
      <trkpt lat="44.80183" lon="4.32731">
        <ele>1235</ele>
        <time>2024-05-04T10:42:54Z</time>
      </trkpt>
      <trkpt lat="44.80178" lon="4.32697">
        <ele>1235</ele>
        <time>2024-05-04T10:43:00Z</time>
      </trkpt>
      <trkpt lat="44.80168" lon="4.32657">
        <ele>1234</ele>
        <time>2024-05-04T10:43:07Z</time>
      </trkpt>
      <trkpt lat="44.80167" lon="4.32545">
        <ele>1234</ele>
        <time>2024-05-04T10:43:25Z</time>
      </trkpt>
      <trkpt lat="44.80176" lon="4.32475">
        <ele>1234</ele>
        <time>2024-05-04T10:43:37Z</time>
      </trkpt>
      <trkpt lat="44.80187" lon="4.32437">
        <ele>1236</ele>
        <time>2024-05-04T10:43:44Z</time>
      </trkpt>
      <trkpt lat="44.80197" lon="4.32384">
        <ele>1237</ele>
        <time>2024-05-04T10:43:53Z</time>
      </trkpt>
      <trkpt lat="44.80203" lon="4.32331">
        <ele>1236</ele>
        <time>2024-05-04T10:44:02Z</time>
      </trkpt>
      <trkpt lat="44.80208" lon="4.32318">
        <ele>1237</ele>
        <time>2024-05-04T10:44:04Z</time>
      </trkpt>
      <trkpt lat="44.80217" lon="4.32277">
        <ele>1239</ele>
        <time>2024-05-04T10:44:12Z</time>
      </trkpt>
      <trkpt lat="44.80231" lon="4.32241">
        <ele>1240</ele>
        <time>2024-05-04T10:44:18Z</time>
      </trkpt>
      <trkpt lat="44.80235" lon="4.32219">
        <ele>1241</ele>
        <time>2024-05-04T10:44:22Z</time>
      </trkpt>
      <trkpt lat="44.80236" lon="4.32177">
        <ele>1242</ele>
        <time>2024-05-04T10:44:29Z</time>
      </trkpt>
      <trkpt lat="44.8024" lon="4.32163">
        <ele>1242</ele>
        <time>2024-05-04T10:44:32Z</time>
      </trkpt>
      <trkpt lat="44.80249" lon="4.32113">
        <ele>1244</ele>
        <time>2024-05-04T10:44:40Z</time>
      </trkpt>
      <trkpt lat="44.80256" lon="4.32035">
        <ele>1245</ele>
        <time>2024-05-04T10:44:53Z</time>
      </trkpt>
      <trkpt lat="44.80294" lon="4.31838">
        <ele>1254</ele>
        <time>2024-05-04T10:45:27Z</time>
      </trkpt>
      <trkpt lat="44.80172" lon="4.31559">
        <ele>1279</ele>
        <time>2024-05-04T10:46:21Z</time>
      </trkpt>
      <trkpt lat="44.80171" lon="4.31434">
        <ele>1288</ele>
        <time>2024-05-04T10:46:42Z</time>
      </trkpt>
      <trkpt lat="44.80121" lon="4.31411">
        <ele>1294</ele>
        <time>2024-05-04T10:46:54Z</time>
      </trkpt>
      <trkpt lat="44.80044" lon="4.31346">
        <ele>1300</ele>
        <time>2024-05-04T10:47:15Z</time>
      </trkpt>
      <trkpt lat="44.80006" lon="4.3122">
        <ele>1314</ele>
        <time>2024-05-04T10:47:38Z</time>
      </trkpt>
      <trkpt lat="44.80102" lon="4.31091">
        <ele>1326</ele>
        <time>2024-05-04T10:48:09Z</time>
      </trkpt>
      <trkpt lat="44.80134" lon="4.30986">
        <ele>1337</ele>
        <time>2024-05-04T10:48:28Z</time>
      </trkpt>
      <trkpt lat="44.80143" lon="4.30829">
        <ele>1344</ele>
        <time>2024-05-04T10:48:54Z</time>
      </trkpt>
      <trkpt lat="44.80143" lon="4.30793">
        <ele>1346</ele>
        <time>2024-05-04T10:49:00Z</time>
      </trkpt>
      <trkpt lat="44.8022" lon="4.30605">
        <ele>1358</ele>
        <time>2024-05-04T10:49:36Z</time>
      </trkpt>
      <trkpt lat="44.80347" lon="4.30352">
        <ele>1400</ele>
        <time>2024-05-04T10:50:27Z</time>
      </trkpt>
      <trkpt lat="44.8034" lon="4.30316">
        <ele>1402</ele>
        <time>2024-05-04T10:50:33Z</time>
      </trkpt>
      <trkpt lat="44.80355" lon="4.30249">
        <ele>1406</ele>
        <time>2024-05-04T10:50:45Z</time>
      </trkpt>
      <trkpt lat="44.80341" lon="4.30369">
        <ele>1396</ele>
        <time>2024-05-04T10:51:05Z</time>
      </trkpt>
      <trkpt lat="44.80145" lon="4.30779">
        <ele>1347</ele>
        <time>2024-05-04T10:52:27Z</time>
      </trkpt>
      <trkpt lat="44.80133" lon="4.30833">
        <ele>1344</ele>
        <time>2024-05-04T10:52:37Z</time>
      </trkpt>
      <trkpt lat="44.80094" lon="4.30841">
        <ele>1344</ele>
        <time>2024-05-04T10:52:46Z</time>
      </trkpt>
      <trkpt lat="44.80034" lon="4.30913">
        <ele>1348</ele>
        <time>2024-05-04T10:53:04Z</time>
      </trkpt>
      <trkpt lat="44.79915" lon="4.30954">
        <ele>1354</ele>
        <time>2024-05-04T10:53:33Z</time>
      </trkpt>
      <trkpt lat="44.79833" lon="4.30889">
        <ele>1345</ele>
        <time>2024-05-04T10:53:55Z</time>
      </trkpt>
      <trkpt lat="44.79769" lon="4.30911">
        <ele>1348</ele>
        <time>2024-05-04T10:54:10Z</time>
      </trkpt>
      <trkpt lat="44.79723" lon="4.30937">
        <ele>1353</ele>
        <time>2024-05-04T10:54:22Z</time>
      </trkpt>
      <trkpt lat="44.79557" lon="4.30806">
        <ele>1362</ele>
        <time>2024-05-04T10:55:06Z</time>
      </trkpt>
      <trkpt lat="44.7946" lon="4.30688">
        <ele>1365</ele>
        <time>2024-05-04T10:55:36Z</time>
      </trkpt>
      <trkpt lat="44.79266" lon="4.30548">
        <ele>1371</ele>
        <time>2024-05-04T10:56:27Z</time>
      </trkpt>
      <trkpt lat="44.79132" lon="4.30535">
        <ele>1383</ele>
        <time>2024-05-04T10:56:58Z</time>
      </trkpt>
      <trkpt lat="44.79097" lon="4.30357">
        <ele>1376</ele>
        <time>2024-05-04T10:57:29Z</time>
      </trkpt>
      <trkpt lat="44.79" lon="4.30387">
        <ele>1385</ele>
        <time>2024-05-04T10:57:52Z</time>
      </trkpt>
      <trkpt lat="44.78875" lon="4.30527">
        <ele>1384</ele>
        <time>2024-05-04T10:58:29Z</time>
      </trkpt>
      <trkpt lat="44.78822" lon="4.30476">
        <ele>1375</ele>
        <time>2024-05-04T10:58:44Z</time>
      </trkpt>
      <trkpt lat="44.78769" lon="4.30479">
        <ele>1371</ele>
        <time>2024-05-04T10:58:57Z</time>
      </trkpt>
      <trkpt lat="44.7872" lon="4.30398">
        <ele>1366</ele>
        <time>2024-05-04T10:59:14Z</time>
      </trkpt>
      <trkpt lat="44.78689" lon="4.30398">
        <ele>1364</ele>
        <time>2024-05-04T10:59:22Z</time>
      </trkpt>
      <trkpt lat="44.78755" lon="4.30308">
        <ele>1362</ele>
        <time>2024-05-04T10:59:43Z</time>
      </trkpt>
      <trkpt lat="44.78618" lon="4.30308">
        <ele>1361</ele>
        <time>2024-05-04T11:00:15Z</time>
      </trkpt>
      <trkpt lat="44.78612" lon="4.30166">
        <ele>1360</ele>
        <time>2024-05-04T11:00:39Z</time>
      </trkpt>
      <trkpt lat="44.78666" lon="4.29825">
        <ele>1355</ele>
        <time>2024-05-04T11:01:37Z</time>
      </trkpt>
      <trkpt lat="44.78752" lon="4.29709">
        <ele>1357</ele>
        <time>2024-05-04T11:02:04Z</time>
      </trkpt>
      <trkpt lat="44.78663" lon="4.29497">
        <ele>1360</ele>
        <time>2024-05-04T11:02:45Z</time>
      </trkpt>
      <trkpt lat="44.78651" lon="4.29252">
        <ele>1365</ele>
        <time>2024-05-04T11:03:26Z</time>
      </trkpt>
      <trkpt lat="44.78589" lon="4.29175">
        <ele>1367</ele>
        <time>2024-05-04T11:03:45Z</time>
      </trkpt>
      <trkpt lat="44.78557" lon="4.29046">
        <ele>1369</ele>
        <time>2024-05-04T11:04:08Z</time>
      </trkpt>
      <trkpt lat="44.78509" lon="4.29037">
        <ele>1367</ele>
        <time>2024-05-04T11:04:19Z</time>
      </trkpt>
      <trkpt lat="44.78433" lon="4.29066">
        <ele>1373</ele>
        <time>2024-05-04T11:04:38Z</time>
      </trkpt>
      <trkpt lat="44.78357" lon="4.29028">
        <ele>1377</ele>
        <time>2024-05-04T11:04:56Z</time>
      </trkpt>
      <trkpt lat="44.78289" lon="4.28965">
        <ele>1378</ele>
        <time>2024-05-04T11:05:15Z</time>
      </trkpt>
      <trkpt lat="44.78251" lon="4.28981">
        <ele>1381</ele>
        <time>2024-05-04T11:05:25Z</time>
      </trkpt>
      <trkpt lat="44.78231" lon="4.29024">
        <ele>1383</ele>
        <time>2024-05-04T11:05:33Z</time>
      </trkpt>
      <trkpt lat="44.78159" lon="4.29046">
        <ele>1385</ele>
        <time>2024-05-04T11:05:50Z</time>
      </trkpt>
      <trkpt lat="44.77989" lon="4.2898">
        <ele>1379</ele>
        <time>2024-05-04T11:06:32Z</time>
      </trkpt>
      <trkpt lat="44.77949" lon="4.28998">
        <ele>1378</ele>
        <time>2024-05-04T11:06:41Z</time>
      </trkpt>
      <trkpt lat="44.7791" lon="4.28974">
        <ele>1377</ele>
        <time>2024-05-04T11:06:51Z</time>
      </trkpt>
      <trkpt lat="44.77919" lon="4.28908">
        <ele>1376</ele>
        <time>2024-05-04T11:07:02Z</time>
      </trkpt>
      <trkpt lat="44.77917" lon="4.28814">
        <ele>1369</ele>
        <time>2024-05-04T11:07:18Z</time>
      </trkpt>
      <trkpt lat="44.77941" lon="4.28789">
        <ele>1367</ele>
        <time>2024-05-04T11:07:25Z</time>
      </trkpt>
      <trkpt lat="44.77952" lon="4.28753">
        <ele>1365</ele>
        <time>2024-05-04T11:07:32Z</time>
      </trkpt>
      <trkpt lat="44.77925" lon="4.28717">
        <ele>1362</ele>
        <time>2024-05-04T11:07:40Z</time>
      </trkpt>
      <trkpt lat="44.7792" lon="4.28662">
        <ele>1358</ele>
        <time>2024-05-04T11:07:49Z</time>
      </trkpt>
      <trkpt lat="44.77913" lon="4.28628">
        <ele>1355</ele>
        <time>2024-05-04T11:07:55Z</time>
      </trkpt>
      <trkpt lat="44.77919" lon="4.28516">
        <ele>1343</ele>
        <time>2024-05-04T11:08:14Z</time>
      </trkpt>
      <trkpt lat="44.77954" lon="4.28445">
        <ele>1339</ele>
        <time>2024-05-04T11:08:28Z</time>
      </trkpt>
      <trkpt lat="44.78019" lon="4.28384">
        <ele>1344</ele>
        <time>2024-05-04T11:08:46Z</time>
      </trkpt>
      <trkpt lat="44.78036" lon="4.28331">
        <ele>1340</ele>
        <time>2024-05-04T11:08:56Z</time>
      </trkpt>
      <trkpt lat="44.78047" lon="4.2828">
        <ele>1335</ele>
        <time>2024-05-04T11:09:05Z</time>
      </trkpt>
      <trkpt lat="44.78051" lon="4.2822">
        <ele>1327</ele>
        <time>2024-05-04T11:09:15Z</time>
      </trkpt>
      <trkpt lat="44.781" lon="4.28111">
        <ele>1312</ele>
        <time>2024-05-04T11:09:36Z</time>
      </trkpt>
      <trkpt lat="44.78089" lon="4.2796">
        <ele>1290</ele>
        <time>2024-05-04T11:10:01Z</time>
      </trkpt>
      <trkpt lat="44.78222" lon="4.2769">
        <ele>1293</ele>
        <time>2024-05-04T11:10:56Z</time>
      </trkpt>
      <trkpt lat="44.78439" lon="4.27373">
        <ele>1288</ele>
        <time>2024-05-04T11:12:09Z</time>
      </trkpt>
      <trkpt lat="44.78662" lon="4.27207">
        <ele>1287</ele>
        <time>2024-05-04T11:13:08Z</time>
      </trkpt>
      <trkpt lat="44.78714" lon="4.2698">
        <ele>1259</ele>
        <time>2024-05-04T11:13:47Z</time>
      </trkpt>
      <trkpt lat="44.78703" lon="4.26697">
        <ele>1203</ele>
        <time>2024-05-04T11:14:34Z</time>
      </trkpt>
      <trkpt lat="44.78651" lon="4.26534">
        <ele>1168</ele>
        <time>2024-05-04T11:15:04Z</time>
      </trkpt>
      <trkpt lat="44.78686" lon="4.26385">
        <ele>1134</ele>
        <time>2024-05-04T11:15:30Z</time>
      </trkpt>
      <trkpt lat="44.78631" lon="4.26164">
        <ele>1067</ele>
        <time>2024-05-04T11:16:09Z</time>
      </trkpt>
      <trkpt lat="44.78604" lon="4.26102">
        <ele>1044</ele>
        <time>2024-05-04T11:16:21Z</time>
      </trkpt>
      <trkpt lat="44.78615" lon="4.2604">
        <ele>1029</ele>
        <time>2024-05-04T11:16:31Z</time>
      </trkpt>
      <trkpt lat="44.78768" lon="4.26113">
        <ele>1029</ele>
        <time>2024-05-04T11:17:09Z</time>
      </trkpt>
      <trkpt lat="44.7893" lon="4.26297">
        <ele>1029</ele>
        <time>2024-05-04T11:17:58Z</time>
      </trkpt>
      <trkpt lat="44.78974" lon="4.26222">
        <ele>1006</ele>
        <time>2024-05-04T11:18:14Z</time>
      </trkpt>
      <trkpt lat="44.79029" lon="4.2637">
        <ele>1032</ele>
        <time>2024-05-04T11:18:42Z</time>
      </trkpt>
      <trkpt lat="44.79122" lon="4.26774">
        <ele>1043</ele>
        <time>2024-05-04T11:19:52Z</time>
      </trkpt>
      <trkpt lat="44.79214" lon="4.26817">
        <ele>1041</ele>
        <time>2024-05-04T11:20:15Z</time>
      </trkpt>
      <trkpt lat="44.79154" lon="4.26806">
        <ele>1033</ele>
        <time>2024-05-04T11:20:29Z</time>
      </trkpt>
      <trkpt lat="44.79128" lon="4.26795">
        <ele>1042</ele>
        <time>2024-05-04T11:20:35Z</time>
      </trkpt>
      <trkpt lat="44.79116" lon="4.26709">
        <ele>1045</ele>
        <time>2024-05-04T11:20:50Z</time>
      </trkpt>
      <trkpt lat="44.79097" lon="4.26623">
        <ele>1052</ele>
        <time>2024-05-04T11:21:05Z</time>
      </trkpt>
      <trkpt lat="44.7906" lon="4.26434">
        <ele>1039</ele>
        <time>2024-05-04T11:21:37Z</time>
      </trkpt>
      <trkpt lat="44.78974" lon="4.26162">
        <ele>991</ele>
        <time>2024-05-04T11:22:26Z</time>
      </trkpt>
      <trkpt lat="44.78979" lon="4.26014">
        <ele>953</ele>
        <time>2024-05-04T11:22:51Z</time>
      </trkpt>
      <trkpt lat="44.79015" lon="4.25783">
        <ele>941</ele>
        <time>2024-05-04T11:23:30Z</time>
      </trkpt>
      <trkpt lat="44.78977" lon="4.25762">
        <ele>938</ele>
        <time>2024-05-04T11:23:40Z</time>
      </trkpt>
      <trkpt lat="44.78973" lon="4.25757">
        <ele>939</ele>
        <time>2024-05-04T11:23:41Z</time>
      </trkpt>
      <trkpt lat="44.78957" lon="4.2575">
        <ele>938</ele>
        <time>2024-05-04T11:23:45Z</time>
      </trkpt>
      <trkpt lat="44.78932" lon="4.25745">
        <ele>935</ele>
        <time>2024-05-04T11:23:51Z</time>
      </trkpt>
      <trkpt lat="44.78917" lon="4.25749">
        <ele>931</ele>
        <time>2024-05-04T11:23:54Z</time>
      </trkpt>
      <trkpt lat="44.78912" lon="4.25748">
        <ele>930</ele>
        <time>2024-05-04T11:23:55Z</time>
      </trkpt>
      <trkpt lat="44.78898" lon="4.25755">
        <ele>924</ele>
        <time>2024-05-04T11:23:59Z</time>
      </trkpt>
      <trkpt lat="44.78893" lon="4.25754">
        <ele>923</ele>
        <time>2024-05-04T11:24:00Z</time>
      </trkpt>
      <trkpt lat="44.78889" lon="4.25748">
        <ele>923</ele>
        <time>2024-05-04T11:24:01Z</time>
      </trkpt>
      <trkpt lat="44.78882" lon="4.25729">
        <ele>923</ele>
        <time>2024-05-04T11:24:05Z</time>
      </trkpt>
      <trkpt lat="44.78881" lon="4.25686">
        <ele>929</ele>
        <time>2024-05-04T11:24:12Z</time>
      </trkpt>
      <trkpt lat="44.78884" lon="4.25634">
        <ele>936</ele>
        <time>2024-05-04T11:24:21Z</time>
      </trkpt>
      <trkpt lat="44.7888" lon="4.25635">
        <ele>934</ele>
        <time>2024-05-04T11:24:22Z</time>
      </trkpt>
      <trkpt lat="44.78877" lon="4.25604">
        <ele>935</ele>
        <time>2024-05-04T11:24:27Z</time>
      </trkpt>
      <trkpt lat="44.78871" lon="4.25583">
        <ele>934</ele>
        <time>2024-05-04T11:24:31Z</time>
      </trkpt>
      <trkpt lat="44.78873" lon="4.2553">
        <ele>940</ele>
        <time>2024-05-04T11:24:40Z</time>
      </trkpt>
      <trkpt lat="44.78871" lon="4.25524">
        <ele>940</ele>
        <time>2024-05-04T11:24:41Z</time>
      </trkpt>
      <trkpt lat="44.78865" lon="4.25522">
        <ele>936</ele>
        <time>2024-05-04T11:24:42Z</time>
      </trkpt>
      <trkpt lat="44.78858" lon="4.25513">
        <ele>934</ele>
        <time>2024-05-04T11:24:44Z</time>
      </trkpt>
      <trkpt lat="44.78852" lon="4.25479">
        <ele>934</ele>
        <time>2024-05-04T11:24:50Z</time>
      </trkpt>
      <trkpt lat="44.78853" lon="4.25457">
        <ele>936</ele>
        <time>2024-05-04T11:24:54Z</time>
      </trkpt>
      <trkpt lat="44.78862" lon="4.25431">
        <ele>941</ele>
        <time>2024-05-04T11:24:59Z</time>
      </trkpt>
      <trkpt lat="44.78862" lon="4.25411">
        <ele>943</ele>
        <time>2024-05-04T11:25:02Z</time>
      </trkpt>
      <trkpt lat="44.78859" lon="4.25405">
        <ele>943</ele>
        <time>2024-05-04T11:25:03Z</time>
      </trkpt>
      <trkpt lat="44.78844" lon="4.25396">
        <ele>941</ele>
        <time>2024-05-04T11:25:07Z</time>
      </trkpt>
      <trkpt lat="44.78824" lon="4.25403">
        <ele>933</ele>
        <time>2024-05-04T11:25:12Z</time>
      </trkpt>
      <trkpt lat="44.7882" lon="4.25399">
        <ele>932</ele>
        <time>2024-05-04T11:25:13Z</time>
      </trkpt>
      <trkpt lat="44.78801" lon="4.25392">
        <ele>928</ele>
        <time>2024-05-04T11:25:17Z</time>
      </trkpt>
      <trkpt lat="44.78792" lon="4.25382">
        <ele>928</ele>
        <time>2024-05-04T11:25:20Z</time>
      </trkpt>
      <trkpt lat="44.78787" lon="4.25382">
        <ele>926</ele>
        <time>2024-05-04T11:25:21Z</time>
      </trkpt>
      <trkpt lat="44.78786" lon="4.25376">
        <ele>927</ele>
        <time>2024-05-04T11:25:22Z</time>
      </trkpt>
      <trkpt lat="44.78779" lon="4.25366">
        <ele>927</ele>
        <time>2024-05-04T11:25:25Z</time>
      </trkpt>
      <trkpt lat="44.78762" lon="4.2535">
        <ele>926</ele>
        <time>2024-05-04T11:25:29Z</time>
      </trkpt>
      <trkpt lat="44.78755" lon="4.25339">
        <ele>926</ele>
        <time>2024-05-04T11:25:32Z</time>
      </trkpt>
      <trkpt lat="44.78742" lon="4.25328">
        <ele>924</ele>
        <time>2024-05-04T11:25:35Z</time>
      </trkpt>
      <trkpt lat="44.78737" lon="4.25327">
        <ele>923</ele>
        <time>2024-05-04T11:25:37Z</time>
      </trkpt>
      <trkpt lat="44.78733" lon="4.25329">
        <ele>921</ele>
        <time>2024-05-04T11:25:38Z</time>
      </trkpt>
      <trkpt lat="44.7873" lon="4.25324">
        <ele>921</ele>
        <time>2024-05-04T11:25:39Z</time>
      </trkpt>
      <trkpt lat="44.78731" lon="4.25316">
        <ele>924</ele>
        <time>2024-05-04T11:25:40Z</time>
      </trkpt>
      <trkpt lat="44.78721" lon="4.25283">
        <ele>931</ele>
        <time>2024-05-04T11:25:46Z</time>
      </trkpt>
      <trkpt lat="44.78706" lon="4.25252">
        <ele>936</ele>
        <time>2024-05-04T11:25:52Z</time>
      </trkpt>
      <trkpt lat="44.78701" lon="4.25249">
        <ele>935</ele>
        <time>2024-05-04T11:25:53Z</time>
      </trkpt>
      <trkpt lat="44.78691" lon="4.25245">
        <ele>933</ele>
        <time>2024-05-04T11:25:56Z</time>
      </trkpt>
      <trkpt lat="44.78676" lon="4.25248">
        <ele>927</ele>
        <time>2024-05-04T11:25:59Z</time>
      </trkpt>
      <trkpt lat="44.78648" lon="4.25268">
        <ele>916</ele>
        <time>2024-05-04T11:26:07Z</time>
      </trkpt>
      <trkpt lat="44.78633" lon="4.25272">
        <ele>915</ele>
        <time>2024-05-04T11:26:10Z</time>
      </trkpt>
      <trkpt lat="44.78628" lon="4.25269">
        <ele>916</ele>
        <time>2024-05-04T11:26:12Z</time>
      </trkpt>
      <trkpt lat="44.78616" lon="4.25268">
        <ele>916</ele>
        <time>2024-05-04T11:26:14Z</time>
      </trkpt>
      <trkpt lat="44.78611" lon="4.25264">
        <ele>917</ele>
        <time>2024-05-04T11:26:16Z</time>
      </trkpt>
      <trkpt lat="44.78612" lon="4.25257">
        <ele>919</ele>
        <time>2024-05-04T11:26:17Z</time>
      </trkpt>
      <trkpt lat="44.78607" lon="4.25255">
        <ele>920</ele>
        <time>2024-05-04T11:26:18Z</time>
      </trkpt>
      <trkpt lat="44.78599" lon="4.25231">
        <ele>929</ele>
        <time>2024-05-04T11:26:22Z</time>
      </trkpt>
      <trkpt lat="44.78594" lon="4.25226">
        <ele>930</ele>
        <time>2024-05-04T11:26:24Z</time>
      </trkpt>
      <trkpt lat="44.7858" lon="4.2523">
        <ele>929</ele>
        <time>2024-05-04T11:26:27Z</time>
      </trkpt>
      <trkpt lat="44.78576" lon="4.25234">
        <ele>928</ele>
        <time>2024-05-04T11:26:28Z</time>
      </trkpt>
      <trkpt lat="44.78567" lon="4.25235">
        <ele>929</ele>
        <time>2024-05-04T11:26:30Z</time>
      </trkpt>
      <trkpt lat="44.78558" lon="4.25229">
        <ele>933</ele>
        <time>2024-05-04T11:26:33Z</time>
      </trkpt>
      <trkpt lat="44.78548" lon="4.25227">
        <ele>935</ele>
        <time>2024-05-04T11:26:35Z</time>
      </trkpt>
      <trkpt lat="44.78538" lon="4.2523">
        <ele>935</ele>
        <time>2024-05-04T11:26:38Z</time>
      </trkpt>
      <trkpt lat="44.78523" lon="4.25222">
        <ele>940</ele>
        <time>2024-05-04T11:26:41Z</time>
      </trkpt>
      <trkpt lat="44.78508" lon="4.25221">
        <ele>943</ele>
        <time>2024-05-04T11:26:45Z</time>
      </trkpt>
      <trkpt lat="44.78484" lon="4.2521">
        <ele>950</ele>
        <time>2024-05-04T11:26:51Z</time>
      </trkpt>
      <trkpt lat="44.7848" lon="4.2521">
        <ele>951</ele>
        <time>2024-05-04T11:26:52Z</time>
      </trkpt>
      <trkpt lat="44.78477" lon="4.25216">
        <ele>949</ele>
        <time>2024-05-04T11:26:53Z</time>
      </trkpt>
      <trkpt lat="44.78467" lon="4.25219">
        <ele>949</ele>
        <time>2024-05-04T11:26:55Z</time>
      </trkpt>
      <trkpt lat="44.78434" lon="4.25212">
        <ele>957</ele>
        <time>2024-05-04T11:27:03Z</time>
      </trkpt>
      <trkpt lat="44.78426" lon="4.2522">
        <ele>954</ele>
        <time>2024-05-04T11:27:05Z</time>
      </trkpt>
      <trkpt lat="44.78427" lon="4.25226">
        <ele>952</ele>
        <time>2024-05-04T11:27:06Z</time>
      </trkpt>
      <trkpt lat="44.78397" lon="4.25236">
        <ele>956</ele>
        <time>2024-05-04T11:27:14Z</time>
      </trkpt>
      <trkpt lat="44.78389" lon="4.25245">
        <ele>956</ele>
        <time>2024-05-04T11:27:16Z</time>
      </trkpt>
      <trkpt lat="44.78388" lon="4.25251">
        <ele>955</ele>
        <time>2024-05-04T11:27:17Z</time>
      </trkpt>
      <trkpt lat="44.78373" lon="4.25262">
        <ele>957</ele>
        <time>2024-05-04T11:27:21Z</time>
      </trkpt>
      <trkpt lat="44.78366" lon="4.25271">
        <ele>957</ele>
        <time>2024-05-04T11:27:23Z</time>
      </trkpt>
      <trkpt lat="44.78351" lon="4.25279">
        <ele>961</ele>
        <time>2024-05-04T11:27:27Z</time>
      </trkpt>
      <trkpt lat="44.78338" lon="4.2529">
        <ele>963</ele>
        <time>2024-05-04T11:27:30Z</time>
      </trkpt>
      <trkpt lat="44.78322" lon="4.25307">
        <ele>959</ele>
        <time>2024-05-04T11:27:35Z</time>
      </trkpt>
      <trkpt lat="44.78308" lon="4.25343">
        <ele>949</ele>
        <time>2024-05-04T11:27:42Z</time>
      </trkpt>
      <trkpt lat="44.78297" lon="4.25358">
        <ele>947</ele>
        <time>2024-05-04T11:27:45Z</time>
      </trkpt>
      <trkpt lat="44.78288" lon="4.2536">
        <ele>947</ele>
        <time>2024-05-04T11:27:48Z</time>
      </trkpt>
      <trkpt lat="44.78279" lon="4.25356">
        <ele>948</ele>
        <time>2024-05-04T11:27:50Z</time>
      </trkpt>
      <trkpt lat="44.7826" lon="4.25364">
        <ele>948</ele>
        <time>2024-05-04T11:27:54Z</time>
      </trkpt>
      <trkpt lat="44.78246" lon="4.25343">
        <ele>946</ele>
        <time>2024-05-04T11:27:59Z</time>
      </trkpt>
      <trkpt lat="44.78242" lon="4.25329">
        <ele>943</ele>
        <time>2024-05-04T11:28:02Z</time>
      </trkpt>
      <trkpt lat="44.78241" lon="4.25314">
        <ele>943</ele>
        <time>2024-05-04T11:28:04Z</time>
      </trkpt>
      <trkpt lat="44.78226" lon="4.25287">
        <ele>935</ele>
        <time>2024-05-04T11:28:10Z</time>
      </trkpt>
      <trkpt lat="44.78222" lon="4.25257">
        <ele>933</ele>
        <time>2024-05-04T11:28:15Z</time>
      </trkpt>
      <trkpt lat="44.78224" lon="4.2525">
        <ele>935</ele>
        <time>2024-05-04T11:28:16Z</time>
      </trkpt>
      <trkpt lat="44.7822" lon="4.25237">
        <ele>933</ele>
        <time>2024-05-04T11:28:19Z</time>
      </trkpt>
      <trkpt lat="44.78219" lon="4.25209">
        <ele>935</ele>
        <time>2024-05-04T11:28:23Z</time>
      </trkpt>
      <trkpt lat="44.78215" lon="4.25183">
        <ele>935</ele>
        <time>2024-05-04T11:28:28Z</time>
      </trkpt>
      <trkpt lat="44.78199" lon="4.25143">
        <ele>929</ele>
        <time>2024-05-04T11:28:35Z</time>
      </trkpt>
      <trkpt lat="44.78195" lon="4.25114">
        <ele>929</ele>
        <time>2024-05-04T11:28:40Z</time>
      </trkpt>
      <trkpt lat="44.78178" lon="4.25097">
        <ele>920</ele>
        <time>2024-05-04T11:28:45Z</time>
      </trkpt>
      <trkpt lat="44.78169" lon="4.25073">
        <ele>919</ele>
        <time>2024-05-04T11:28:49Z</time>
      </trkpt>
      <trkpt lat="44.7816" lon="4.25066">
        <ele>918</ele>
        <time>2024-05-04T11:28:52Z</time>
      </trkpt>
      <trkpt lat="44.78152" lon="4.25055">
        <ele>919</ele>
        <time>2024-05-04T11:28:54Z</time>
      </trkpt>
      <trkpt lat="44.78132" lon="4.25046">
        <ele>917</ele>
        <time>2024-05-04T11:28:59Z</time>
      </trkpt>
      <trkpt lat="44.7812" lon="4.25045">
        <ele>916</ele>
        <time>2024-05-04T11:29:02Z</time>
      </trkpt>
      <trkpt lat="44.78117" lon="4.25041">
        <ele>916</ele>
        <time>2024-05-04T11:29:03Z</time>
      </trkpt>
      <trkpt lat="44.78107" lon="4.2504">
        <ele>914</ele>
        <time>2024-05-04T11:29:06Z</time>
      </trkpt>
      <trkpt lat="44.78099" lon="4.25023">
        <ele>915</ele>
        <time>2024-05-04T11:29:09Z</time>
      </trkpt>
      <trkpt lat="44.7809" lon="4.2502">
        <ele>914</ele>
        <time>2024-05-04T11:29:11Z</time>
      </trkpt>
      <trkpt lat="44.78082" lon="4.25045">
        <ele>910</ele>
        <time>2024-05-04T11:29:16Z</time>
      </trkpt>
      <trkpt lat="44.78085" lon="4.25067">
        <ele>906</ele>
        <time>2024-05-04T11:29:19Z</time>
      </trkpt>
      <trkpt lat="44.78082" lon="4.25085">
        <ele>905</ele>
        <time>2024-05-04T11:29:22Z</time>
      </trkpt>
      <trkpt lat="44.78101" lon="4.25129">
        <ele>903</ele>
        <time>2024-05-04T11:29:31Z</time>
      </trkpt>
      <trkpt lat="44.78101" lon="4.25143">
        <ele>902</ele>
        <time>2024-05-04T11:29:33Z</time>
      </trkpt>
      <trkpt lat="44.78097" lon="4.25165">
        <ele>900</ele>
        <time>2024-05-04T11:29:37Z</time>
      </trkpt>
      <trkpt lat="44.78077" lon="4.25225">
        <ele>889</ele>
        <time>2024-05-04T11:29:48Z</time>
      </trkpt>
      <trkpt lat="44.78061" lon="4.25252">
        <ele>889</ele>
        <time>2024-05-04T11:29:54Z</time>
      </trkpt>
      <trkpt lat="44.78035" lon="4.25287">
        <ele>890</ele>
        <time>2024-05-04T11:30:02Z</time>
      </trkpt>
      <trkpt lat="44.78028" lon="4.25306">
        <ele>889</ele>
        <time>2024-05-04T11:30:06Z</time>
      </trkpt>
      <trkpt lat="44.78019" lon="4.25348">
        <ele>882</ele>
        <time>2024-05-04T11:30:13Z</time>
      </trkpt>
      <trkpt lat="44.78008" lon="4.25382">
        <ele>876</ele>
        <time>2024-05-04T11:30:19Z</time>
      </trkpt>
      <trkpt lat="44.77981" lon="4.25405">
        <ele>873</ele>
        <time>2024-05-04T11:30:27Z</time>
      </trkpt>
      <trkpt lat="44.77981" lon="4.25412">
        <ele>871</ele>
        <time>2024-05-04T11:30:28Z</time>
      </trkpt>
      <trkpt lat="44.7796" lon="4.25416">
        <ele>873</ele>
        <time>2024-05-04T11:30:33Z</time>
      </trkpt>
      <trkpt lat="44.77925" lon="4.25432">
        <ele>869</ele>
        <time>2024-05-04T11:30:41Z</time>
      </trkpt>
      <trkpt lat="44.77916" lon="4.25433">
        <ele>869</ele>
        <time>2024-05-04T11:30:43Z</time>
      </trkpt>
      <trkpt lat="44.77906" lon="4.25438">
        <ele>863</ele>
        <time>2024-05-04T11:30:46Z</time>
      </trkpt>
      <trkpt lat="44.7789" lon="4.25422">
        <ele>865</ele>
        <time>2024-05-04T11:30:50Z</time>
      </trkpt>
      <trkpt lat="44.77877" lon="4.25415">
        <ele>863</ele>
        <time>2024-05-04T11:30:54Z</time>
      </trkpt>
      <trkpt lat="44.77856" lon="4.25381">
        <ele>869</ele>
        <time>2024-05-04T11:31:01Z</time>
      </trkpt>
      <trkpt lat="44.77851" lon="4.25381">
        <ele>867</ele>
        <time>2024-05-04T11:31:02Z</time>
      </trkpt>
      <trkpt lat="44.77847" lon="4.25384">
        <ele>864</ele>
        <time>2024-05-04T11:31:03Z</time>
      </trkpt>
      <trkpt lat="44.77842" lon="4.2538">
        <ele>864</ele>
        <time>2024-05-04T11:31:05Z</time>
      </trkpt>
      <trkpt lat="44.77827" lon="4.25379">
        <ele>860</ele>
        <time>2024-05-04T11:31:08Z</time>
      </trkpt>
      <trkpt lat="44.77815" lon="4.25367">
        <ele>862</ele>
        <time>2024-05-04T11:31:12Z</time>
      </trkpt>
      <trkpt lat="44.77796" lon="4.25357">
        <ele>861</ele>
        <time>2024-05-04T11:31:16Z</time>
      </trkpt>
      <trkpt lat="44.77791" lon="4.25309">
        <ele>876</ele>
        <time>2024-05-04T11:31:24Z</time>
      </trkpt>
      <trkpt lat="44.77789" lon="4.25303">
        <ele>877</ele>
        <time>2024-05-04T11:31:26Z</time>
      </trkpt>
      <trkpt lat="44.77784" lon="4.253">
        <ele>877</ele>
        <time>2024-05-04T11:31:27Z</time>
      </trkpt>
      <trkpt lat="44.77769" lon="4.25302">
        <ele>873</ele>
        <time>2024-05-04T11:31:30Z</time>
      </trkpt>
      <trkpt lat="44.77765" lon="4.25305">
        <ele>871</ele>
        <time>2024-05-04T11:31:31Z</time>
      </trkpt>
      <trkpt lat="44.77755" lon="4.25305">
        <ele>868</ele>
        <time>2024-05-04T11:31:34Z</time>
      </trkpt>
      <trkpt lat="44.77746" lon="4.25309">
        <ele>865</ele>
        <time>2024-05-04T11:31:36Z</time>
      </trkpt>
      <trkpt lat="44.77739" lon="4.25318">
        <ele>862</ele>
        <time>2024-05-04T11:31:38Z</time>
      </trkpt>
      <trkpt lat="44.77706" lon="4.25337">
        <ele>854</ele>
        <time>2024-05-04T11:31:46Z</time>
      </trkpt>
      <trkpt lat="44.77697" lon="4.25346">
        <ele>851</ele>
        <time>2024-05-04T11:31:49Z</time>
      </trkpt>
      <trkpt lat="44.77683" lon="4.25348">
        <ele>851</ele>
        <time>2024-05-04T11:31:52Z</time>
      </trkpt>
      <trkpt lat="44.77658" lon="4.25373">
        <ele>843</ele>
        <time>2024-05-04T11:32:00Z</time>
      </trkpt>
      <trkpt lat="44.77648" lon="4.25378">
        <ele>841</ele>
        <time>2024-05-04T11:32:02Z</time>
      </trkpt>
      <trkpt lat="44.77638" lon="4.25378">
        <ele>839</ele>
        <time>2024-05-04T11:32:04Z</time>
      </trkpt>
      <trkpt lat="44.77636" lon="4.25373">
        <ele>840</ele>
        <time>2024-05-04T11:32:05Z</time>
      </trkpt>
      <trkpt lat="44.77631" lon="4.2537">
        <ele>840</ele>
        <time>2024-05-04T11:32:07Z</time>
      </trkpt>
      <trkpt lat="44.77619" lon="4.25377">
        <ele>837</ele>
        <time>2024-05-04T11:32:10Z</time>
      </trkpt>
      <trkpt lat="44.77614" lon="4.25376">
        <ele>837</ele>
        <time>2024-05-04T11:32:11Z</time>
      </trkpt>
      <trkpt lat="44.77628" lon="4.25365">
        <ele>841</ele>
        <time>2024-05-04T11:32:15Z</time>
      </trkpt>
      <trkpt lat="44.77626" lon="4.25373">
        <ele>839</ele>
        <time>2024-05-04T11:32:16Z</time>
      </trkpt>
      <trkpt lat="44.7763" lon="4.25371">
        <ele>840</ele>
        <time>2024-05-04T11:32:17Z</time>
      </trkpt>
      <trkpt lat="44.77625" lon="4.25374">
        <ele>838</ele>
        <time>2024-05-04T11:32:18Z</time>
      </trkpt>
      <trkpt lat="44.77628" lon="4.25369">
        <ele>840</ele>
        <time>2024-05-04T11:32:19Z</time>
      </trkpt>
      <trkpt lat="44.77624" lon="4.25365">
        <ele>840</ele>
        <time>2024-05-04T11:32:20Z</time>
      </trkpt>
      <trkpt lat="44.77619" lon="4.25368">
        <ele>839</ele>
        <time>2024-05-04T11:32:22Z</time>
      </trkpt>
      <trkpt lat="44.7761" lon="4.25368">
        <ele>837</ele>
        <time>2024-05-04T11:32:24Z</time>
      </trkpt>
      <trkpt lat="44.7761" lon="4.25374">
        <ele>836</ele>
        <time>2024-05-04T11:32:25Z</time>
      </trkpt>
      <trkpt lat="44.77597" lon="4.25363">
        <ele>836</ele>
        <time>2024-05-04T11:32:28Z</time>
      </trkpt>
      <trkpt lat="44.7759" lon="4.25338">
        <ele>839</ele>
        <time>2024-05-04T11:32:33Z</time>
      </trkpt>
      <trkpt lat="44.77591" lon="4.25316">
        <ele>843</ele>
        <time>2024-05-04T11:32:36Z</time>
      </trkpt>
      <trkpt lat="44.77587" lon="4.2531">
        <ele>843</ele>
        <time>2024-05-04T11:32:38Z</time>
      </trkpt>
      <trkpt lat="44.77577" lon="4.25306">
        <ele>845</ele>
        <time>2024-05-04T11:32:40Z</time>
      </trkpt>
      <trkpt lat="44.77577" lon="4.25314">
        <ele>843</ele>
        <time>2024-05-04T11:32:42Z</time>
      </trkpt>
      <trkpt lat="44.77571" lon="4.25324">
        <ele>844</ele>
        <time>2024-05-04T11:32:44Z</time>
      </trkpt>
      <trkpt lat="44.7757" lon="4.25331">
        <ele>843</ele>
        <time>2024-05-04T11:32:45Z</time>
      </trkpt>
      <trkpt lat="44.77532" lon="4.25377">
        <ele>853</ele>
        <time>2024-05-04T11:32:57Z</time>
      </trkpt>
      <trkpt lat="44.77522" lon="4.25448">
        <ele>849</ele>
        <time>2024-05-04T11:33:09Z</time>
      </trkpt>
      <trkpt lat="44.77529" lon="4.25467">
        <ele>844</ele>
        <time>2024-05-04T11:33:12Z</time>
      </trkpt>
      <trkpt lat="44.77528" lon="4.25487">
        <ele>841</ele>
        <time>2024-05-04T11:33:15Z</time>
      </trkpt>
      <trkpt lat="44.77517" lon="4.25525">
        <ele>839</ele>
        <time>2024-05-04T11:33:22Z</time>
      </trkpt>
      <trkpt lat="44.77508" lon="4.25533">
        <ele>841</ele>
        <time>2024-05-04T11:33:25Z</time>
      </trkpt>
      <trkpt lat="44.77494" lon="4.25536">
        <ele>842</ele>
        <time>2024-05-04T11:33:28Z</time>
      </trkpt>
      <trkpt lat="44.77476" lon="4.25527">
        <ele>842</ele>
        <time>2024-05-04T11:33:33Z</time>
      </trkpt>
      <trkpt lat="44.77455" lon="4.25525">
        <ele>840</ele>
        <time>2024-05-04T11:33:37Z</time>
      </trkpt>
      <trkpt lat="44.77412" lon="4.25498">
        <ele>843</ele>
        <time>2024-05-04T11:33:48Z</time>
      </trkpt>
      <trkpt lat="44.77409" lon="4.25492">
        <ele>844</ele>
        <time>2024-05-04T11:33:50Z</time>
      </trkpt>
      <trkpt lat="44.774" lon="4.25488">
        <ele>843</ele>
        <time>2024-05-04T11:33:52Z</time>
      </trkpt>
      <trkpt lat="44.7739" lon="4.25472">
        <ele>845</ele>
        <time>2024-05-04T11:33:55Z</time>
      </trkpt>
      <trkpt lat="44.77365" lon="4.25444">
        <ele>849</ele>
        <time>2024-05-04T11:34:03Z</time>
      </trkpt>
      <trkpt lat="44.77348" lon="4.25429">
        <ele>851</ele>
        <time>2024-05-04T11:34:08Z</time>
      </trkpt>
      <trkpt lat="44.77322" lon="4.25424">
        <ele>847</ele>
        <time>2024-05-04T11:34:14Z</time>
      </trkpt>
      <trkpt lat="44.77318" lon="4.25421">
        <ele>847</ele>
        <time>2024-05-04T11:34:15Z</time>
      </trkpt>
      <trkpt lat="44.77313" lon="4.25421">
        <ele>846</ele>
        <time>2024-05-04T11:34:16Z</time>
      </trkpt>
      <trkpt lat="44.773" lon="4.25432">
        <ele>837</ele>
        <time>2024-05-04T11:34:19Z</time>
      </trkpt>
      <trkpt lat="44.7729" lon="4.2543">
        <ele>835</ele>
        <time>2024-05-04T11:34:22Z</time>
      </trkpt>
      <trkpt lat="44.77281" lon="4.25425">
        <ele>836</ele>
        <time>2024-05-04T11:34:24Z</time>
      </trkpt>
      <trkpt lat="44.77266" lon="4.25426">
        <ele>831</ele>
        <time>2024-05-04T11:34:28Z</time>
      </trkpt>
      <trkpt lat="44.77257" lon="4.25419">
        <ele>833</ele>
        <time>2024-05-04T11:34:30Z</time>
      </trkpt>
      <trkpt lat="44.77247" lon="4.25405">
        <ele>836</ele>
        <time>2024-05-04T11:34:33Z</time>
      </trkpt>
      <trkpt lat="44.77238" lon="4.25402">
        <ele>835</ele>
        <time>2024-05-04T11:34:35Z</time>
      </trkpt>
      <trkpt lat="44.77234" lon="4.25398">
        <ele>836</ele>
        <time>2024-05-04T11:34:37Z</time>
      </trkpt>
      <trkpt lat="44.7723" lon="4.25393">
        <ele>837</ele>
        <time>2024-05-04T11:34:38Z</time>
      </trkpt>
      <trkpt lat="44.7723" lon="4.25386">
        <ele>841</ele>
        <time>2024-05-04T11:34:39Z</time>
      </trkpt>
      <trkpt lat="44.77225" lon="4.25375">
        <ele>845</ele>
        <time>2024-05-04T11:34:41Z</time>
      </trkpt>
      <trkpt lat="44.7721" lon="4.25377">
        <ele>841</ele>
        <time>2024-05-04T11:34:45Z</time>
      </trkpt>
      <trkpt lat="44.77182" lon="4.25373">
        <ele>837</ele>
        <time>2024-05-04T11:34:51Z</time>
      </trkpt>
      <trkpt lat="44.77177" lon="4.2537">
        <ele>838</ele>
        <time>2024-05-04T11:34:52Z</time>
      </trkpt>
      <trkpt lat="44.77168" lon="4.25374">
        <ele>833</ele>
        <time>2024-05-04T11:34:55Z</time>
      </trkpt>
      <trkpt lat="44.77163" lon="4.25373">
        <ele>835</ele>
        <time>2024-05-04T11:34:56Z</time>
      </trkpt>
      <trkpt lat="44.7716" lon="4.25369">
        <ele>839</ele>
        <time>2024-05-04T11:34:57Z</time>
      </trkpt>
      <trkpt lat="44.77145" lon="4.25372">
        <ele>841</ele>
        <time>2024-05-04T11:35:00Z</time>
      </trkpt>
      <trkpt lat="44.77136" lon="4.25378">
        <ele>839</ele>
        <time>2024-05-04T11:35:03Z</time>
      </trkpt>
      <trkpt lat="44.77131" lon="4.25378">
        <ele>840</ele>
        <time>2024-05-04T11:35:04Z</time>
      </trkpt>
      <trkpt lat="44.77129" lon="4.25384">
        <ele>836</ele>
        <time>2024-05-04T11:35:05Z</time>
      </trkpt>
      <trkpt lat="44.77122" lon="4.25392">
        <ele>832</ele>
        <time>2024-05-04T11:35:07Z</time>
      </trkpt>
      <trkpt lat="44.77117" lon="4.25391">
        <ele>834</ele>
        <time>2024-05-04T11:35:08Z</time>
      </trkpt>
      <trkpt lat="44.77099" lon="4.254">
        <ele>832</ele>
        <time>2024-05-04T11:35:13Z</time>
      </trkpt>
      <trkpt lat="44.77075" lon="4.25439">
        <ele>816</ele>
        <time>2024-05-04T11:35:21Z</time>
      </trkpt>
      <trkpt lat="44.77066" lon="4.25445">
        <ele>819</ele>
        <time>2024-05-04T11:35:24Z</time>
      </trkpt>
      <trkpt lat="44.77063" lon="4.25457">
        <ele>815</ele>
        <time>2024-05-04T11:35:26Z</time>
      </trkpt>
      <trkpt lat="44.77053" lon="4.25473">
        <ele>813</ele>
        <time>2024-05-04T11:35:29Z</time>
      </trkpt>
      <trkpt lat="44.77044" lon="4.25479">
        <ele>817</ele>
        <time>2024-05-04T11:35:32Z</time>
      </trkpt>
      <trkpt lat="44.77039" lon="4.25497">
        <ele>811</ele>
        <time>2024-05-04T11:35:35Z</time>
      </trkpt>
      <trkpt lat="44.77032" lon="4.25507">
        <ele>811</ele>
        <time>2024-05-04T11:35:37Z</time>
      </trkpt>
      <trkpt lat="44.77031" lon="4.25513">
        <ele>809</ele>
        <time>2024-05-04T11:35:38Z</time>
      </trkpt>
      <trkpt lat="44.77032" lon="4.2556">
        <ele>790</ele>
        <time>2024-05-04T11:35:46Z</time>
      </trkpt>
      <trkpt lat="44.77018" lon="4.25561">
        <ele>797</ele>
        <time>2024-05-04T11:35:49Z</time>
      </trkpt>
      <trkpt lat="44.77009" lon="4.25567">
        <ele>798</ele>
        <time>2024-05-04T11:35:52Z</time>
      </trkpt>
      <trkpt lat="44.77005" lon="4.25572">
        <ele>798</ele>
        <time>2024-05-04T11:35:53Z</time>
      </trkpt>
      <trkpt lat="44.76998" lon="4.25592">
        <ele>792</ele>
        <time>2024-05-04T11:35:56Z</time>
      </trkpt>
      <trkpt lat="44.76989" lon="4.25597">
        <ele>793</ele>
        <time>2024-05-04T11:35:59Z</time>
      </trkpt>
      <trkpt lat="44.76979" lon="4.25613">
        <ele>791</ele>
        <time>2024-05-04T11:36:02Z</time>
      </trkpt>
      <trkpt lat="44.7697" lon="4.25646">
        <ele>784</ele>
        <time>2024-05-04T11:36:08Z</time>
      </trkpt>
      <trkpt lat="44.76964" lon="4.25656">
        <ele>783</ele>
        <time>2024-05-04T11:36:10Z</time>
      </trkpt>
      <trkpt lat="44.76955" lon="4.25682">
        <ele>782</ele>
        <time>2024-05-04T11:36:15Z</time>
      </trkpt>
      <trkpt lat="44.76933" lon="4.25721">
        <ele>785</ele>
        <time>2024-05-04T11:36:23Z</time>
      </trkpt>
      <trkpt lat="44.76929" lon="4.25735">
        <ele>783</ele>
        <time>2024-05-04T11:36:26Z</time>
      </trkpt>
      <trkpt lat="44.76916" lon="4.25755">
        <ele>784</ele>
        <time>2024-05-04T11:36:30Z</time>
      </trkpt>
      <trkpt lat="44.76912" lon="4.2576">
        <ele>783</ele>
        <time>2024-05-04T11:36:32Z</time>
      </trkpt>
      <trkpt lat="44.76898" lon="4.25759">
        <ele>784</ele>
        <time>2024-05-04T11:36:35Z</time>
      </trkpt>
      <trkpt lat="44.76892" lon="4.25745">
        <ele>788</ele>
        <time>2024-05-04T11:36:38Z</time>
      </trkpt>
      <trkpt lat="44.76877" lon="4.25729">
        <ele>793</ele>
        <time>2024-05-04T11:36:42Z</time>
      </trkpt>
      <trkpt lat="44.76876" lon="4.25722">
        <ele>794</ele>
        <time>2024-05-04T11:36:43Z</time>
      </trkpt>
      <trkpt lat="44.7687" lon="4.25712">
        <ele>797</ele>
        <time>2024-05-04T11:36:45Z</time>
      </trkpt>
      <trkpt lat="44.76861" lon="4.25711">
        <ele>797</ele>
        <time>2024-05-04T11:36:47Z</time>
      </trkpt>
      <trkpt lat="44.76854" lon="4.25723">
        <ele>795</ele>
        <time>2024-05-04T11:36:50Z</time>
      </trkpt>
      <trkpt lat="44.76849" lon="4.25727">
        <ele>794</ele>
        <time>2024-05-04T11:36:51Z</time>
      </trkpt>
      <trkpt lat="44.76831" lon="4.25765">
        <ele>787</ele>
        <time>2024-05-04T11:36:59Z</time>
      </trkpt>
      <trkpt lat="44.76822" lon="4.2577">
        <ele>788</ele>
        <time>2024-05-04T11:37:01Z</time>
      </trkpt>
      <trkpt lat="44.76796" lon="4.25803">
        <ele>787</ele>
        <time>2024-05-04T11:37:09Z</time>
      </trkpt>
      <trkpt lat="44.76789" lon="4.25814">
        <ele>786</ele>
        <time>2024-05-04T11:37:12Z</time>
      </trkpt>
      <trkpt lat="44.76788" lon="4.25821">
        <ele>784</ele>
        <time>2024-05-04T11:37:13Z</time>
      </trkpt>
      <trkpt lat="44.76759" lon="4.25847">
        <ele>785</ele>
        <time>2024-05-04T11:37:21Z</time>
      </trkpt>
      <trkpt lat="44.76749" lon="4.25865">
        <ele>783</ele>
        <time>2024-05-04T11:37:25Z</time>
      </trkpt>
      <trkpt lat="44.76725" lon="4.25889">
        <ele>788</ele>
        <time>2024-05-04T11:37:32Z</time>
      </trkpt>
      <trkpt lat="44.76716" lon="4.25915">
        <ele>785</ele>
        <time>2024-05-04T11:37:36Z</time>
      </trkpt>
      <trkpt lat="44.76702" lon="4.25934">
        <ele>784</ele>
        <time>2024-05-04T11:37:41Z</time>
      </trkpt>
      <trkpt lat="44.76698" lon="4.25947">
        <ele>781</ele>
        <time>2024-05-04T11:37:43Z</time>
      </trkpt>
      <trkpt lat="44.7669" lon="4.25954">
        <ele>782</ele>
        <time>2024-05-04T11:37:46Z</time>
      </trkpt>
      <trkpt lat="44.76684" lon="4.25972">
        <ele>778</ele>
        <time>2024-05-04T11:37:49Z</time>
      </trkpt>
      <trkpt lat="44.76689" lon="4.25969">
        <ele>777</ele>
        <time>2024-05-04T11:37:50Z</time>
      </trkpt>
      <trkpt lat="44.76686" lon="4.25964">
        <ele>780</ele>
        <time>2024-05-04T11:37:51Z</time>
      </trkpt>
      <trkpt lat="44.76669" lon="4.25981">
        <ele>782</ele>
        <time>2024-05-04T11:37:56Z</time>
      </trkpt>
      <trkpt lat="44.76663" lon="4.25993">
        <ele>780</ele>
        <time>2024-05-04T11:37:59Z</time>
      </trkpt>
      <trkpt lat="44.76651" lon="4.26008">
        <ele>779</ele>
        <time>2024-05-04T11:38:02Z</time>
      </trkpt>
      <trkpt lat="44.76651" lon="4.26014">
        <ele>777</ele>
        <time>2024-05-04T11:38:03Z</time>
      </trkpt>
      <trkpt lat="44.76646" lon="4.26026">
        <ele>774</ele>
        <time>2024-05-04T11:38:06Z</time>
      </trkpt>
      <trkpt lat="44.76637" lon="4.26033">
        <ele>775</ele>
        <time>2024-05-04T11:38:08Z</time>
      </trkpt>
      <trkpt lat="44.76622" lon="4.2606">
        <ele>769</ele>
        <time>2024-05-04T11:38:14Z</time>
      </trkpt>
      <trkpt lat="44.7661" lon="4.26071">
        <ele>769</ele>
        <time>2024-05-04T11:38:17Z</time>
      </trkpt>
      <trkpt lat="44.76608" lon="4.26077">
        <ele>767</ele>
        <time>2024-05-04T11:38:18Z</time>
      </trkpt>
      <trkpt lat="44.76603" lon="4.26076">
        <ele>769</ele>
        <time>2024-05-04T11:38:19Z</time>
      </trkpt>
      <trkpt lat="44.76599" lon="4.26078">
        <ele>770</ele>
        <time>2024-05-04T11:38:20Z</time>
      </trkpt>
      <trkpt lat="44.7659" lon="4.26094">
        <ele>767</ele>
        <time>2024-05-04T11:38:24Z</time>
      </trkpt>
      <trkpt lat="44.76581" lon="4.261">
        <ele>767</ele>
        <time>2024-05-04T11:38:26Z</time>
      </trkpt>
      <trkpt lat="44.76567" lon="4.26105">
        <ele>768</ele>
        <time>2024-05-04T11:38:29Z</time>
      </trkpt>
      <trkpt lat="44.7656" lon="4.26114">
        <ele>767</ele>
        <time>2024-05-04T11:38:32Z</time>
      </trkpt>
      <trkpt lat="44.7655" lon="4.26117">
        <ele>768</ele>
        <time>2024-05-04T11:38:34Z</time>
      </trkpt>
      <trkpt lat="44.76537" lon="4.26127">
        <ele>767</ele>
        <time>2024-05-04T11:38:37Z</time>
      </trkpt>
      <trkpt lat="44.76528" lon="4.26146">
        <ele>762</ele>
        <time>2024-05-04T11:38:41Z</time>
      </trkpt>
      <trkpt lat="44.76522" lon="4.26148">
        <ele>763</ele>
        <time>2024-05-04T11:38:43Z</time>
      </trkpt>
      <trkpt lat="44.76514" lon="4.26157">
        <ele>761</ele>
        <time>2024-05-04T11:38:45Z</time>
      </trkpt>
      <trkpt lat="44.76507" lon="4.26175">
        <ele>757</ele>
        <time>2024-05-04T11:38:48Z</time>
      </trkpt>
      <trkpt lat="44.7651" lon="4.2618">
        <ele>755</ele>
        <time>2024-05-04T11:38:50Z</time>
      </trkpt>
      <trkpt lat="44.76499" lon="4.26192">
        <ele>754</ele>
        <time>2024-05-04T11:38:53Z</time>
      </trkpt>
      <trkpt lat="44.76474" lon="4.26183">
        <ele>752</ele>
        <time>2024-05-04T11:38:59Z</time>
      </trkpt>
      <trkpt lat="44.7647" lon="4.26186">
        <ele>750</ele>
        <time>2024-05-04T11:39:00Z</time>
      </trkpt>
      <trkpt lat="44.76454" lon="4.26184">
        <ele>748</ele>
        <time>2024-05-04T11:39:04Z</time>
      </trkpt>
      <trkpt lat="44.76449" lon="4.26186">
        <ele>747</ele>
        <time>2024-05-04T11:39:05Z</time>
      </trkpt>
      <trkpt lat="44.76439" lon="4.26182">
        <ele>746</ele>
        <time>2024-05-04T11:39:07Z</time>
      </trkpt>
      <trkpt lat="44.76431" lon="4.26175">
        <ele>748</ele>
        <time>2024-05-04T11:39:09Z</time>
      </trkpt>
      <trkpt lat="44.76426" lon="4.26176">
        <ele>746</ele>
        <time>2024-05-04T11:39:11Z</time>
      </trkpt>
      <trkpt lat="44.76424" lon="4.2617">
        <ele>749</ele>
        <time>2024-05-04T11:39:12Z</time>
      </trkpt>
      <trkpt lat="44.76393" lon="4.26152">
        <ele>746</ele>
        <time>2024-05-04T11:39:20Z</time>
      </trkpt>
      <trkpt lat="44.7639" lon="4.26146">
        <ele>748</ele>
        <time>2024-05-04T11:39:21Z</time>
      </trkpt>
      <trkpt lat="44.76381" lon="4.2615">
        <ele>743</ele>
        <time>2024-05-04T11:39:23Z</time>
      </trkpt>
      <trkpt lat="44.76376" lon="4.26148">
        <ele>742</ele>
        <time>2024-05-04T11:39:24Z</time>
      </trkpt>
      <trkpt lat="44.76353" lon="4.26134">
        <ele>740</ele>
        <time>2024-05-04T11:39:30Z</time>
      </trkpt>
      <trkpt lat="44.76341" lon="4.26121">
        <ele>742</ele>
        <time>2024-05-04T11:39:34Z</time>
      </trkpt>
      <trkpt lat="44.76332" lon="4.26116">
        <ele>741</ele>
        <time>2024-05-04T11:39:36Z</time>
      </trkpt>
      <trkpt lat="44.76321" lon="4.2613">
        <ele>733</ele>
        <time>2024-05-04T11:39:39Z</time>
      </trkpt>
      <trkpt lat="44.76315" lon="4.26132">
        <ele>731</ele>
        <time>2024-05-04T11:39:41Z</time>
      </trkpt>
      <trkpt lat="44.76306" lon="4.26131">
        <ele>730</ele>
        <time>2024-05-04T11:39:43Z</time>
      </trkpt>
      <trkpt lat="44.76289" lon="4.26115">
        <ele>734</ele>
        <time>2024-05-04T11:39:48Z</time>
      </trkpt>
      <trkpt lat="44.76275" lon="4.26108">
        <ele>734</ele>
        <time>2024-05-04T11:39:51Z</time>
      </trkpt>
      <trkpt lat="44.76266" lon="4.261">
        <ele>736</ele>
        <time>2024-05-04T11:39:54Z</time>
      </trkpt>
      <trkpt lat="44.76265" lon="4.26094">
        <ele>738</ele>
        <time>2024-05-04T11:39:55Z</time>
      </trkpt>
      <trkpt lat="44.76255" lon="4.26096">
        <ele>735</ele>
        <time>2024-05-04T11:39:57Z</time>
      </trkpt>
      <trkpt lat="44.7625" lon="4.26094">
        <ele>735</ele>
        <time>2024-05-04T11:39:58Z</time>
      </trkpt>
      <trkpt lat="44.76241" lon="4.26098">
        <ele>733</ele>
        <time>2024-05-04T11:40:00Z</time>
      </trkpt>
      <trkpt lat="44.76234" lon="4.26116">
        <ele>725</ele>
        <time>2024-05-04T11:40:04Z</time>
      </trkpt>
      <trkpt lat="44.7621" lon="4.26128">
        <ele>719</ele>
        <time>2024-05-04T11:40:10Z</time>
      </trkpt>
      <trkpt lat="44.76177" lon="4.26115">
        <ele>722</ele>
        <time>2024-05-04T11:40:18Z</time>
      </trkpt>
      <trkpt lat="44.76156" lon="4.2611">
        <ele>721</ele>
        <time>2024-05-04T11:40:23Z</time>
      </trkpt>
      <trkpt lat="44.7613" lon="4.26089">
        <ele>722</ele>
        <time>2024-05-04T11:40:30Z</time>
      </trkpt>
      <trkpt lat="44.7612" lon="4.26073">
        <ele>725</ele>
        <time>2024-05-04T11:40:33Z</time>
      </trkpt>
      <trkpt lat="44.76114" lon="4.26052">
        <ele>730</ele>
        <time>2024-05-04T11:40:37Z</time>
      </trkpt>
      <trkpt lat="44.76104" lon="4.26049">
        <ele>728</ele>
        <time>2024-05-04T11:40:39Z</time>
      </trkpt>
      <trkpt lat="44.761" lon="4.2605">
        <ele>727</ele>
        <time>2024-05-04T11:40:40Z</time>
      </trkpt>
      <trkpt lat="44.76077" lon="4.26039">
        <ele>725</ele>
        <time>2024-05-04T11:40:46Z</time>
      </trkpt>
      <trkpt lat="44.76063" lon="4.26036">
        <ele>724</ele>
        <time>2024-05-04T11:40:49Z</time>
      </trkpt>
      <trkpt lat="44.76058" lon="4.26037">
        <ele>723</ele>
        <time>2024-05-04T11:40:50Z</time>
      </trkpt>
      <trkpt lat="44.76046" lon="4.26016">
        <ele>729</ele>
        <time>2024-05-04T11:40:55Z</time>
      </trkpt>
      <trkpt lat="44.76025" lon="4.26002">
        <ele>731</ele>
        <time>2024-05-04T11:41:00Z</time>
      </trkpt>
      <trkpt lat="44.76024" lon="4.25994">
        <ele>734</ele>
        <time>2024-05-04T11:41:02Z</time>
      </trkpt>
      <trkpt lat="44.76019" lon="4.25989">
        <ele>735</ele>
        <time>2024-05-04T11:41:03Z</time>
      </trkpt>
      <trkpt lat="44.76014" lon="4.25988">
        <ele>735</ele>
        <time>2024-05-04T11:41:04Z</time>
      </trkpt>
      <trkpt lat="44.76012" lon="4.25981">
        <ele>737</ele>
        <time>2024-05-04T11:41:06Z</time>
      </trkpt>
      <trkpt lat="44.76011" lon="4.25988">
        <ele>735</ele>
        <time>2024-05-04T11:41:07Z</time>
      </trkpt>
      <trkpt lat="44.76008" lon="4.25976">
        <ele>739</ele>
        <time>2024-05-04T11:41:09Z</time>
      </trkpt>
      <trkpt lat="44.76006" lon="4.25988">
        <ele>734</ele>
        <time>2024-05-04T11:41:11Z</time>
      </trkpt>
      <trkpt lat="44.76001" lon="4.25988">
        <ele>733</ele>
        <time>2024-05-04T11:41:12Z</time>
      </trkpt>
      <trkpt lat="44.75999" lon="4.25982">
        <ele>735</ele>
        <time>2024-05-04T11:41:13Z</time>
      </trkpt>
      <trkpt lat="44.75994" lon="4.2598">
        <ele>735</ele>
        <time>2024-05-04T11:41:14Z</time>
      </trkpt>
      <trkpt lat="44.75989" lon="4.25982">
        <ele>733</ele>
        <time>2024-05-04T11:41:16Z</time>
      </trkpt>
      <trkpt lat="44.7595" lon="4.25966">
        <ele>731</ele>
        <time>2024-05-04T11:41:25Z</time>
      </trkpt>
      <trkpt lat="44.75946" lon="4.25967">
        <ele>729</ele>
        <time>2024-05-04T11:41:26Z</time>
      </trkpt>
      <trkpt lat="44.75936" lon="4.25963">
        <ele>729</ele>
        <time>2024-05-04T11:41:28Z</time>
      </trkpt>
      <trkpt lat="44.75925" lon="4.25949">
        <ele>731</ele>
        <time>2024-05-04T11:41:32Z</time>
      </trkpt>
      <trkpt lat="44.75911" lon="4.2594">
        <ele>732</ele>
        <time>2024-05-04T11:41:36Z</time>
      </trkpt>
      <trkpt lat="44.75903" lon="4.25946">
        <ele>730</ele>
        <time>2024-05-04T11:41:38Z</time>
      </trkpt>
      <trkpt lat="44.75899" lon="4.25959">
        <ele>725</ele>
        <time>2024-05-04T11:41:40Z</time>
      </trkpt>
      <trkpt lat="44.75886" lon="4.25967">
        <ele>722</ele>
        <time>2024-05-04T11:41:43Z</time>
      </trkpt>
      <trkpt lat="44.75882" lon="4.25972">
        <ele>720</ele>
        <time>2024-05-04T11:41:45Z</time>
      </trkpt>
      <trkpt lat="44.75863" lon="4.25979">
        <ele>717</ele>
        <time>2024-05-04T11:41:49Z</time>
      </trkpt>
      <trkpt lat="44.75849" lon="4.25989">
        <ele>713</ele>
        <time>2024-05-04T11:41:53Z</time>
      </trkpt>
      <trkpt lat="44.75839" lon="4.25991">
        <ele>712</ele>
        <time>2024-05-04T11:41:55Z</time>
      </trkpt>
      <trkpt lat="44.75825" lon="4.25986">
        <ele>712</ele>
        <time>2024-05-04T11:41:59Z</time>
      </trkpt>
      <trkpt lat="44.75806" lon="4.25974">
        <ele>713</ele>
        <time>2024-05-04T11:42:03Z</time>
      </trkpt>
      <trkpt lat="44.75801" lon="4.25975">
        <ele>712</ele>
        <time>2024-05-04T11:42:05Z</time>
      </trkpt>
      <trkpt lat="44.75781" lon="4.25968">
        <ele>711</ele>
        <time>2024-05-04T11:42:09Z</time>
      </trkpt>
      <trkpt lat="44.75763" lon="4.25957">
        <ele>713</ele>
        <time>2024-05-04T11:42:14Z</time>
      </trkpt>
      <trkpt lat="44.75757" lon="4.25946">
        <ele>716</ele>
        <time>2024-05-04T11:42:16Z</time>
      </trkpt>
      <trkpt lat="44.75734" lon="4.25934">
        <ele>713</ele>
        <time>2024-05-04T11:42:22Z</time>
      </trkpt>
      <trkpt lat="44.75727" lon="4.25925">
        <ele>714</ele>
        <time>2024-05-04T11:42:24Z</time>
      </trkpt>
      <trkpt lat="44.75722" lon="4.25913">
        <ele>715</ele>
        <time>2024-05-04T11:42:27Z</time>
      </trkpt>
      <trkpt lat="44.75715" lon="4.25878">
        <ele>713</ele>
        <time>2024-05-04T11:42:33Z</time>
      </trkpt>
      <trkpt lat="44.75714" lon="4.25856">
        <ele>713</ele>
        <time>2024-05-04T11:42:36Z</time>
      </trkpt>
      <trkpt lat="44.75718" lon="4.25795">
        <ele>718</ele>
        <time>2024-05-04T11:42:46Z</time>
      </trkpt>
      <trkpt lat="44.75706" lon="4.25734">
        <ele>715</ele>
        <time>2024-05-04T11:42:57Z</time>
      </trkpt>
      <trkpt lat="44.75674" lon="4.25671">
        <ele>704</ele>
        <time>2024-05-04T11:43:10Z</time>
      </trkpt>
      <trkpt lat="44.75659" lon="4.25651">
        <ele>697</ele>
        <time>2024-05-04T11:43:15Z</time>
      </trkpt>
      <trkpt lat="44.7565" lon="4.25625">
        <ele>695</ele>
        <time>2024-05-04T11:43:19Z</time>
      </trkpt>
      <trkpt lat="44.75637" lon="4.25573">
        <ele>695</ele>
        <time>2024-05-04T11:43:28Z</time>
      </trkpt>
      <trkpt lat="44.75625" lon="4.25553">
        <ele>689</ele>
        <time>2024-05-04T11:43:33Z</time>
      </trkpt>
      <trkpt lat="44.75608" lon="4.25516">
        <ele>683</ele>
        <time>2024-05-04T11:43:40Z</time>
      </trkpt>
      <trkpt lat="44.75604" lon="4.25474">
        <ele>683</ele>
        <time>2024-05-04T11:43:47Z</time>
      </trkpt>
      <trkpt lat="44.75608" lon="4.25468">
        <ele>686</ele>
        <time>2024-05-04T11:43:49Z</time>
      </trkpt>
      <trkpt lat="44.75607" lon="4.25447">
        <ele>687</ele>
        <time>2024-05-04T11:43:52Z</time>
      </trkpt>
      <trkpt lat="44.75598" lon="4.25423">
        <ele>683</ele>
        <time>2024-05-04T11:43:57Z</time>
      </trkpt>
      <trkpt lat="44.75576" lon="4.25396">
        <ele>672</ele>
        <time>2024-05-04T11:44:03Z</time>
      </trkpt>
      <trkpt lat="44.75567" lon="4.25391">
        <ele>668</ele>
        <time>2024-05-04T11:44:06Z</time>
      </trkpt>
      <trkpt lat="44.75567" lon="4.25404">
        <ele>668</ele>
        <time>2024-05-04T11:44:08Z</time>
      </trkpt>
      <trkpt lat="44.75562" lon="4.25403">
        <ele>666</ele>
        <time>2024-05-04T11:44:09Z</time>
      </trkpt>
      <trkpt lat="44.75554" lon="4.25396">
        <ele>663</ele>
        <time>2024-05-04T11:44:11Z</time>
      </trkpt>
      <trkpt lat="44.75551" lon="4.25389">
        <ele>662</ele>
        <time>2024-05-04T11:44:12Z</time>
      </trkpt>
      <trkpt lat="44.75549" lon="4.25347">
        <ele>663</ele>
        <time>2024-05-04T11:44:19Z</time>
      </trkpt>
      <trkpt lat="44.75554" lon="4.25307">
        <ele>662</ele>
        <time>2024-05-04T11:44:26Z</time>
      </trkpt>
      <trkpt lat="44.75548" lon="4.25296">
        <ele>659</ele>
        <time>2024-05-04T11:44:28Z</time>
      </trkpt>
      <trkpt lat="44.7554" lon="4.25287">
        <ele>656</ele>
        <time>2024-05-04T11:44:31Z</time>
      </trkpt>
      <trkpt lat="44.75535" lon="4.25287">
        <ele>654</ele>
        <time>2024-05-04T11:44:32Z</time>
      </trkpt>
      <trkpt lat="44.75524" lon="4.25276">
        <ele>650</ele>
        <time>2024-05-04T11:44:35Z</time>
      </trkpt>
      <trkpt lat="44.75504" lon="4.25276">
        <ele>644</ele>
        <time>2024-05-04T11:44:40Z</time>
      </trkpt>
      <trkpt lat="44.75477" lon="4.25261">
        <ele>636</ele>
        <time>2024-05-04T11:44:47Z</time>
      </trkpt>
      <trkpt lat="44.75448" lon="4.25259">
        <ele>628</ele>
        <time>2024-05-04T11:44:53Z</time>
      </trkpt>
      <trkpt lat="44.75439" lon="4.25253">
        <ele>625</ele>
        <time>2024-05-04T11:44:56Z</time>
      </trkpt>
      <trkpt lat="44.75424" lon="4.25252">
        <ele>621</ele>
        <time>2024-05-04T11:44:59Z</time>
      </trkpt>
      <trkpt lat="44.75418" lon="4.25263">
        <ele>620</ele>
        <time>2024-05-04T11:45:02Z</time>
      </trkpt>
      <trkpt lat="44.75408" lon="4.25239">
        <ele>619</ele>
        <time>2024-05-04T11:45:06Z</time>
      </trkpt>
      <trkpt lat="44.75403" lon="4.25237">
        <ele>618</ele>
        <time>2024-05-04T11:45:07Z</time>
      </trkpt>
      <trkpt lat="44.75394" lon="4.25238">
        <ele>616</ele>
        <time>2024-05-04T11:45:09Z</time>
      </trkpt>
      <trkpt lat="44.75378" lon="4.25231">
        <ele>614</ele>
        <time>2024-05-04T11:45:13Z</time>
      </trkpt>
      <trkpt lat="44.75373" lon="4.25219">
        <ele>614</ele>
        <time>2024-05-04T11:45:16Z</time>
      </trkpt>
      <trkpt lat="44.75369" lon="4.25216">
        <ele>613</ele>
        <time>2024-05-04T11:45:17Z</time>
      </trkpt>
      <trkpt lat="44.75372" lon="4.2521">
        <ele>614</ele>
        <time>2024-05-04T11:45:18Z</time>
      </trkpt>
      <trkpt lat="44.75367" lon="4.25206">
        <ele>613</ele>
        <time>2024-05-04T11:45:19Z</time>
      </trkpt>
      <trkpt lat="44.75341" lon="4.25212">
        <ele>608</ele>
        <time>2024-05-04T11:45:25Z</time>
      </trkpt>
      <trkpt lat="44.75345" lon="4.25206">
        <ele>609</ele>
        <time>2024-05-04T11:45:27Z</time>
      </trkpt>
      <trkpt lat="44.75349" lon="4.25191">
        <ele>610</ele>
        <time>2024-05-04T11:45:30Z</time>
      </trkpt>
      <trkpt lat="44.75347" lon="4.25185">
        <ele>610</ele>
        <time>2024-05-04T11:45:31Z</time>
      </trkpt>
      <trkpt lat="44.75317" lon="4.25157">
        <ele>609</ele>
        <time>2024-05-04T11:45:39Z</time>
      </trkpt>
      <trkpt lat="44.75297" lon="4.25107">
        <ele>615</ele>
        <time>2024-05-04T11:45:49Z</time>
      </trkpt>
      <trkpt lat="44.75279" lon="4.25098">
        <ele>613</ele>
        <time>2024-05-04T11:45:53Z</time>
      </trkpt>
      <trkpt lat="44.75258" lon="4.25076">
        <ele>612</ele>
        <time>2024-05-04T11:45:59Z</time>
      </trkpt>
      <trkpt lat="44.7524" lon="4.25065">
        <ele>612</ele>
        <time>2024-05-04T11:46:04Z</time>
      </trkpt>
      <trkpt lat="44.7522" lon="4.25043">
        <ele>614</ele>
        <time>2024-05-04T11:46:10Z</time>
      </trkpt>
      <trkpt lat="44.75209" lon="4.25036">
        <ele>614</ele>
        <time>2024-05-04T11:46:12Z</time>
      </trkpt>
      <trkpt lat="44.75178" lon="4.25008">
        <ele>611</ele>
        <time>2024-05-04T11:46:21Z</time>
      </trkpt>
      <trkpt lat="44.75176" lon="4.25001">
        <ele>611</ele>
        <time>2024-05-04T11:46:22Z</time>
      </trkpt>
      <trkpt lat="44.75168" lon="4.24992">
        <ele>610</ele>
        <time>2024-05-04T11:46:25Z</time>
      </trkpt>
      <trkpt lat="44.75163" lon="4.24979">
        <ele>610</ele>
        <time>2024-05-04T11:46:27Z</time>
      </trkpt>
      <trkpt lat="44.75151" lon="4.24924">
        <ele>614</ele>
        <time>2024-05-04T11:46:37Z</time>
      </trkpt>
      <trkpt lat="44.7515" lon="4.2489">
        <ele>617</ele>
        <time>2024-05-04T11:46:42Z</time>
      </trkpt>
      <trkpt lat="44.75145" lon="4.24878">
        <ele>617</ele>
        <time>2024-05-04T11:46:45Z</time>
      </trkpt>
      <trkpt lat="44.75141" lon="4.24857">
        <ele>617</ele>
        <time>2024-05-04T11:46:48Z</time>
      </trkpt>
      <trkpt lat="44.75123" lon="4.24826">
        <ele>613</ele>
        <time>2024-05-04T11:46:55Z</time>
      </trkpt>
      <trkpt lat="44.75113" lon="4.2482">
        <ele>610</ele>
        <time>2024-05-04T11:46:57Z</time>
      </trkpt>
      <trkpt lat="44.75106" lon="4.24799">
        <ele>610</ele>
        <time>2024-05-04T11:47:01Z</time>
      </trkpt>
      <trkpt lat="44.75099" lon="4.24758">
        <ele>613</ele>
        <time>2024-05-04T11:47:08Z</time>
      </trkpt>
      <trkpt lat="44.75101" lon="4.24751">
        <ele>615</ele>
        <time>2024-05-04T11:47:09Z</time>
      </trkpt>
      <trkpt lat="44.75095" lon="4.24731">
        <ele>617</ele>
        <time>2024-05-04T11:47:13Z</time>
      </trkpt>
      <trkpt lat="44.75087" lon="4.24722">
        <ele>615</ele>
        <time>2024-05-04T11:47:15Z</time>
      </trkpt>
      <trkpt lat="44.75085" lon="4.24716">
        <ele>615</ele>
        <time>2024-05-04T11:47:17Z</time>
      </trkpt>
      <trkpt lat="44.75063" lon="4.247">
        <ele>611</ele>
        <time>2024-05-04T11:47:22Z</time>
      </trkpt>
      <trkpt lat="44.75049" lon="4.24695">
        <ele>607</ele>
        <time>2024-05-04T11:47:26Z</time>
      </trkpt>
      <trkpt lat="44.75034" lon="4.24694">
        <ele>601</ele>
        <time>2024-05-04T11:47:29Z</time>
      </trkpt>
      <trkpt lat="44.75026" lon="4.24686">
        <ele>600</ele>
        <time>2024-05-04T11:47:32Z</time>
      </trkpt>
      <trkpt lat="44.75017" lon="4.24667">
        <ele>599</ele>
        <time>2024-05-04T11:47:35Z</time>
      </trkpt>
      <trkpt lat="44.74992" lon="4.24643">
        <ele>593</ele>
        <time>2024-05-04T11:47:42Z</time>
      </trkpt>
      <trkpt lat="44.74986" lon="4.24625">
        <ele>593</ele>
        <time>2024-05-04T11:47:46Z</time>
      </trkpt>
      <trkpt lat="44.74984" lon="4.24601">
        <ele>595</ele>
        <time>2024-05-04T11:47:50Z</time>
      </trkpt>
      <trkpt lat="44.74975" lon="4.24582">
        <ele>596</ele>
        <time>2024-05-04T11:47:53Z</time>
      </trkpt>
      <trkpt lat="44.74972" lon="4.2456">
        <ele>598</ele>
        <time>2024-05-04T11:47:57Z</time>
      </trkpt>
      <trkpt lat="44.74968" lon="4.24556">
        <ele>598</ele>
        <time>2024-05-04T11:47:58Z</time>
      </trkpt>
      <trkpt lat="44.74913" lon="4.24547">
        <ele>601</ele>
        <time>2024-05-04T11:48:11Z</time>
      </trkpt>
      <trkpt lat="44.74868" lon="4.24555">
        <ele>608</ele>
        <time>2024-05-04T11:48:22Z</time>
      </trkpt>
      <trkpt lat="44.74846" lon="4.24555">
        <ele>612</ele>
        <time>2024-05-04T11:48:27Z</time>
      </trkpt>
      <trkpt lat="44.7483" lon="4.24562">
        <ele>614</ele>
        <time>2024-05-04T11:48:31Z</time>
      </trkpt>
      <trkpt lat="44.74805" lon="4.24567">
        <ele>618</ele>
        <time>2024-05-04T11:48:37Z</time>
      </trkpt>
      <trkpt lat="44.74785" lon="4.24562">
        <ele>625</ele>
        <time>2024-05-04T11:48:42Z</time>
      </trkpt>
      <trkpt lat="44.74768" lon="4.24548">
        <ele>634</ele>
        <time>2024-05-04T11:48:46Z</time>
      </trkpt>
      <trkpt lat="44.74756" lon="4.2456">
        <ele>633</ele>
        <time>2024-05-04T11:48:50Z</time>
      </trkpt>
      <trkpt lat="44.74751" lon="4.2456">
        <ele>634</ele>
        <time>2024-05-04T11:48:51Z</time>
      </trkpt>
      <trkpt lat="44.7475" lon="4.24567">
        <ele>632</ele>
        <time>2024-05-04T11:48:52Z</time>
      </trkpt>
      <trkpt lat="44.74745" lon="4.2457">
        <ele>633</ele>
        <time>2024-05-04T11:48:53Z</time>
      </trkpt>
      <trkpt lat="44.74738" lon="4.2458">
        <ele>632</ele>
        <time>2024-05-04T11:48:56Z</time>
      </trkpt>
      <trkpt lat="44.74714" lon="4.24626">
        <ele>626</ele>
        <time>2024-05-04T11:49:05Z</time>
      </trkpt>
      <trkpt lat="44.74706" lon="4.24635">
        <ele>627</ele>
        <time>2024-05-04T11:49:07Z</time>
      </trkpt>
      <trkpt lat="44.747" lon="4.24647">
        <ele>626</ele>
        <time>2024-05-04T11:49:10Z</time>
      </trkpt>
      <trkpt lat="44.74696" lon="4.24652">
        <ele>626</ele>
        <time>2024-05-04T11:49:11Z</time>
      </trkpt>
      <trkpt lat="44.74682" lon="4.2466">
        <ele>630</ele>
        <time>2024-05-04T11:49:15Z</time>
      </trkpt>
      <trkpt lat="44.74675" lon="4.2467">
        <ele>630</ele>
        <time>2024-05-04T11:49:17Z</time>
      </trkpt>
      <trkpt lat="44.7466" lon="4.24682">
        <ele>631</ele>
        <time>2024-05-04T11:49:21Z</time>
      </trkpt>
      <trkpt lat="44.74655" lon="4.24682">
        <ele>631</ele>
        <time>2024-05-04T11:49:22Z</time>
      </trkpt>
      <trkpt lat="44.74635" lon="4.24672">
        <ele>634</ele>
        <time>2024-05-04T11:49:27Z</time>
      </trkpt>
      <trkpt lat="44.74619" lon="4.2467">
        <ele>635</ele>
        <time>2024-05-04T11:49:31Z</time>
      </trkpt>
      <trkpt lat="44.74596" lon="4.24646">
        <ele>642</ele>
        <time>2024-05-04T11:49:38Z</time>
      </trkpt>
      <trkpt lat="44.74592" lon="4.24641">
        <ele>644</ele>
        <time>2024-05-04T11:49:39Z</time>
      </trkpt>
      <trkpt lat="44.74591" lon="4.24635">
        <ele>646</ele>
        <time>2024-05-04T11:49:40Z</time>
      </trkpt>
      <trkpt lat="44.74596" lon="4.24638">
        <ele>645</ele>
        <time>2024-05-04T11:49:41Z</time>
      </trkpt>
      <trkpt lat="44.74577" lon="4.2463">
        <ele>646</ele>
        <time>2024-05-04T11:49:46Z</time>
      </trkpt>
      <trkpt lat="44.74572" lon="4.24614">
        <ele>650</ele>
        <time>2024-05-04T11:49:49Z</time>
      </trkpt>
      <trkpt lat="44.7457" lon="4.24597">
        <ele>655</ele>
        <time>2024-05-04T11:49:51Z</time>
      </trkpt>
      <trkpt lat="44.74571" lon="4.24556">
        <ele>668</ele>
        <time>2024-05-04T11:49:58Z</time>
      </trkpt>
      <trkpt lat="44.7456" lon="4.24539">
        <ele>671</ele>
        <time>2024-05-04T11:50:02Z</time>
      </trkpt>
      <trkpt lat="44.74547" lon="4.24509">
        <ele>676</ele>
        <time>2024-05-04T11:50:08Z</time>
      </trkpt>
      <trkpt lat="44.74534" lon="4.24494">
        <ele>677</ele>
        <time>2024-05-04T11:50:12Z</time>
      </trkpt>
      <trkpt lat="44.74511" lon="4.24482">
        <ele>672</ele>
        <time>2024-05-04T11:50:18Z</time>
      </trkpt>
      <trkpt lat="44.74496" lon="4.24477">
        <ele>668</ele>
        <time>2024-05-04T11:50:21Z</time>
      </trkpt>
      <trkpt lat="44.74445" lon="4.24472">
        <ele>651</ele>
        <time>2024-05-04T11:50:33Z</time>
      </trkpt>
      <trkpt lat="44.74441" lon="4.24454">
        <ele>653</ele>
        <time>2024-05-04T11:50:36Z</time>
      </trkpt>
      <trkpt lat="44.74417" lon="4.24423">
        <ele>652</ele>
        <time>2024-05-04T11:50:44Z</time>
      </trkpt>
      <trkpt lat="44.74412" lon="4.24421">
        <ele>651</ele>
        <time>2024-05-04T11:50:45Z</time>
      </trkpt>
      <trkpt lat="44.74381" lon="4.24423">
        <ele>647</ele>
        <time>2024-05-04T11:50:52Z</time>
      </trkpt>
      <trkpt lat="44.74374" lon="4.24415">
        <ele>649</ele>
        <time>2024-05-04T11:50:54Z</time>
      </trkpt>
      <trkpt lat="44.74365" lon="4.24419">
        <ele>647</ele>
        <time>2024-05-04T11:50:57Z</time>
      </trkpt>
      <trkpt lat="44.74356" lon="4.24361">
        <ele>654</ele>
        <time>2024-05-04T11:51:06Z</time>
      </trkpt>
      <trkpt lat="44.74353" lon="4.24355">
        <ele>655</ele>
        <time>2024-05-04T11:51:08Z</time>
      </trkpt>
      <trkpt lat="44.7435" lon="4.24325">
        <ele>658</ele>
        <time>2024-05-04T11:51:13Z</time>
      </trkpt>
      <trkpt lat="44.74331" lon="4.2427">
        <ele>655</ele>
        <time>2024-05-04T11:51:23Z</time>
      </trkpt>
      <trkpt lat="44.74292" lon="4.24223">
        <ele>636</ele>
        <time>2024-05-04T11:51:35Z</time>
      </trkpt>
      <trkpt lat="44.7427" lon="4.24208">
        <ele>624</ele>
        <time>2024-05-04T11:51:41Z</time>
      </trkpt>
      <trkpt lat="44.74262" lon="4.24196">
        <ele>619</ele>
        <time>2024-05-04T11:51:43Z</time>
      </trkpt>
      <trkpt lat="44.74247" lon="4.24184">
        <ele>611</ele>
        <time>2024-05-04T11:51:47Z</time>
      </trkpt>
      <trkpt lat="44.74247" lon="4.2417">
        <ele>610</ele>
        <time>2024-05-04T11:51:50Z</time>
      </trkpt>
      <trkpt lat="44.74219" lon="4.24161">
        <ele>599</ele>
        <time>2024-05-04T11:51:56Z</time>
      </trkpt>
      <trkpt lat="44.74204" lon="4.24162">
        <ele>593</ele>
        <time>2024-05-04T11:52:00Z</time>
      </trkpt>
      <trkpt lat="44.74199" lon="4.24159">
        <ele>591</ele>
        <time>2024-05-04T11:52:01Z</time>
      </trkpt>
      <trkpt lat="44.74195" lon="4.24163">
        <ele>590</ele>
        <time>2024-05-04T11:52:02Z</time>
      </trkpt>
      <trkpt lat="44.74191" lon="4.2416">
        <ele>588</ele>
        <time>2024-05-04T11:52:03Z</time>
      </trkpt>
      <trkpt lat="44.74163" lon="4.24158">
        <ele>578</ele>
        <time>2024-05-04T11:52:10Z</time>
      </trkpt>
      <trkpt lat="44.74149" lon="4.24147">
        <ele>576</ele>
        <time>2024-05-04T11:52:14Z</time>
      </trkpt>
      <trkpt lat="44.74149" lon="4.2414">
        <ele>577</ele>
        <time>2024-05-04T11:52:15Z</time>
      </trkpt>
      <trkpt lat="44.74146" lon="4.24134">
        <ele>576</ele>
        <time>2024-05-04T11:52:16Z</time>
      </trkpt>
      <trkpt lat="44.74142" lon="4.24132">
        <ele>576</ele>
        <time>2024-05-04T11:52:17Z</time>
      </trkpt>
      <trkpt lat="44.74143" lon="4.24125">
        <ele>577</ele>
        <time>2024-05-04T11:52:18Z</time>
      </trkpt>
      <trkpt lat="44.74138" lon="4.24125">
        <ele>576</ele>
        <time>2024-05-04T11:52:19Z</time>
      </trkpt>
      <trkpt lat="44.7412" lon="4.24149">
        <ele>572</ele>
        <time>2024-05-04T11:52:25Z</time>
      </trkpt>
      <trkpt lat="44.74111" lon="4.24142">
        <ele>572</ele>
        <time>2024-05-04T11:52:28Z</time>
      </trkpt>
      <trkpt lat="44.74098" lon="4.24147">
        <ele>569</ele>
        <time>2024-05-04T11:52:31Z</time>
      </trkpt>
      <trkpt lat="44.74082" lon="4.24174">
        <ele>562</ele>
        <time>2024-05-04T11:52:36Z</time>
      </trkpt>
      <trkpt lat="44.74075" lon="4.24211">
        <ele>559</ele>
        <time>2024-05-04T11:52:43Z</time>
      </trkpt>
      <trkpt lat="44.74067" lon="4.24229">
        <ele>557</ele>
        <time>2024-05-04T11:52:46Z</time>
      </trkpt>
      <trkpt lat="44.74066" lon="4.24243">
        <ele>555</ele>
        <time>2024-05-04T11:52:49Z</time>
      </trkpt>
      <trkpt lat="44.74059" lon="4.24255">
        <ele>553</ele>
        <time>2024-05-04T11:52:51Z</time>
      </trkpt>
      <trkpt lat="44.74049" lon="4.243">
        <ele>547</ele>
        <time>2024-05-04T11:52:59Z</time>
      </trkpt>
      <trkpt lat="44.73942" lon="4.24272">
        <ele>549</ele>
        <time>2024-05-04T11:53:25Z</time>
      </trkpt>
      <trkpt lat="44.73777" lon="4.24673">
        <ele>544</ele>
        <time>2024-05-04T11:54:41Z</time>
      </trkpt>
      <trkpt lat="44.73736" lon="4.24768">
        <ele>549</ele>
        <time>2024-05-04T11:55:00Z</time>
      </trkpt>
      <trkpt lat="44.73646" lon="4.24898">
        <ele>555</ele>
        <time>2024-05-04T11:55:30Z</time>
      </trkpt>
      <trkpt lat="44.73542" lon="4.24941">
        <ele>580</ele>
        <time>2024-05-04T11:55:55Z</time>
      </trkpt>
      <trkpt lat="44.73478" lon="4.25031">
        <ele>580</ele>
        <time>2024-05-04T11:56:16Z</time>
      </trkpt>
      <trkpt lat="44.73407" lon="4.25039">
        <ele>590</ele>
        <time>2024-05-04T11:56:33Z</time>
      </trkpt>
      <trkpt lat="44.73369" lon="4.24945">
        <ele>614</ele>
        <time>2024-05-04T11:56:51Z</time>
      </trkpt>
      <trkpt lat="44.73277" lon="4.24913">
        <ele>629</ele>
        <time>2024-05-04T11:57:13Z</time>
      </trkpt>
      <trkpt lat="44.73187" lon="4.24923">
        <ele>634</ele>
        <time>2024-05-04T11:57:34Z</time>
      </trkpt>
      <trkpt lat="44.73115" lon="4.24845">
        <ele>656</ele>
        <time>2024-05-04T11:57:55Z</time>
      </trkpt>
      <trkpt lat="44.7312" lon="4.24815">
        <ele>665</ele>
        <time>2024-05-04T11:58:01Z</time>
      </trkpt>
      <trkpt lat="44.73055" lon="4.24821">
        <ele>665</ele>
        <time>2024-05-04T11:58:16Z</time>
      </trkpt>
      <trkpt lat="44.72965" lon="4.24804">
        <ele>673</ele>
        <time>2024-05-04T11:58:37Z</time>
      </trkpt>
      <trkpt lat="44.72892" lon="4.24707">
        <ele>690</ele>
        <time>2024-05-04T11:59:00Z</time>
      </trkpt>
      <trkpt lat="44.72788" lon="4.24405">
        <ele>712</ele>
        <time>2024-05-04T11:59:56Z</time>
      </trkpt>
      <trkpt lat="44.72693" lon="4.24474">
        <ele>699</ele>
        <time>2024-05-04T12:00:21Z</time>
      </trkpt>
      <trkpt lat="44.72614" lon="4.24366">
        <ele>706</ele>
        <time>2024-05-04T12:00:47Z</time>
      </trkpt>
      <trkpt lat="44.72605" lon="4.24253">
        <ele>722</ele>
        <time>2024-05-04T12:01:06Z</time>
      </trkpt>
      <trkpt lat="44.72454" lon="4.24377">
        <ele>718</ele>
        <time>2024-05-04T12:01:46Z</time>
      </trkpt>
      <trkpt lat="44.72398" lon="4.24514">
        <ele>690</ele>
        <time>2024-05-04T12:02:13Z</time>
      </trkpt>
      <trkpt lat="44.72365" lon="4.24506">
        <ele>689</ele>
        <time>2024-05-04T12:02:20Z</time>
      </trkpt>
      <trkpt lat="44.72319" lon="4.24571">
        <ele>677</ele>
        <time>2024-05-04T12:02:36Z</time>
      </trkpt>
      <trkpt lat="44.72289" lon="4.24515">
        <ele>689</ele>
        <time>2024-05-04T12:02:47Z</time>
      </trkpt>
      <trkpt lat="44.72233" lon="4.24604">
        <ele>684</ele>
        <time>2024-05-04T12:03:07Z</time>
      </trkpt>
      <trkpt lat="44.72233" lon="4.24703">
        <ele>672</ele>
        <time>2024-05-04T12:03:23Z</time>
      </trkpt>
      <trkpt lat="44.72177" lon="4.24791">
        <ele>682</ele>
        <time>2024-05-04T12:03:43Z</time>
      </trkpt>
      <trkpt lat="44.71997" lon="4.25171">
        <ele>727</ele>
        <time>2024-05-04T12:04:59Z</time>
      </trkpt>
      <trkpt lat="44.71992" lon="4.2528">
        <ele>726</ele>
        <time>2024-05-04T12:05:17Z</time>
      </trkpt>
      <trkpt lat="44.71885" lon="4.25328">
        <ele>728</ele>
        <time>2024-05-04T12:05:43Z</time>
      </trkpt>
      <trkpt lat="44.71832" lon="4.25493">
        <ele>705</ele>
        <time>2024-05-04T12:06:13Z</time>
      </trkpt>
      <trkpt lat="44.7185" lon="4.25641">
        <ele>676</ele>
        <time>2024-05-04T12:06:38Z</time>
      </trkpt>
      <trkpt lat="44.71837" lon="4.25787">
        <ele>664</ele>
        <time>2024-05-04T12:07:03Z</time>
      </trkpt>
      <trkpt lat="44.71798" lon="4.2587">
        <ele>661</ele>
        <time>2024-05-04T12:07:19Z</time>
      </trkpt>
      <trkpt lat="44.71759" lon="4.26066">
        <ele>631</ele>
        <time>2024-05-04T12:07:53Z</time>
      </trkpt>
      <trkpt lat="44.7169" lon="4.26145">
        <ele>619</ele>
        <time>2024-05-04T12:08:14Z</time>
      </trkpt>
      <trkpt lat="44.71586" lon="4.26134">
        <ele>618</ele>
        <time>2024-05-04T12:08:38Z</time>
      </trkpt>
      <trkpt lat="44.71573" lon="4.2619">
        <ele>605</ele>
        <time>2024-05-04T12:08:48Z</time>
      </trkpt>
      <trkpt lat="44.71574" lon="4.2624">
        <ele>593</ele>
        <time>2024-05-04T12:08:56Z</time>
      </trkpt>
      <trkpt lat="44.71526" lon="4.26316">
        <ele>578</ele>
        <time>2024-05-04T12:09:13Z</time>
      </trkpt>
      <trkpt lat="44.71464" lon="4.26353">
        <ele>568</ele>
        <time>2024-05-04T12:09:29Z</time>
      </trkpt>
      <trkpt lat="44.71391" lon="4.26314">
        <ele>554</ele>
        <time>2024-05-04T12:09:47Z</time>
      </trkpt>
      <trkpt lat="44.71367" lon="4.26131">
        <ele>569</ele>
        <time>2024-05-04T12:10:18Z</time>
      </trkpt>
      <trkpt lat="44.71332" lon="4.26099">
        <ele>568</ele>
        <time>2024-05-04T12:10:28Z</time>
      </trkpt>
      <trkpt lat="44.71319" lon="4.26169">
        <ele>549</ele>
        <time>2024-05-04T12:10:40Z</time>
      </trkpt>
      <trkpt lat="44.71229" lon="4.26251">
        <ele>524</ele>
        <time>2024-05-04T12:11:05Z</time>
      </trkpt>
      <trkpt lat="44.71115" lon="4.26236">
        <ele>514</ele>
        <time>2024-05-04T12:11:31Z</time>
      </trkpt>
      <trkpt lat="44.71076" lon="4.26196">
        <ele>511</ele>
        <time>2024-05-04T12:11:43Z</time>
      </trkpt>
      <trkpt lat="44.71061" lon="4.26114">
        <ele>524</ele>
        <time>2024-05-04T12:11:57Z</time>
      </trkpt>
      <trkpt lat="44.70923" lon="4.26198">
        <ele>498</ele>
        <time>2024-05-04T12:12:32Z</time>
      </trkpt>
      <trkpt lat="44.70813" lon="4.26294">
        <ele>476</ele>
        <time>2024-05-04T12:13:02Z</time>
      </trkpt>
      <trkpt lat="44.70694" lon="4.26311">
        <ele>457</ele>
        <time>2024-05-04T12:13:30Z</time>
      </trkpt>
      <trkpt lat="44.70606" lon="4.26261">
        <ele>447</ele>
        <time>2024-05-04T12:13:52Z</time>
      </trkpt>
      <trkpt lat="44.70534" lon="4.26186">
        <ele>437</ele>
        <time>2024-05-04T12:14:13Z</time>
      </trkpt>
      <trkpt lat="44.70532" lon="4.26103">
        <ele>445</ele>
        <time>2024-05-04T12:14:27Z</time>
      </trkpt>
      <trkpt lat="44.70507" lon="4.26109">
        <ele>437</ele>
        <time>2024-05-04T12:14:33Z</time>
      </trkpt>
      <trkpt lat="44.7048" lon="4.26086">
        <ele>436</ele>
        <time>2024-05-04T12:14:40Z</time>
      </trkpt>
      <trkpt lat="44.70462" lon="4.26099">
        <ele>432</ele>
        <time>2024-05-04T12:14:45Z</time>
      </trkpt>
      <trkpt lat="44.70446" lon="4.2612">
        <ele>427</ele>
        <time>2024-05-04T12:14:50Z</time>
      </trkpt>
      <trkpt lat="44.70414" lon="4.26099">
        <ele>425</ele>
        <time>2024-05-04T12:14:58Z</time>
      </trkpt>
      <trkpt lat="44.70408" lon="4.2609">
        <ele>425</ele>
        <time>2024-05-04T12:15:00Z</time>
      </trkpt>
      <trkpt lat="44.70398" lon="4.26134">
        <ele>418</ele>
        <time>2024-05-04T12:15:08Z</time>
      </trkpt>
      <trkpt lat="44.70381" lon="4.26123">
        <ele>417</ele>
        <time>2024-05-04T12:15:12Z</time>
      </trkpt>
      <trkpt lat="44.70376" lon="4.26113">
        <ele>417</ele>
        <time>2024-05-04T12:15:14Z</time>
      </trkpt>
      <trkpt lat="44.70369" lon="4.26107">
        <ele>417</ele>
        <time>2024-05-04T12:15:16Z</time>
      </trkpt>
      <trkpt lat="44.70316" lon="4.26077">
        <ele>412</ele>
        <time>2024-05-04T12:15:30Z</time>
      </trkpt>
      <trkpt lat="44.70309" lon="4.26105">
        <ele>408</ele>
        <time>2024-05-04T12:15:34Z</time>
      </trkpt>
      <trkpt lat="44.70307" lon="4.26131">
        <ele>406</ele>
        <time>2024-05-04T12:15:39Z</time>
      </trkpt>
      <trkpt lat="44.70292" lon="4.26149">
        <ele>402</ele>
        <time>2024-05-04T12:15:43Z</time>
      </trkpt>
      <trkpt lat="44.70338" lon="4.26201">
        <ele>402</ele>
        <time>2024-05-04T12:15:57Z</time>
      </trkpt>
      <trkpt lat="44.70363" lon="4.26215">
        <ele>404</ele>
        <time>2024-05-04T12:16:03Z</time>
      </trkpt>
      <trkpt lat="44.70402" lon="4.26228">
        <ele>407</ele>
        <time>2024-05-04T12:16:13Z</time>
      </trkpt>
      <trkpt lat="44.70416" lon="4.26234">
        <ele>408</ele>
        <time>2024-05-04T12:16:16Z</time>
      </trkpt>
      <trkpt lat="44.70435" lon="4.26256">
        <ele>407</ele>
        <time>2024-05-04T12:16:22Z</time>
      </trkpt>
      <trkpt lat="44.70461" lon="4.26279">
        <ele>408</ele>
        <time>2024-05-04T12:16:29Z</time>
      </trkpt>
      <trkpt lat="44.70497" lon="4.26303">
        <ele>408</ele>
        <time>2024-05-04T12:16:38Z</time>
      </trkpt>
      <trkpt lat="44.70539" lon="4.26338">
        <ele>412</ele>
        <time>2024-05-04T12:16:50Z</time>
      </trkpt>
      <trkpt lat="44.70533" lon="4.26356">
        <ele>410</ele>
        <time>2024-05-04T12:16:53Z</time>
      </trkpt>
      <trkpt lat="44.70522" lon="4.26401">
        <ele>406</ele>
        <time>2024-05-04T12:17:01Z</time>
      </trkpt>
      <trkpt lat="44.70521" lon="4.26406">
        <ele>406</ele>
        <time>2024-05-04T12:17:02Z</time>
      </trkpt>
      <trkpt lat="44.70509" lon="4.2641">
        <ele>405</ele>
        <time>2024-05-04T12:17:05Z</time>
      </trkpt>
      <trkpt lat="44.70499" lon="4.26411">
        <ele>405</ele>
        <time>2024-05-04T12:17:07Z</time>
      </trkpt>
      <trkpt lat="44.70488" lon="4.26424">
        <ele>406</ele>
        <time>2024-05-04T12:17:11Z</time>
      </trkpt>
      <trkpt lat="44.70465" lon="4.26442">
        <ele>409</ele>
        <time>2024-05-04T12:17:17Z</time>
      </trkpt>
      <trkpt lat="44.70452" lon="4.26448">
        <ele>410</ele>
        <time>2024-05-04T12:17:20Z</time>
      </trkpt>
      <trkpt lat="44.70418" lon="4.2645">
        <ele>413</ele>
        <time>2024-05-04T12:17:28Z</time>
      </trkpt>
      <trkpt lat="44.70395" lon="4.26437">
        <ele>410</ele>
        <time>2024-05-04T12:17:34Z</time>
      </trkpt>
      <trkpt lat="44.70382" lon="4.26436">
        <ele>410</ele>
        <time>2024-05-04T12:17:37Z</time>
      </trkpt>
      <trkpt lat="44.70347" lon="4.26446">
        <ele>410</ele>
        <time>2024-05-04T12:17:45Z</time>
      </trkpt>
      <trkpt lat="44.70336" lon="4.26457">
        <ele>411</ele>
        <time>2024-05-04T12:17:48Z</time>
      </trkpt>
      <trkpt lat="44.70333" lon="4.26464">
        <ele>412</ele>
        <time>2024-05-04T12:17:49Z</time>
      </trkpt>
      <trkpt lat="44.70327" lon="4.26488">
        <ele>414</ele>
        <time>2024-05-04T12:17:54Z</time>
      </trkpt>
      <trkpt lat="44.70321" lon="4.26513">
        <ele>416</ele>
        <time>2024-05-04T12:17:58Z</time>
      </trkpt>
      <trkpt lat="44.70327" lon="4.26552">
        <ele>420</ele>
        <time>2024-05-04T12:18:05Z</time>
      </trkpt>
      <trkpt lat="44.70327" lon="4.26578">
        <ele>422</ele>
        <time>2024-05-04T12:18:09Z</time>
      </trkpt>
      <trkpt lat="44.70322" lon="4.2669">
        <ele>431</ele>
        <time>2024-05-04T12:18:28Z</time>
      </trkpt>
      <trkpt lat="44.70318" lon="4.26733">
        <ele>434</ele>
        <time>2024-05-04T12:18:35Z</time>
      </trkpt>
      <trkpt lat="44.70312" lon="4.26767">
        <ele>436</ele>
        <time>2024-05-04T12:18:41Z</time>
      </trkpt>
      <trkpt lat="44.70311" lon="4.26794">
        <ele>438</ele>
        <time>2024-05-04T12:18:45Z</time>
      </trkpt>
      <trkpt lat="44.70314" lon="4.26827">
        <ele>443</ele>
        <time>2024-05-04T12:18:51Z</time>
      </trkpt>
      <trkpt lat="44.70314" lon="4.2685">
        <ele>444</ele>
        <time>2024-05-04T12:18:55Z</time>
      </trkpt>
      <trkpt lat="44.70319" lon="4.26874">
        <ele>446</ele>
        <time>2024-05-04T12:18:59Z</time>
      </trkpt>
      <trkpt lat="44.7033" lon="4.2691">
        <ele>448</ele>
        <time>2024-05-04T12:19:05Z</time>
      </trkpt>
      <trkpt lat="44.70338" lon="4.26931">
        <ele>450</ele>
        <time>2024-05-04T12:19:09Z</time>
      </trkpt>
      <trkpt lat="44.70361" lon="4.26974">
        <ele>455</ele>
        <time>2024-05-04T12:19:18Z</time>
      </trkpt>
      <trkpt lat="44.70378" lon="4.26988">
        <ele>461</ele>
        <time>2024-05-04T12:19:23Z</time>
      </trkpt>
      <trkpt lat="44.70396" lon="4.27019">
        <ele>467</ele>
        <time>2024-05-04T12:19:29Z</time>
      </trkpt>
      <trkpt lat="44.70398" lon="4.27034">
        <ele>468</ele>
        <time>2024-05-04T12:19:32Z</time>
      </trkpt>
      <trkpt lat="44.70393" lon="4.27052">
        <ele>465</ele>
        <time>2024-05-04T12:19:35Z</time>
      </trkpt>
      <trkpt lat="44.70389" lon="4.27072">
        <ele>463</ele>
        <time>2024-05-04T12:19:38Z</time>
      </trkpt>
      <trkpt lat="44.70391" lon="4.27096">
        <ele>464</ele>
        <time>2024-05-04T12:19:42Z</time>
      </trkpt>
      <trkpt lat="44.70397" lon="4.27133">
        <ele>465</ele>
        <time>2024-05-04T12:19:49Z</time>
      </trkpt>
      <trkpt lat="44.70404" lon="4.27133">
        <ele>468</ele>
        <time>2024-05-04T12:19:50Z</time>
      </trkpt>
      <trkpt lat="44.70411" lon="4.27156">
        <ele>469</ele>
        <time>2024-05-04T12:19:55Z</time>
      </trkpt>
      <trkpt lat="44.70414" lon="4.27169">
        <ele>470</ele>
        <time>2024-05-04T12:19:57Z</time>
      </trkpt>
      <trkpt lat="44.70417" lon="4.27171">
        <ele>471</ele>
        <time>2024-05-04T12:19:58Z</time>
      </trkpt>
      <trkpt lat="44.70418" lon="4.27177">
        <ele>471</ele>
        <time>2024-05-04T12:19:59Z</time>
      </trkpt>
      <trkpt lat="44.70424" lon="4.27181">
        <ele>474</ele>
        <time>2024-05-04T12:20:00Z</time>
      </trkpt>
      <trkpt lat="44.70427" lon="4.27188">
        <ele>475</ele>
        <time>2024-05-04T12:20:02Z</time>
      </trkpt>
      <trkpt lat="44.70447" lon="4.2723">
        <ele>483</ele>
        <time>2024-05-04T12:20:10Z</time>
      </trkpt>
      <trkpt lat="44.70448" lon="4.27238">
        <ele>483</ele>
        <time>2024-05-04T12:20:11Z</time>
      </trkpt>
      <trkpt lat="44.70456" lon="4.27242">
        <ele>487</ele>
        <time>2024-05-04T12:20:13Z</time>
      </trkpt>
      <trkpt lat="44.70457" lon="4.27265">
        <ele>486</ele>
        <time>2024-05-04T12:20:17Z</time>
      </trkpt>
      <trkpt lat="44.70466" lon="4.27306">
        <ele>488</ele>
        <time>2024-05-04T12:20:24Z</time>
      </trkpt>
      <trkpt lat="44.70476" lon="4.27333">
        <ele>492</ele>
        <time>2024-05-04T12:20:29Z</time>
      </trkpt>
      <trkpt lat="44.70483" lon="4.27363">
        <ele>495</ele>
        <time>2024-05-04T12:20:35Z</time>
      </trkpt>
      <trkpt lat="44.7048" lon="4.2739">
        <ele>493</ele>
        <time>2024-05-04T12:20:39Z</time>
      </trkpt>
      <trkpt lat="44.70487" lon="4.27438">
        <ele>495</ele>
        <time>2024-05-04T12:20:47Z</time>
      </trkpt>
      <trkpt lat="44.70498" lon="4.27483">
        <ele>496</ele>
        <time>2024-05-04T12:20:55Z</time>
      </trkpt>
      <trkpt lat="44.70521" lon="4.27523">
        <ele>502</ele>
        <time>2024-05-04T12:21:04Z</time>
      </trkpt>
      <trkpt lat="44.70522" lon="4.27535">
        <ele>501</ele>
        <time>2024-05-04T12:21:06Z</time>
      </trkpt>
      <trkpt lat="44.7052" lon="4.27557">
        <ele>498</ele>
        <time>2024-05-04T12:21:09Z</time>
      </trkpt>
      <trkpt lat="44.70527" lon="4.27584">
        <ele>499</ele>
        <time>2024-05-04T12:21:14Z</time>
      </trkpt>
      <trkpt lat="44.70542" lon="4.27609">
        <ele>505</ele>
        <time>2024-05-04T12:21:20Z</time>
      </trkpt>
      <trkpt lat="44.70541" lon="4.27636">
        <ele>504</ele>
        <time>2024-05-04T12:21:24Z</time>
      </trkpt>
      <trkpt lat="44.70548" lon="4.27669">
        <ele>506</ele>
        <time>2024-05-04T12:21:30Z</time>
      </trkpt>
      <trkpt lat="44.70552" lon="4.27679">
        <ele>508</ele>
        <time>2024-05-04T12:21:32Z</time>
      </trkpt>
      <trkpt lat="44.70559" lon="4.27697">
        <ele>511</ele>
        <time>2024-05-04T12:21:35Z</time>
      </trkpt>
      <trkpt lat="44.70577" lon="4.27717">
        <ele>520</ele>
        <time>2024-05-04T12:21:40Z</time>
      </trkpt>
      <trkpt lat="44.70589" lon="4.27736">
        <ele>525</ele>
        <time>2024-05-04T12:21:45Z</time>
      </trkpt>
      <trkpt lat="44.70583" lon="4.2777">
        <ele>520</ele>
        <time>2024-05-04T12:21:50Z</time>
      </trkpt>
      <trkpt lat="44.70583" lon="4.27812">
        <ele>519</ele>
        <time>2024-05-04T12:21:57Z</time>
      </trkpt>
      <trkpt lat="44.70592" lon="4.27842">
        <ele>523</ele>
        <time>2024-05-04T12:22:03Z</time>
      </trkpt>
      <trkpt lat="44.70616" lon="4.27872">
        <ele>535</ele>
        <time>2024-05-04T12:22:10Z</time>
      </trkpt>
      <trkpt lat="44.70621" lon="4.27884">
        <ele>538</ele>
        <time>2024-05-04T12:22:13Z</time>
      </trkpt>
      <trkpt lat="44.70622" lon="4.27901">
        <ele>538</ele>
        <time>2024-05-04T12:22:15Z</time>
      </trkpt>
      <trkpt lat="44.70618" lon="4.27913">
        <ele>536</ele>
        <time>2024-05-04T12:22:18Z</time>
      </trkpt>
      <trkpt lat="44.70604" lon="4.27937">
        <ele>529</ele>
        <time>2024-05-04T12:22:23Z</time>
      </trkpt>
      <trkpt lat="44.70597" lon="4.2796">
        <ele>526</ele>
        <time>2024-05-04T12:22:27Z</time>
      </trkpt>
      <trkpt lat="44.70595" lon="4.28">
        <ele>528</ele>
        <time>2024-05-04T12:22:34Z</time>
      </trkpt>
      <trkpt lat="44.706" lon="4.28071">
        <ele>528</ele>
        <time>2024-05-04T12:22:45Z</time>
      </trkpt>
      <trkpt lat="44.70604" lon="4.28092">
        <ele>530</ele>
        <time>2024-05-04T12:22:49Z</time>
      </trkpt>
      <trkpt lat="44.70619" lon="4.28117">
        <ele>536</ele>
        <time>2024-05-04T12:22:54Z</time>
      </trkpt>
      <trkpt lat="44.70618" lon="4.28129">
        <ele>535</ele>
        <time>2024-05-04T12:22:56Z</time>
      </trkpt>
      <trkpt lat="44.70612" lon="4.28145">
        <ele>532</ele>
        <time>2024-05-04T12:22:59Z</time>
      </trkpt>
      <trkpt lat="44.7061" lon="4.28176">
        <ele>530</ele>
        <time>2024-05-04T12:23:05Z</time>
      </trkpt>
      <trkpt lat="44.70616" lon="4.28194">
        <ele>533</ele>
        <time>2024-05-04T12:23:08Z</time>
      </trkpt>
      <trkpt lat="44.70629" lon="4.28228">
        <ele>539</ele>
        <time>2024-05-04T12:23:14Z</time>
      </trkpt>
      <trkpt lat="44.7063" lon="4.28239">
        <ele>539</ele>
        <time>2024-05-04T12:23:16Z</time>
      </trkpt>
      <trkpt lat="44.70636" lon="4.28246">
        <ele>542</ele>
        <time>2024-05-04T12:23:18Z</time>
      </trkpt>
      <trkpt lat="44.70626" lon="4.28302">
        <ele>543</ele>
        <time>2024-05-04T12:23:28Z</time>
      </trkpt>
      <trkpt lat="44.70623" lon="4.283">
        <ele>542</ele>
        <time>2024-05-04T12:23:28Z</time>
      </trkpt>
      <trkpt lat="44.70618" lon="4.283">
        <ele>540</ele>
        <time>2024-05-04T12:23:30Z</time>
      </trkpt>
      <trkpt lat="44.70623" lon="4.283">
        <ele>542</ele>
        <time>2024-05-04T12:23:31Z</time>
      </trkpt>
      <trkpt lat="44.70629" lon="4.28306">
        <ele>545</ele>
        <time>2024-05-04T12:23:32Z</time>
      </trkpt>
      <trkpt lat="44.70631" lon="4.28312">
        <ele>546</ele>
        <time>2024-05-04T12:23:34Z</time>
      </trkpt>
      <trkpt lat="44.70631" lon="4.28321">
        <ele>547</ele>
        <time>2024-05-04T12:23:35Z</time>
      </trkpt>
      <trkpt lat="44.70625" lon="4.28338">
        <ele>547</ele>
        <time>2024-05-04T12:23:38Z</time>
      </trkpt>
      <trkpt lat="44.70623" lon="4.28358">
        <ele>547</ele>
        <time>2024-05-04T12:23:42Z</time>
      </trkpt>
      <trkpt lat="44.70625" lon="4.28426">
        <ele>553</ele>
        <time>2024-05-04T12:23:53Z</time>
      </trkpt>
      <trkpt lat="44.7063" lon="4.28491">
        <ele>559</ele>
        <time>2024-05-04T12:24:04Z</time>
      </trkpt>
      <trkpt lat="44.70619" lon="4.28545">
        <ele>560</ele>
        <time>2024-05-04T12:24:13Z</time>
      </trkpt>
      <trkpt lat="44.70618" lon="4.28575">
        <ele>563</ele>
        <time>2024-05-04T12:24:18Z</time>
      </trkpt>
      <trkpt lat="44.70613" lon="4.28606">
        <ele>564</ele>
        <time>2024-05-04T12:24:23Z</time>
      </trkpt>
      <trkpt lat="44.70615" lon="4.28613">
        <ele>565</ele>
        <time>2024-05-04T12:24:25Z</time>
      </trkpt>
      <trkpt lat="44.70619" lon="4.28617">
        <ele>566</ele>
        <time>2024-05-04T12:24:26Z</time>
      </trkpt>
      <trkpt lat="44.70624" lon="4.28618">
        <ele>568</ele>
        <time>2024-05-04T12:24:27Z</time>
      </trkpt>
      <trkpt lat="44.70629" lon="4.28616">
        <ele>569</ele>
        <time>2024-05-04T12:24:28Z</time>
      </trkpt>
      <trkpt lat="44.70632" lon="4.28608">
        <ele>569</ele>
        <time>2024-05-04T12:24:30Z</time>
      </trkpt>
      <trkpt lat="44.7063" lon="4.28567">
        <ele>565</ele>
        <time>2024-05-04T12:24:36Z</time>
      </trkpt>
      <trkpt lat="44.70633" lon="4.2855">
        <ele>565</ele>
        <time>2024-05-04T12:24:39Z</time>
      </trkpt>
      <trkpt lat="44.70638" lon="4.28538">
        <ele>565</ele>
        <time>2024-05-04T12:24:42Z</time>
      </trkpt>
      <trkpt lat="44.70647" lon="4.28527">
        <ele>566</ele>
        <time>2024-05-04T12:24:44Z</time>
      </trkpt>
      <trkpt lat="44.70656" lon="4.28521">
        <ele>568</ele>
        <time>2024-05-04T12:24:47Z</time>
      </trkpt>
      <trkpt lat="44.70653" lon="4.28533">
        <ele>569</ele>
        <time>2024-05-04T12:24:49Z</time>
      </trkpt>
      <trkpt lat="44.70646" lon="4.28549">
        <ele>568</ele>
        <time>2024-05-04T12:24:52Z</time>
      </trkpt>
      <trkpt lat="44.70644" lon="4.28559">
        <ele>569</ele>
        <time>2024-05-04T12:24:54Z</time>
      </trkpt>
      <trkpt lat="44.70644" lon="4.2857">
        <ele>570</ele>
        <time>2024-05-04T12:24:55Z</time>
      </trkpt>
      <trkpt lat="44.70644" lon="4.28577">
        <ele>571</ele>
        <time>2024-05-04T12:24:57Z</time>
      </trkpt>
      <trkpt lat="44.70649" lon="4.28591">
        <ele>573</ele>
        <time>2024-05-04T12:24:59Z</time>
      </trkpt>
      <trkpt lat="44.70651" lon="4.28604">
        <ele>574</ele>
        <time>2024-05-04T12:25:01Z</time>
      </trkpt>
      <trkpt lat="44.70653" lon="4.28645">
        <ele>577</ele>
        <time>2024-05-04T12:25:08Z</time>
      </trkpt>
      <trkpt lat="44.70669" lon="4.28725">
        <ele>586</ele>
        <time>2024-05-04T12:25:22Z</time>
      </trkpt>
      <trkpt lat="44.70667" lon="4.28732">
        <ele>585</ele>
        <time>2024-05-04T12:25:23Z</time>
      </trkpt>
      <trkpt lat="44.7066" lon="4.28738">
        <ele>584</ele>
        <time>2024-05-04T12:25:25Z</time>
      </trkpt>
      <trkpt lat="44.70638" lon="4.28732">
        <ele>579</ele>
        <time>2024-05-04T12:25:30Z</time>
      </trkpt>
      <trkpt lat="44.70634" lon="4.28735">
        <ele>578</ele>
        <time>2024-05-04T12:25:32Z</time>
      </trkpt>
      <trkpt lat="44.7063" lon="4.28739">
        <ele>577</ele>
        <time>2024-05-04T12:25:33Z</time>
      </trkpt>
      <trkpt lat="44.70625" lon="4.2875">
        <ele>577</ele>
        <time>2024-05-04T12:25:35Z</time>
      </trkpt>
      <trkpt lat="44.70625" lon="4.28755">
        <ele>577</ele>
        <time>2024-05-04T12:25:36Z</time>
      </trkpt>
      <trkpt lat="44.70633" lon="4.28785">
        <ele>581</ele>
        <time>2024-05-04T12:25:41Z</time>
      </trkpt>
      <trkpt lat="44.70634" lon="4.28798">
        <ele>582</ele>
        <time>2024-05-04T12:25:43Z</time>
      </trkpt>
      <trkpt lat="44.7064" lon="4.28815">
        <ele>584</ele>
        <time>2024-05-04T12:25:46Z</time>
      </trkpt>
      <trkpt lat="44.70647" lon="4.28808">
        <ele>585</ele>
        <time>2024-05-04T12:25:48Z</time>
      </trkpt>
      <trkpt lat="44.70655" lon="4.28787">
        <ele>586</ele>
        <time>2024-05-04T12:25:52Z</time>
      </trkpt>
      <trkpt lat="44.70658" lon="4.28782">
        <ele>586</ele>
        <time>2024-05-04T12:25:53Z</time>
      </trkpt>
      <trkpt lat="44.70667" lon="4.28783">
        <ele>588</ele>
        <time>2024-05-04T12:25:55Z</time>
      </trkpt>
      <trkpt lat="44.70692" lon="4.28805">
        <ele>596</ele>
        <time>2024-05-04T12:26:02Z</time>
      </trkpt>
      <trkpt lat="44.70698" lon="4.28813">
        <ele>597</ele>
        <time>2024-05-04T12:26:04Z</time>
      </trkpt>
      <trkpt lat="44.70707" lon="4.2883">
        <ele>599</ele>
        <time>2024-05-04T12:26:08Z</time>
      </trkpt>
      <trkpt lat="44.70707" lon="4.28836">
        <ele>599</ele>
        <time>2024-05-04T12:26:09Z</time>
      </trkpt>
      <trkpt lat="44.70713" lon="4.28845">
        <ele>601</ele>
        <time>2024-05-04T12:26:11Z</time>
      </trkpt>
      <trkpt lat="44.7075" lon="4.28848">
        <ele>610</ele>
        <time>2024-05-04T12:26:19Z</time>
      </trkpt>
      <trkpt lat="44.70768" lon="4.2886">
        <ele>616</ele>
        <time>2024-05-04T12:26:24Z</time>
      </trkpt>
      <trkpt lat="44.70758" lon="4.28874">
        <ele>614</ele>
        <time>2024-05-04T12:26:27Z</time>
      </trkpt>
      <trkpt lat="44.70733" lon="4.28898">
        <ele>609</ele>
        <time>2024-05-04T12:26:34Z</time>
      </trkpt>
      <trkpt lat="44.70728" lon="4.28912">
        <ele>609</ele>
        <time>2024-05-04T12:26:37Z</time>
      </trkpt>
      <trkpt lat="44.70727" lon="4.28931">
        <ele>611</ele>
        <time>2024-05-04T12:26:40Z</time>
      </trkpt>
      <trkpt lat="44.70723" lon="4.2895">
        <ele>612</ele>
        <time>2024-05-04T12:26:44Z</time>
      </trkpt>
      <trkpt lat="44.70722" lon="4.28977">
        <ele>616</ele>
        <time>2024-05-04T12:26:48Z</time>
      </trkpt>
      <trkpt lat="44.70719" lon="4.28995">
        <ele>617</ele>
        <time>2024-05-04T12:26:51Z</time>
      </trkpt>
      <trkpt lat="44.707" lon="4.29034">
        <ele>617</ele>
        <time>2024-05-04T12:26:59Z</time>
      </trkpt>
      <trkpt lat="44.70695" lon="4.29062">
        <ele>618</ele>
        <time>2024-05-04T12:27:04Z</time>
      </trkpt>
      <trkpt lat="44.70691" lon="4.29096">
        <ele>620</ele>
        <time>2024-05-04T12:27:09Z</time>
      </trkpt>
      <trkpt lat="44.7069" lon="4.29124">
        <ele>622</ele>
        <time>2024-05-04T12:27:14Z</time>
      </trkpt>
      <trkpt lat="44.70681" lon="4.2915">
        <ele>620</ele>
        <time>2024-05-04T12:27:19Z</time>
      </trkpt>
      <trkpt lat="44.70681" lon="4.29157">
        <ele>621</ele>
        <time>2024-05-04T12:27:20Z</time>
      </trkpt>
      <trkpt lat="44.70683" lon="4.29162">
        <ele>622</ele>
        <time>2024-05-04T12:27:21Z</time>
      </trkpt>
      <trkpt lat="44.70688" lon="4.29163">
        <ele>624</ele>
        <time>2024-05-04T12:27:22Z</time>
      </trkpt>
      <trkpt lat="44.70678" lon="4.29228">
        <ele>626</ele>
        <time>2024-05-04T12:27:33Z</time>
      </trkpt>
      <trkpt lat="44.70677" lon="4.29257">
        <ele>628</ele>
        <time>2024-05-04T12:27:38Z</time>
      </trkpt>
      <trkpt lat="44.70689" lon="4.29543">
        <ele>649</ele>
        <time>2024-05-04T12:28:26Z</time>
      </trkpt>
      <trkpt lat="44.70705" lon="4.29601">
        <ele>658</ele>
        <time>2024-05-04T12:28:36Z</time>
      </trkpt>
      <trkpt lat="44.70736" lon="4.29656">
        <ele>670</ele>
        <time>2024-05-04T12:28:48Z</time>
      </trkpt>
      <trkpt lat="44.70721" lon="4.29697">
        <ele>669</ele>
        <time>2024-05-04T12:28:55Z</time>
      </trkpt>
      <trkpt lat="44.70756" lon="4.29814">
        <ele>683</ele>
        <time>2024-05-04T12:29:16Z</time>
      </trkpt>
      <trkpt lat="44.70771" lon="4.2982">
        <ele>688</ele>
        <time>2024-05-04T12:29:20Z</time>
      </trkpt>
      <trkpt lat="44.7081" lon="4.29924">
        <ele>702</ele>
        <time>2024-05-04T12:29:39Z</time>
      </trkpt>
      <trkpt lat="44.7084" lon="4.30035">
        <ele>711</ele>
        <time>2024-05-04T12:29:59Z</time>
      </trkpt>
      <trkpt lat="44.7083" lon="4.30127">
        <ele>715</ele>
        <time>2024-05-04T12:30:15Z</time>
      </trkpt>
      <trkpt lat="44.70987" lon="4.30166">
        <ele>715</ele>
        <time>2024-05-04T12:30:52Z</time>
      </trkpt>
      <trkpt lat="44.71005" lon="4.3023">
        <ele>716</ele>
        <time>2024-05-04T12:31:03Z</time>
      </trkpt>
      <trkpt lat="44.7099" lon="4.30414">
        <ele>689</ele>
        <time>2024-05-04T12:31:34Z</time>
      </trkpt>
      <trkpt lat="44.71037" lon="4.3053">
        <ele>676</ele>
        <time>2024-05-04T12:31:56Z</time>
      </trkpt>
      <trkpt lat="44.71111" lon="4.30599">
        <ele>679</ele>
        <time>2024-05-04T12:32:17Z</time>
      </trkpt>
      <trkpt lat="44.71078" lon="4.30691">
        <ele>661</ele>
        <time>2024-05-04T12:32:34Z</time>
      </trkpt>
      <trkpt lat="44.7107" lon="4.30656">
        <ele>663</ele>
        <time>2024-05-04T12:32:40Z</time>
      </trkpt>
      <trkpt lat="44.71088" lon="4.30614">
        <ele>671</ele>
        <time>2024-05-04T12:32:48Z</time>
      </trkpt>
      <trkpt lat="44.7106" lon="4.30604">
        <ele>667</ele>
        <time>2024-05-04T12:32:55Z</time>
      </trkpt>
      <trkpt lat="44.7101" lon="4.30609">
        <ele>657</ele>
        <time>2024-05-04T12:33:07Z</time>
      </trkpt>
      <trkpt lat="44.70946" lon="4.30599">
        <ele>649</ele>
        <time>2024-05-04T12:33:22Z</time>
      </trkpt>
      <trkpt lat="44.7092" lon="4.30609">
        <ele>644</ele>
        <time>2024-05-04T12:33:28Z</time>
      </trkpt>
      <trkpt lat="44.70896" lon="4.30563">
        <ele>655</ele>
        <time>2024-05-04T12:33:38Z</time>
      </trkpt>
      <trkpt lat="44.70881" lon="4.30552">
        <ele>660</ele>
        <time>2024-05-04T12:33:41Z</time>
      </trkpt>
      <trkpt lat="44.70877" lon="4.30556">
        <ele>660</ele>
        <time>2024-05-04T12:33:43Z</time>
      </trkpt>
      <trkpt lat="44.70876" lon="4.3059">
        <ele>657</ele>
        <time>2024-05-04T12:33:48Z</time>
      </trkpt>
      <trkpt lat="44.70861" lon="4.30635">
        <ele>654</ele>
        <time>2024-05-04T12:33:57Z</time>
      </trkpt>
      <trkpt lat="44.70864" lon="4.30658">
        <ele>650</ele>
        <time>2024-05-04T12:34:00Z</time>
      </trkpt>
      <trkpt lat="44.70879" lon="4.30705">
        <ele>644</ele>
        <time>2024-05-04T12:34:09Z</time>
      </trkpt>
      <trkpt lat="44.70886" lon="4.30715">
        <ele>641</ele>
        <time>2024-05-04T12:34:11Z</time>
      </trkpt>
      <trkpt lat="44.70894" lon="4.30735">
        <ele>637</ele>
        <time>2024-05-04T12:34:15Z</time>
      </trkpt>
      <trkpt lat="44.70907" lon="4.30749">
        <ele>632</ele>
        <time>2024-05-04T12:34:19Z</time>
      </trkpt>
      <trkpt lat="44.70913" lon="4.30759">
        <ele>630</ele>
        <time>2024-05-04T12:34:21Z</time>
      </trkpt>
      <trkpt lat="44.70917" lon="4.30773">
        <ele>627</ele>
        <time>2024-05-04T12:34:24Z</time>
      </trkpt>
      <trkpt lat="44.70925" lon="4.30829">
        <ele>623</ele>
        <time>2024-05-04T12:34:33Z</time>
      </trkpt>
      <trkpt lat="44.70924" lon="4.30871">
        <ele>621</ele>
        <time>2024-05-04T12:34:40Z</time>
      </trkpt>
      <trkpt lat="44.70938" lon="4.30925">
        <ele>616</ele>
        <time>2024-05-04T12:34:50Z</time>
      </trkpt>
      <trkpt lat="44.70948" lon="4.31009">
        <ele>608</ele>
        <time>2024-05-04T12:35:04Z</time>
      </trkpt>
      <trkpt lat="44.70959" lon="4.31044">
        <ele>606</ele>
        <time>2024-05-04T12:35:10Z</time>
      </trkpt>
      <trkpt lat="44.70968" lon="4.31064">
        <ele>604</ele>
        <time>2024-05-04T12:35:14Z</time>
      </trkpt>
      <trkpt lat="44.70975" lon="4.31073">
        <ele>601</ele>
        <time>2024-05-04T12:35:16Z</time>
      </trkpt>
      <trkpt lat="44.70986" lon="4.31105">
        <ele>597</ele>
        <time>2024-05-04T12:35:22Z</time>
      </trkpt>
      <trkpt lat="44.70988" lon="4.3112">
        <ele>597</ele>
        <time>2024-05-04T12:35:25Z</time>
      </trkpt>
      <trkpt lat="44.70985" lon="4.31147">
        <ele>599</ele>
        <time>2024-05-04T12:35:29Z</time>
      </trkpt>
      <trkpt lat="44.70987" lon="4.31154">
        <ele>598</ele>
        <time>2024-05-04T12:35:30Z</time>
      </trkpt>
      <trkpt lat="44.71" lon="4.31175">
        <ele>593</ele>
        <time>2024-05-04T12:35:35Z</time>
      </trkpt>
      <trkpt lat="44.71011" lon="4.31208">
        <ele>589</ele>
        <time>2024-05-04T12:35:41Z</time>
      </trkpt>
      <trkpt lat="44.71006" lon="4.31259">
        <ele>589</ele>
        <time>2024-05-04T12:35:50Z</time>
      </trkpt>
      <trkpt lat="44.71007" lon="4.31321">
        <ele>584</ele>
        <time>2024-05-04T12:36:00Z</time>
      </trkpt>
      <trkpt lat="44.71" lon="4.31341">
        <ele>585</ele>
        <time>2024-05-04T12:36:04Z</time>
      </trkpt>
      <trkpt lat="44.70989" lon="4.31352">
        <ele>589</ele>
        <time>2024-05-04T12:36:07Z</time>
      </trkpt>
      <trkpt lat="44.70983" lon="4.31363">
        <ele>592</ele>
        <time>2024-05-04T12:36:09Z</time>
      </trkpt>
      <trkpt lat="44.70986" lon="4.31377">
        <ele>590</ele>
        <time>2024-05-04T12:36:12Z</time>
      </trkpt>
      <trkpt lat="44.70995" lon="4.31396">
        <ele>585</ele>
        <time>2024-05-04T12:36:15Z</time>
      </trkpt>
      <trkpt lat="44.71002" lon="4.31416">
        <ele>581</ele>
        <time>2024-05-04T12:36:19Z</time>
      </trkpt>
      <trkpt lat="44.71002" lon="4.31422">
        <ele>581</ele>
        <time>2024-05-04T12:36:20Z</time>
      </trkpt>
      <trkpt lat="44.71015" lon="4.31455">
        <ele>576</ele>
        <time>2024-05-04T12:36:26Z</time>
      </trkpt>
      <trkpt lat="44.71019" lon="4.31523">
        <ele>574</ele>
        <time>2024-05-04T12:36:38Z</time>
      </trkpt>
      <trkpt lat="44.71017" lon="4.31585">
        <ele>575</ele>
        <time>2024-05-04T12:36:48Z</time>
      </trkpt>
      <trkpt lat="44.7102" lon="4.31598">
        <ele>576</ele>
        <time>2024-05-04T12:36:50Z</time>
      </trkpt>
      <trkpt lat="44.71022" lon="4.31605">
        <ele>576</ele>
        <time>2024-05-04T12:36:51Z</time>
      </trkpt>
      <trkpt lat="44.71046" lon="4.31644">
        <ele>570</ele>
        <time>2024-05-04T12:37:00Z</time>
      </trkpt>
      <trkpt lat="44.71059" lon="4.31662">
        <ele>566</ele>
        <time>2024-05-04T12:37:04Z</time>
      </trkpt>
      <trkpt lat="44.71077" lon="4.31678">
        <ele>559</ele>
        <time>2024-05-04T12:37:09Z</time>
      </trkpt>
      <trkpt lat="44.71095" lon="4.31712">
        <ele>555</ele>
        <time>2024-05-04T12:37:16Z</time>
      </trkpt>
      <trkpt lat="44.71105" lon="4.31739">
        <ele>553</ele>
        <time>2024-05-04T12:37:21Z</time>
      </trkpt>
      <trkpt lat="44.7111" lon="4.31759">
        <ele>551</ele>
        <time>2024-05-04T12:37:25Z</time>
      </trkpt>
      <trkpt lat="44.71112" lon="4.3178">
        <ele>550</ele>
        <time>2024-05-04T12:37:28Z</time>
      </trkpt>
      <trkpt lat="44.71106" lon="4.31806">
        <ele>553</ele>
        <time>2024-05-04T12:37:33Z</time>
      </trkpt>
      <trkpt lat="44.71106" lon="4.31821">
        <ele>553</ele>
        <time>2024-05-04T12:37:35Z</time>
      </trkpt>
      <trkpt lat="44.71112" lon="4.31847">
        <ele>549</ele>
        <time>2024-05-04T12:37:40Z</time>
      </trkpt>
      <trkpt lat="44.71112" lon="4.31862">
        <ele>549</ele>
        <time>2024-05-04T12:37:42Z</time>
      </trkpt>
      <trkpt lat="44.71119" lon="4.31882">
        <ele>544</ele>
        <time>2024-05-04T12:37:46Z</time>
      </trkpt>
      <trkpt lat="44.71125" lon="4.31925">
        <ele>539</ele>
        <time>2024-05-04T12:37:53Z</time>
      </trkpt>
      <trkpt lat="44.71124" lon="4.31966">
        <ele>533</ele>
        <time>2024-05-04T12:38:00Z</time>
      </trkpt>
      <trkpt lat="44.71134" lon="4.31936">
        <ele>533</ele>
        <time>2024-05-04T12:38:06Z</time>
      </trkpt>
      <trkpt lat="44.71137" lon="4.319">
        <ele>534</ele>
        <time>2024-05-04T12:38:12Z</time>
      </trkpt>
      <trkpt lat="44.71146" lon="4.31873">
        <ele>530</ele>
        <time>2024-05-04T12:38:17Z</time>
      </trkpt>
      <trkpt lat="44.71148" lon="4.31845">
        <ele>530</ele>
        <time>2024-05-04T12:38:21Z</time>
      </trkpt>
      <trkpt lat="44.71154" lon="4.31832">
        <ele>528</ele>
        <time>2024-05-04T12:38:24Z</time>
      </trkpt>
      <trkpt lat="44.71155" lon="4.31796">
        <ele>528</ele>
        <time>2024-05-04T12:38:30Z</time>
      </trkpt>
      <trkpt lat="44.71159" lon="4.318">
        <ele>525</ele>
        <time>2024-05-04T12:38:31Z</time>
      </trkpt>
      <trkpt lat="44.71159" lon="4.3182">
        <ele>525</ele>
        <time>2024-05-04T12:38:34Z</time>
      </trkpt>
      <trkpt lat="44.71167" lon="4.31868">
        <ele>520</ele>
        <time>2024-05-04T12:38:42Z</time>
      </trkpt>
      <trkpt lat="44.71173" lon="4.31886">
        <ele>518</ele>
        <time>2024-05-04T12:38:46Z</time>
      </trkpt>
      <trkpt lat="44.71178" lon="4.31886">
        <ele>518</ele>
        <time>2024-05-04T12:38:47Z</time>
      </trkpt>
      <trkpt lat="44.71182" lon="4.31892">
        <ele>517</ele>
        <time>2024-05-04T12:38:48Z</time>
      </trkpt>
      <trkpt lat="44.7119" lon="4.31923">
        <ele>514</ele>
        <time>2024-05-04T12:38:54Z</time>
      </trkpt>
      <trkpt lat="44.71199" lon="4.31929">
        <ele>512</ele>
        <time>2024-05-04T12:38:56Z</time>
      </trkpt>
      <trkpt lat="44.71204" lon="4.3194">
        <ele>510</ele>
        <time>2024-05-04T12:38:58Z</time>
      </trkpt>
      <trkpt lat="44.71212" lon="4.31949">
        <ele>509</ele>
        <time>2024-05-04T12:39:01Z</time>
      </trkpt>
      <trkpt lat="44.71214" lon="4.31983">
        <ele>505</ele>
        <time>2024-05-04T12:39:06Z</time>
      </trkpt>
      <trkpt lat="44.7122" lon="4.31996">
        <ele>504</ele>
        <time>2024-05-04T12:39:09Z</time>
      </trkpt>
      <trkpt lat="44.71225" lon="4.32016">
        <ele>503</ele>
        <time>2024-05-04T12:39:12Z</time>
      </trkpt>
      <trkpt lat="44.71225" lon="4.3203">
        <ele>504</ele>
        <time>2024-05-04T12:39:15Z</time>
      </trkpt>
      <trkpt lat="44.71232" lon="4.32075">
        <ele>505</ele>
        <time>2024-05-04T12:39:22Z</time>
      </trkpt>
      <trkpt lat="44.71241" lon="4.32081">
        <ele>506</ele>
        <time>2024-05-04T12:39:25Z</time>
      </trkpt>
      <trkpt lat="44.71249" lon="4.32091">
        <ele>508</ele>
        <time>2024-05-04T12:39:27Z</time>
      </trkpt>
      <trkpt lat="44.71258" lon="4.32117">
        <ele>515</ele>
        <time>2024-05-04T12:39:32Z</time>
      </trkpt>
      <trkpt lat="44.7125" lon="4.32143">
        <ele>520</ele>
        <time>2024-05-04T12:39:37Z</time>
      </trkpt>
      <trkpt lat="44.71251" lon="4.32157">
        <ele>523</ele>
        <time>2024-05-04T12:39:39Z</time>
      </trkpt>
      <trkpt lat="44.71247" lon="4.32169">
        <ele>525</ele>
        <time>2024-05-04T12:39:41Z</time>
      </trkpt>
      <trkpt lat="44.71248" lon="4.32176">
        <ele>527</ele>
        <time>2024-05-04T12:39:42Z</time>
      </trkpt>
      <trkpt lat="44.7124" lon="4.32193">
        <ele>529</ele>
        <time>2024-05-04T12:39:46Z</time>
      </trkpt>
      <trkpt lat="44.71239" lon="4.322">
        <ele>531</ele>
        <time>2024-05-04T12:39:47Z</time>
      </trkpt>
      <trkpt lat="44.71239" lon="4.32219">
        <ele>535</ele>
        <time>2024-05-04T12:39:50Z</time>
      </trkpt>
      <trkpt lat="44.71243" lon="4.32246">
        <ele>540</ele>
        <time>2024-05-04T12:39:55Z</time>
      </trkpt>
      <trkpt lat="44.71255" lon="4.32288">
        <ele>547</ele>
        <time>2024-05-04T12:40:02Z</time>
      </trkpt>
      <trkpt lat="44.71256" lon="4.32337">
        <ele>554</ele>
        <time>2024-05-04T12:40:10Z</time>
      </trkpt>
      <trkpt lat="44.71248" lon="4.32371">
        <ele>558</ele>
        <time>2024-05-04T12:40:16Z</time>
      </trkpt>
      <trkpt lat="44.71242" lon="4.32427">
        <ele>568</ele>
        <time>2024-05-04T12:40:26Z</time>
      </trkpt>
      <trkpt lat="44.71244" lon="4.32447">
        <ele>570</ele>
        <time>2024-05-04T12:40:29Z</time>
      </trkpt>
      <trkpt lat="44.71242" lon="4.32468">
        <ele>574</ele>
        <time>2024-05-04T12:40:33Z</time>
      </trkpt>
      <trkpt lat="44.71247" lon="4.32502">
        <ele>579</ele>
        <time>2024-05-04T12:40:38Z</time>
      </trkpt>
      <trkpt lat="44.71249" lon="4.3255">
        <ele>589</ele>
        <time>2024-05-04T12:40:46Z</time>
      </trkpt>
      <trkpt lat="44.71252" lon="4.32545">
        <ele>588</ele>
        <time>2024-05-04T12:40:47Z</time>
      </trkpt>
      <trkpt lat="44.71256" lon="4.32546">
        <ele>588</ele>
        <time>2024-05-04T12:40:48Z</time>
      </trkpt>
      <trkpt lat="44.7126" lon="4.32548">
        <ele>588</ele>
        <time>2024-05-04T12:40:49Z</time>
      </trkpt>
      <trkpt lat="44.7126" lon="4.32554">
        <ele>590</ele>
        <time>2024-05-04T12:40:50Z</time>
      </trkpt>
      <trkpt lat="44.71265" lon="4.32555">
        <ele>590</ele>
        <time>2024-05-04T12:40:52Z</time>
      </trkpt>
      <trkpt lat="44.71263" lon="4.3255">
        <ele>589</ele>
        <time>2024-05-04T12:40:53Z</time>
      </trkpt>
      <trkpt lat="44.71273" lon="4.3255">
        <ele>588</ele>
        <time>2024-05-04T12:40:55Z</time>
      </trkpt>
      <trkpt lat="44.71282" lon="4.32547">
        <ele>587</ele>
        <time>2024-05-04T12:40:57Z</time>
      </trkpt>
      <trkpt lat="44.71292" lon="4.32548">
        <ele>587</ele>
        <time>2024-05-04T12:40:59Z</time>
      </trkpt>
      <trkpt lat="44.71297" lon="4.32551">
        <ele>588</ele>
        <time>2024-05-04T12:41:01Z</time>
      </trkpt>
      <trkpt lat="44.71302" lon="4.32562">
        <ele>590</ele>
        <time>2024-05-04T12:41:03Z</time>
      </trkpt>
      <trkpt lat="44.71309" lon="4.32581">
        <ele>593</ele>
        <time>2024-05-04T12:41:06Z</time>
      </trkpt>
      <trkpt lat="44.71309" lon="4.32588">
        <ele>595</ele>
        <time>2024-05-04T12:41:07Z</time>
      </trkpt>
      <trkpt lat="44.71319" lon="4.32592">
        <ele>595</ele>
        <time>2024-05-04T12:41:10Z</time>
      </trkpt>
      <trkpt lat="44.71322" lon="4.32614">
        <ele>599</ele>
        <time>2024-05-04T12:41:14Z</time>
      </trkpt>
      <trkpt lat="44.71322" lon="4.32642">
        <ele>604</ele>
        <time>2024-05-04T12:41:18Z</time>
      </trkpt>
      <trkpt lat="44.71328" lon="4.32681">
        <ele>609</ele>
        <time>2024-05-04T12:41:25Z</time>
      </trkpt>
      <trkpt lat="44.71335" lon="4.32699">
        <ele>609</ele>
        <time>2024-05-04T12:41:28Z</time>
      </trkpt>
      <trkpt lat="44.71336" lon="4.3274">
        <ele>612</ele>
        <time>2024-05-04T12:41:35Z</time>
      </trkpt>
      <trkpt lat="44.71332" lon="4.32797">
        <ele>619</ele>
        <time>2024-05-04T12:41:45Z</time>
      </trkpt>
      <trkpt lat="44.71343" lon="4.32835">
        <ele>624</ele>
        <time>2024-05-04T12:41:51Z</time>
      </trkpt>
      <trkpt lat="44.71333" lon="4.32833">
        <ele>623</ele>
        <time>2024-05-04T12:41:54Z</time>
      </trkpt>
      <trkpt lat="44.71327" lon="4.32844">
        <ele>627</ele>
        <time>2024-05-04T12:41:56Z</time>
      </trkpt>
      <trkpt lat="44.71327" lon="4.32864">
        <ele>629</ele>
        <time>2024-05-04T12:41:59Z</time>
      </trkpt>
      <trkpt lat="44.7133" lon="4.32877">
        <ele>630</ele>
        <time>2024-05-04T12:42:02Z</time>
      </trkpt>
      <trkpt lat="44.71337" lon="4.32887">
        <ele>630</ele>
        <time>2024-05-04T12:42:04Z</time>
      </trkpt>
      <trkpt lat="44.7134" lon="4.329">
        <ele>631</ele>
        <time>2024-05-04T12:42:06Z</time>
      </trkpt>
      <trkpt lat="44.71348" lon="4.32918">
        <ele>634</ele>
        <time>2024-05-04T12:42:10Z</time>
      </trkpt>
      <trkpt lat="44.71342" lon="4.32937">
        <ele>636</ele>
        <time>2024-05-04T12:42:13Z</time>
      </trkpt>
      <trkpt lat="44.71328" lon="4.32957">
        <ele>640</ele>
        <time>2024-05-04T12:42:18Z</time>
      </trkpt>
      <trkpt lat="44.71314" lon="4.32954">
        <ele>645</ele>
        <time>2024-05-04T12:42:21Z</time>
      </trkpt>
      <trkpt lat="44.71306" lon="4.32946">
        <ele>648</ele>
        <time>2024-05-04T12:42:24Z</time>
      </trkpt>
      <trkpt lat="44.71305" lon="4.3294">
        <ele>647</ele>
        <time>2024-05-04T12:42:25Z</time>
      </trkpt>
      <trkpt lat="44.71302" lon="4.32944">
        <ele>649</ele>
        <time>2024-05-04T12:42:25Z</time>
      </trkpt>
      <trkpt lat="44.71302" lon="4.32951">
        <ele>650</ele>
        <time>2024-05-04T12:42:27Z</time>
      </trkpt>
      <trkpt lat="44.71307" lon="4.32963">
        <ele>649</ele>
        <time>2024-05-04T12:42:29Z</time>
      </trkpt>
      <trkpt lat="44.71327" lon="4.32983">
        <ele>644</ele>
        <time>2024-05-04T12:42:35Z</time>
      </trkpt>
      <trkpt lat="44.71338" lon="4.32985">
        <ele>642</ele>
        <time>2024-05-04T12:42:37Z</time>
      </trkpt>
      <trkpt lat="44.71348" lon="4.32982">
        <ele>641</ele>
        <time>2024-05-04T12:42:40Z</time>
      </trkpt>
      <trkpt lat="44.71361" lon="4.32971">
        <ele>640</ele>
        <time>2024-05-04T12:42:43Z</time>
      </trkpt>
      <trkpt lat="44.71371" lon="4.32972">
        <ele>640</ele>
        <time>2024-05-04T12:42:46Z</time>
      </trkpt>
      <trkpt lat="44.71391" lon="4.32982">
        <ele>641</ele>
        <time>2024-05-04T12:42:51Z</time>
      </trkpt>
      <trkpt lat="44.71398" lon="4.33002">
        <ele>642</ele>
        <time>2024-05-04T12:42:54Z</time>
      </trkpt>
      <trkpt lat="44.71394" lon="4.33015">
        <ele>642</ele>
        <time>2024-05-04T12:42:57Z</time>
      </trkpt>
      <trkpt lat="44.71385" lon="4.33022">
        <ele>642</ele>
        <time>2024-05-04T12:42:59Z</time>
      </trkpt>
      <trkpt lat="44.7138" lon="4.3302">
        <ele>642</ele>
        <time>2024-05-04T12:43:00Z</time>
      </trkpt>
      <trkpt lat="44.71375" lon="4.33023">
        <ele>643</ele>
        <time>2024-05-04T12:43:01Z</time>
      </trkpt>
      <trkpt lat="44.71385" lon="4.33022">
        <ele>642</ele>
        <time>2024-05-04T12:43:04Z</time>
      </trkpt>
      <trkpt lat="44.71393" lon="4.33015">
        <ele>642</ele>
        <time>2024-05-04T12:43:06Z</time>
      </trkpt>
      <trkpt lat="44.71396" lon="4.33019">
        <ele>642</ele>
        <time>2024-05-04T12:43:07Z</time>
      </trkpt>
      <trkpt lat="44.71383" lon="4.33051">
        <ele>641</ele>
        <time>2024-05-04T12:43:13Z</time>
      </trkpt>
      <trkpt lat="44.71374" lon="4.33086">
        <ele>642</ele>
        <time>2024-05-04T12:43:19Z</time>
      </trkpt>
      <trkpt lat="44.71371" lon="4.33128">
        <ele>639</ele>
        <time>2024-05-04T12:43:26Z</time>
      </trkpt>
      <trkpt lat="44.71361" lon="4.33165">
        <ele>639</ele>
        <time>2024-05-04T12:43:33Z</time>
      </trkpt>
      <trkpt lat="44.71358" lon="4.33209">
        <ele>632</ele>
        <time>2024-05-04T12:43:40Z</time>
      </trkpt>
      <trkpt lat="44.71362" lon="4.33229">
        <ele>628</ele>
        <time>2024-05-04T12:43:44Z</time>
      </trkpt>
      <trkpt lat="44.71362" lon="4.33273">
        <ele>621</ele>
        <time>2024-05-04T12:43:51Z</time>
      </trkpt>
      <trkpt lat="44.71355" lon="4.33291">
        <ele>620</ele>
        <time>2024-05-04T12:43:54Z</time>
      </trkpt>
      <trkpt lat="44.71336" lon="4.33302">
        <ele>623</ele>
        <time>2024-05-04T12:43:59Z</time>
      </trkpt>
      <trkpt lat="44.71325" lon="4.33305">
        <ele>625</ele>
        <time>2024-05-04T12:44:02Z</time>
      </trkpt>
      <trkpt lat="44.71304" lon="4.333">
        <ele>632</ele>
        <time>2024-05-04T12:44:07Z</time>
      </trkpt>
      <trkpt lat="44.713" lon="4.33303">
        <ele>633</ele>
        <time>2024-05-04T12:44:08Z</time>
      </trkpt>
      <trkpt lat="44.71291" lon="4.3332">
        <ele>633</ele>
        <time>2024-05-04T12:44:11Z</time>
      </trkpt>
      <trkpt lat="44.71289" lon="4.33357">
        <ele>631</ele>
        <time>2024-05-04T12:44:17Z</time>
      </trkpt>
      <trkpt lat="44.71292" lon="4.33377">
        <ele>629</ele>
        <time>2024-05-04T12:44:21Z</time>
      </trkpt>
      <trkpt lat="44.71297" lon="4.3339">
        <ele>627</ele>
        <time>2024-05-04T12:44:23Z</time>
      </trkpt>
      <trkpt lat="44.71301" lon="4.33394">
        <ele>625</ele>
        <time>2024-05-04T12:44:24Z</time>
      </trkpt>
      <trkpt lat="44.71305" lon="4.33444">
        <ele>623</ele>
        <time>2024-05-04T12:44:33Z</time>
      </trkpt>
      <trkpt lat="44.71308" lon="4.3345">
        <ele>622</ele>
        <time>2024-05-04T12:44:34Z</time>
      </trkpt>
      <trkpt lat="44.71326" lon="4.33463">
        <ele>615</ele>
        <time>2024-05-04T12:44:39Z</time>
      </trkpt>
      <trkpt lat="44.71344" lon="4.33515">
        <ele>610</ele>
        <time>2024-05-04T12:44:48Z</time>
      </trkpt>
      <trkpt lat="44.71349" lon="4.3355">
        <ele>610</ele>
        <time>2024-05-04T12:44:54Z</time>
      </trkpt>
      <trkpt lat="44.71339" lon="4.33575">
        <ele>612</ele>
        <time>2024-05-04T12:44:59Z</time>
      </trkpt>
      <trkpt lat="44.71339" lon="4.33583">
        <ele>613</ele>
        <time>2024-05-04T12:45:00Z</time>
      </trkpt>
      <trkpt lat="44.71348" lon="4.33579">
        <ele>610</ele>
        <time>2024-05-04T12:45:03Z</time>
      </trkpt>
      <trkpt lat="44.71361" lon="4.33554">
        <ele>606</ele>
        <time>2024-05-04T12:45:08Z</time>
      </trkpt>
      <trkpt lat="44.71366" lon="4.33556">
        <ele>605</ele>
        <time>2024-05-04T12:45:09Z</time>
      </trkpt>
      <trkpt lat="44.71369" lon="4.33578">
        <ele>605</ele>
        <time>2024-05-04T12:45:13Z</time>
      </trkpt>
      <trkpt lat="44.71364" lon="4.33598">
        <ele>607</ele>
        <time>2024-05-04T12:45:16Z</time>
      </trkpt>
      <trkpt lat="44.71367" lon="4.33612">
        <ele>607</ele>
        <time>2024-05-04T12:45:19Z</time>
      </trkpt>
      <trkpt lat="44.7138" lon="4.33624">
        <ele>604</ele>
        <time>2024-05-04T12:45:22Z</time>
      </trkpt>
      <trkpt lat="44.7139" lon="4.33638">
        <ele>601</ele>
        <time>2024-05-04T12:45:25Z</time>
      </trkpt>
      <trkpt lat="44.71394" lon="4.33642">
        <ele>600</ele>
        <time>2024-05-04T12:45:27Z</time>
      </trkpt>
      <trkpt lat="44.71399" lon="4.33643">
        <ele>599</ele>
        <time>2024-05-04T12:45:28Z</time>
      </trkpt>
      <trkpt lat="44.71402" lon="4.33649">
        <ele>599</ele>
        <time>2024-05-04T12:45:29Z</time>
      </trkpt>
      <trkpt lat="44.71423" lon="4.33668">
        <ele>594</ele>
        <time>2024-05-04T12:45:35Z</time>
      </trkpt>
      <trkpt lat="44.71443" lon="4.33692">
        <ele>592</ele>
        <time>2024-05-04T12:45:41Z</time>
      </trkpt>
      <trkpt lat="44.71453" lon="4.33697">
        <ele>590</ele>
        <time>2024-05-04T12:45:43Z</time>
      </trkpt>
      <trkpt lat="44.71464" lon="4.3371">
        <ele>587</ele>
        <time>2024-05-04T12:45:47Z</time>
      </trkpt>
      <trkpt lat="44.71475" lon="4.33712">
        <ele>585</ele>
        <time>2024-05-04T12:45:49Z</time>
      </trkpt>
      <trkpt lat="44.7148" lon="4.33716">
        <ele>583</ele>
        <time>2024-05-04T12:45:51Z</time>
      </trkpt>
      <trkpt lat="44.71486" lon="4.33727">
        <ele>581</ele>
        <time>2024-05-04T12:45:53Z</time>
      </trkpt>
      <trkpt lat="44.71489" lon="4.33798">
        <ele>578</ele>
        <time>2024-05-04T12:46:05Z</time>
      </trkpt>
      <trkpt lat="44.71485" lon="4.33819">
        <ele>579</ele>
        <time>2024-05-04T12:46:08Z</time>
      </trkpt>
      <trkpt lat="44.7149" lon="4.33855">
        <ele>576</ele>
        <time>2024-05-04T12:46:15Z</time>
      </trkpt>
      <trkpt lat="44.71489" lon="4.33869">
        <ele>576</ele>
        <time>2024-05-04T12:46:17Z</time>
      </trkpt>
      <trkpt lat="44.71494" lon="4.33895">
        <ele>572</ele>
        <time>2024-05-04T12:46:21Z</time>
      </trkpt>
      <trkpt lat="44.71489" lon="4.3394">
        <ele>574</ele>
        <time>2024-05-04T12:46:29Z</time>
      </trkpt>
      <trkpt lat="44.71517" lon="4.34002">
        <ele>562</ele>
        <time>2024-05-04T12:46:41Z</time>
      </trkpt>
      <trkpt lat="44.71544" lon="4.34044">
        <ele>556</ele>
        <time>2024-05-04T12:46:51Z</time>
      </trkpt>
      <trkpt lat="44.71552" lon="4.34069">
        <ele>553</ele>
        <time>2024-05-04T12:46:55Z</time>
      </trkpt>
      <trkpt lat="44.71556" lon="4.34074">
        <ele>552</ele>
        <time>2024-05-04T12:46:56Z</time>
      </trkpt>
      <trkpt lat="44.71565" lon="4.34108">
        <ele>547</ele>
        <time>2024-05-04T12:47:02Z</time>
      </trkpt>
      <trkpt lat="44.71566" lon="4.34116">
        <ele>547</ele>
        <time>2024-05-04T12:47:04Z</time>
      </trkpt>
      <trkpt lat="44.71564" lon="4.34123">
        <ele>547</ele>
        <time>2024-05-04T12:47:05Z</time>
      </trkpt>
      <trkpt lat="44.71579" lon="4.34191">
        <ele>538</ele>
        <time>2024-05-04T12:47:17Z</time>
      </trkpt>
      <trkpt lat="44.71577" lon="4.34249">
        <ele>535</ele>
        <time>2024-05-04T12:47:26Z</time>
      </trkpt>
      <trkpt lat="44.71582" lon="4.34261">
        <ele>532</ele>
        <time>2024-05-04T12:47:29Z</time>
      </trkpt>
      <trkpt lat="44.71583" lon="4.34276">
        <ele>531</ele>
        <time>2024-05-04T12:47:31Z</time>
      </trkpt>
      <trkpt lat="44.71581" lon="4.34289">
        <ele>531</ele>
        <time>2024-05-04T12:47:33Z</time>
      </trkpt>
      <trkpt lat="44.71585" lon="4.34295">
        <ele>530</ele>
        <time>2024-05-04T12:47:35Z</time>
      </trkpt>
      <trkpt lat="44.71592" lon="4.34325">
        <ele>527</ele>
        <time>2024-05-04T12:47:40Z</time>
      </trkpt>
      <trkpt lat="44.71607" lon="4.3437">
        <ele>523</ele>
        <time>2024-05-04T12:47:48Z</time>
      </trkpt>
      <trkpt lat="44.71608" lon="4.34383">
        <ele>522</ele>
        <time>2024-05-04T12:47:50Z</time>
      </trkpt>
      <trkpt lat="44.71604" lon="4.34396">
        <ele>521</ele>
        <time>2024-05-04T12:47:53Z</time>
      </trkpt>
      <trkpt lat="44.71608" lon="4.34416">
        <ele>519</ele>
        <time>2024-05-04T12:47:56Z</time>
      </trkpt>
      <trkpt lat="44.71624" lon="4.34432">
        <ele>515</ele>
        <time>2024-05-04T12:48:01Z</time>
      </trkpt>
      <trkpt lat="44.71626" lon="4.34438">
        <ele>515</ele>
        <time>2024-05-04T12:48:02Z</time>
      </trkpt>
      <trkpt lat="44.71635" lon="4.345">
        <ele>507</ele>
        <time>2024-05-04T12:48:12Z</time>
      </trkpt>
      <trkpt lat="44.71641" lon="4.34519">
        <ele>505</ele>
        <time>2024-05-04T12:48:16Z</time>
      </trkpt>
      <trkpt lat="44.71639" lon="4.34548">
        <ele>504</ele>
        <time>2024-05-04T12:48:21Z</time>
      </trkpt>
      <trkpt lat="44.71631" lon="4.34591">
        <ele>505</ele>
        <time>2024-05-04T12:48:28Z</time>
      </trkpt>
      <trkpt lat="44.71634" lon="4.34605">
        <ele>503</ele>
        <time>2024-05-04T12:48:30Z</time>
      </trkpt>
      <trkpt lat="44.71635" lon="4.34668">
        <ele>501</ele>
        <time>2024-05-04T12:48:41Z</time>
      </trkpt>
      <trkpt lat="44.71638" lon="4.34674">
        <ele>500</ele>
        <time>2024-05-04T12:48:42Z</time>
      </trkpt>
      <trkpt lat="44.7164" lon="4.34708">
        <ele>500</ele>
        <time>2024-05-04T12:48:48Z</time>
      </trkpt>
      <trkpt lat="44.71653" lon="4.34753">
        <ele>496</ele>
        <time>2024-05-04T12:48:56Z</time>
      </trkpt>
      <trkpt lat="44.71692" lon="4.34767">
        <ele>489</ele>
        <time>2024-05-04T12:49:05Z</time>
      </trkpt>
      <trkpt lat="44.71696" lon="4.34727">
        <ele>490</ele>
        <time>2024-05-04T12:49:12Z</time>
      </trkpt>
      <trkpt lat="44.71731" lon="4.34728">
        <ele>489</ele>
        <time>2024-05-04T12:49:20Z</time>
      </trkpt>
      <trkpt lat="44.71768" lon="4.3482">
        <ele>482</ele>
        <time>2024-05-04T12:49:38Z</time>
      </trkpt>
      <trkpt lat="44.71766" lon="4.34918">
        <ele>472</ele>
        <time>2024-05-04T12:49:54Z</time>
      </trkpt>
      <trkpt lat="44.71808" lon="4.35024">
        <ele>466</ele>
        <time>2024-05-04T12:50:14Z</time>
      </trkpt>
      <trkpt lat="44.71847" lon="4.35068">
        <ele>461</ele>
        <time>2024-05-04T12:50:26Z</time>
      </trkpt>
      <trkpt lat="44.71898" lon="4.35089">
        <ele>454</ele>
        <time>2024-05-04T12:50:38Z</time>
      </trkpt>
      <trkpt lat="44.71905" lon="4.35078">
        <ele>456</ele>
        <time>2024-05-04T12:50:41Z</time>
      </trkpt>
      <trkpt lat="44.7191" lon="4.35075">
        <ele>457</ele>
        <time>2024-05-04T12:50:42Z</time>
      </trkpt>
      <trkpt lat="44.71916" lon="4.35063">
        <ele>460</ele>
        <time>2024-05-04T12:50:44Z</time>
      </trkpt>
      <trkpt lat="44.71921" lon="4.3506">
        <ele>460</ele>
        <time>2024-05-04T12:50:46Z</time>
      </trkpt>
      <trkpt lat="44.71929" lon="4.35068">
        <ele>456</ele>
        <time>2024-05-04T12:50:48Z</time>
      </trkpt>
      <trkpt lat="44.71939" lon="4.35071">
        <ele>453</ele>
        <time>2024-05-04T12:50:50Z</time>
      </trkpt>
      <trkpt lat="44.71931" lon="4.35069">
        <ele>455</ele>
        <time>2024-05-04T12:50:52Z</time>
      </trkpt>
      <trkpt lat="44.71919" lon="4.35081">
        <ele>454</ele>
        <time>2024-05-04T12:50:56Z</time>
      </trkpt>
      <trkpt lat="44.71918" lon="4.35087">
        <ele>453</ele>
        <time>2024-05-04T12:50:57Z</time>
      </trkpt>
      <trkpt lat="44.71923" lon="4.3509">
        <ele>451</ele>
        <time>2024-05-04T12:50:58Z</time>
      </trkpt>
      <trkpt lat="44.71933" lon="4.35085">
        <ele>450</ele>
        <time>2024-05-04T12:51:00Z</time>
      </trkpt>
      <trkpt lat="44.71943" lon="4.35085">
        <ele>448</ele>
        <time>2024-05-04T12:51:03Z</time>
      </trkpt>
      <trkpt lat="44.71958" lon="4.3508">
        <ele>446</ele>
        <time>2024-05-04T12:51:06Z</time>
      </trkpt>
      <trkpt lat="44.71971" lon="4.35069">
        <ele>446</ele>
        <time>2024-05-04T12:51:10Z</time>
      </trkpt>
      <trkpt lat="44.71991" lon="4.35063">
        <ele>443</ele>
        <time>2024-05-04T12:51:15Z</time>
      </trkpt>
      <trkpt lat="44.72011" lon="4.35052">
        <ele>443</ele>
        <time>2024-05-04T12:51:20Z</time>
      </trkpt>
      <trkpt lat="44.72013" lon="4.35065">
        <ele>439</ele>
        <time>2024-05-04T12:51:22Z</time>
      </trkpt>
      <trkpt lat="44.71993" lon="4.35087">
        <ele>437</ele>
        <time>2024-05-04T12:51:28Z</time>
      </trkpt>
      <trkpt lat="44.72002" lon="4.35101">
        <ele>434</ele>
        <time>2024-05-04T12:51:31Z</time>
      </trkpt>
      <trkpt lat="44.72007" lon="4.35097">
        <ele>434</ele>
        <time>2024-05-04T12:51:32Z</time>
      </trkpt>
      <trkpt lat="44.72017" lon="4.35095">
        <ele>434</ele>
        <time>2024-05-04T12:51:35Z</time>
      </trkpt>
      <trkpt lat="44.7203" lon="4.35148">
        <ele>432</ele>
        <time>2024-05-04T12:51:44Z</time>
      </trkpt>
      <trkpt lat="44.72041" lon="4.35149">
        <ele>433</ele>
        <time>2024-05-04T12:51:47Z</time>
      </trkpt>
      <trkpt lat="44.7204" lon="4.35156">
        <ele>433</ele>
        <time>2024-05-04T12:51:48Z</time>
      </trkpt>
      <trkpt lat="44.72035" lon="4.35161">
        <ele>433</ele>
        <time>2024-05-04T12:51:49Z</time>
      </trkpt>
      <trkpt lat="44.72028" lon="4.35178">
        <ele>434</ele>
        <time>2024-05-04T12:51:52Z</time>
      </trkpt>
      <trkpt lat="44.72015" lon="4.352">
        <ele>435</ele>
        <time>2024-05-04T12:51:57Z</time>
      </trkpt>
      <trkpt lat="44.72008" lon="4.35219">
        <ele>436</ele>
        <time>2024-05-04T12:52:01Z</time>
      </trkpt>
      <trkpt lat="44.71997" lon="4.35233">
        <ele>435</ele>
        <time>2024-05-04T12:52:04Z</time>
      </trkpt>
      <trkpt lat="44.71991" lon="4.35275">
        <ele>444</ele>
        <time>2024-05-04T12:52:11Z</time>
      </trkpt>
      <trkpt lat="44.71982" lon="4.35293">
        <ele>447</ele>
        <time>2024-05-04T12:52:15Z</time>
      </trkpt>
      <trkpt lat="44.71973" lon="4.35298">
        <ele>446</ele>
        <time>2024-05-04T12:52:17Z</time>
      </trkpt>
      <trkpt lat="44.71952" lon="4.35321">
        <ele>446</ele>
        <time>2024-05-04T12:52:23Z</time>
      </trkpt>
      <trkpt lat="44.71939" lon="4.35341">
        <ele>446</ele>
        <time>2024-05-04T12:52:28Z</time>
      </trkpt>
      <trkpt lat="44.71926" lon="4.35353">
        <ele>445</ele>
        <time>2024-05-04T12:52:32Z</time>
      </trkpt>
      <trkpt lat="44.71896" lon="4.3537">
        <ele>440</ele>
        <time>2024-05-04T12:52:39Z</time>
      </trkpt>
      <trkpt lat="44.71892" lon="4.35368">
        <ele>438</ele>
        <time>2024-05-04T12:52:40Z</time>
      </trkpt>
      <trkpt lat="44.71887" lon="4.35381">
        <ele>439</ele>
        <time>2024-05-04T12:52:43Z</time>
      </trkpt>
      <trkpt lat="44.71888" lon="4.35396">
        <ele>442</ele>
        <time>2024-05-04T12:52:45Z</time>
      </trkpt>
      <trkpt lat="44.71882" lon="4.3544">
        <ele>444</ele>
        <time>2024-05-04T12:52:52Z</time>
      </trkpt>
      <trkpt lat="44.71879" lon="4.3549">
        <ele>446</ele>
        <time>2024-05-04T12:53:01Z</time>
      </trkpt>
      <trkpt lat="44.71865" lon="4.35544">
        <ele>445</ele>
        <time>2024-05-04T12:53:10Z</time>
      </trkpt>
      <trkpt lat="44.71854" lon="4.35608">
        <ele>449</ele>
        <time>2024-05-04T12:53:21Z</time>
      </trkpt>
      <trkpt lat="44.71834" lon="4.35687">
        <ele>458</ele>
        <time>2024-05-04T12:53:35Z</time>
        <extensions>
          <visugpx:TrkExtension xmlns:visugpx="https://www.visugpx.com/editgpx/">
            <visugpx:node>1</visugpx:node>
            </visugpx:TrkExtension>
        </extensions>
      </trkpt>
      <trkpt lat="44.71824" lon="4.35725">
        <ele>460</ele>
      </trkpt>
      <trkpt lat="44.71817" lon="4.35788">
        <ele>465.7</ele>
      </trkpt>
      <trkpt lat="44.71818" lon="4.35802">
        <ele>465.5</ele>
      </trkpt>
      <trkpt lat="44.71792" lon="4.35813">
        <ele>466.4</ele>
      </trkpt>
      <trkpt lat="44.71793" lon="4.35817">
        <ele>465.9</ele>
      </trkpt>
      <trkpt lat="44.71796" lon="4.35841">
        <ele>463</ele>
      </trkpt>
      <trkpt lat="44.71795" lon="4.35859">
        <ele>460.6</ele>
      </trkpt>
      <trkpt lat="44.71792" lon="4.35877">
        <ele>457.5</ele>
      </trkpt>
      <trkpt lat="44.71793" lon="4.35881">
        <ele>456.3</ele>
      </trkpt>
      <trkpt lat="44.71793" lon="4.35886">
        <ele>455.2</ele>
      </trkpt>
      <trkpt lat="44.7179" lon="4.35908">
        <ele>451</ele>
      </trkpt>
      <trkpt lat="44.71796" lon="4.3595">
        <ele>439</ele>
      </trkpt>
      <trkpt lat="44.71801" lon="4.3595">
        <ele>438.6</ele>
      </trkpt>
      <trkpt lat="44.71796" lon="4.35965">
        <ele>433.6</ele>
      </trkpt>
      <trkpt lat="44.71799" lon="4.35967">
        <ele>432.8</ele>
      </trkpt>
      <trkpt lat="44.71803" lon="4.3596">
        <ele>435.1</ele>
      </trkpt>
      <trkpt lat="44.71809" lon="4.3596">
        <ele>434.7</ele>
      </trkpt>
      <trkpt lat="44.71815" lon="4.35962">
        <ele>433.5</ele>
      </trkpt>
      <trkpt lat="44.71815" lon="4.35969">
        <ele>431.1</ele>
      </trkpt>
      <trkpt lat="44.71803" lon="4.35977">
        <ele>429.1</ele>
      </trkpt>
      <trkpt lat="44.71803" lon="4.35986">
        <ele>425.5</ele>
      </trkpt>
      <trkpt lat="44.71814" lon="4.35996">
        <ele>418.6</ele>
      </trkpt>
      <trkpt lat="44.71815" lon="4.36003">
        <ele>415.2</ele>
      </trkpt>
      <trkpt lat="44.71797" lon="4.36015">
        <ele>412.7</ele>
      </trkpt>
      <trkpt lat="44.71797" lon="4.36018">
        <ele>411.4</ele>
      </trkpt>
      <trkpt lat="44.71814" lon="4.36012">
        <ele>412.4</ele>
      </trkpt>
      <trkpt lat="44.71815" lon="4.36016">
        <ele>410.7</ele>
      </trkpt>
      <trkpt lat="44.718" lon="4.36034">
        <ele>405.8</ele>
      </trkpt>
      <trkpt lat="44.71798" lon="4.36034">
        <ele>405.6</ele>
      </trkpt>
      <trkpt lat="44.71798" lon="4.36038">
        <ele>404.6</ele>
      </trkpt>
      <trkpt lat="44.71795" lon="4.36066">
        <ele>403.3</ele>
      </trkpt>
      <trkpt lat="44.71794" lon="4.36078">
        <ele>407</ele>
      </trkpt>
      <trkpt lat="44.71792" lon="4.36076">
        <ele>407</ele>
        <extensions>
          <visugpx:TrkExtension xmlns:visugpx="https://www.visugpx.com/editgpx/">
            <visugpx:node>2</visugpx:node>
            </visugpx:TrkExtension>
        </extensions>
      </trkpt>
      <trkpt lat="44.71794" lon="4.36078">
        <ele>407</ele>
      </trkpt>
      <trkpt lat="44.71787" lon="4.36074">
        <ele>407.8</ele>
      </trkpt>
      <trkpt lat="44.71776" lon="4.36073">
        <ele>409.7</ele>
      </trkpt>
      <trkpt lat="44.71762" lon="4.36078">
        <ele>411.3</ele>
      </trkpt>
      <trkpt lat="44.71723" lon="4.36085">
        <ele>413</ele>
      </trkpt>
      <trkpt lat="44.71713" lon="4.36082">
        <ele>414.8</ele>
      </trkpt>
      <trkpt lat="44.71697" lon="4.3607">
        <ele>416.6</ele>
      </trkpt>
      <trkpt lat="44.7169" lon="4.36069">
        <ele>416.7</ele>
      </trkpt>
      <trkpt lat="44.71673" lon="4.3608">
        <ele>419</ele>
      </trkpt>
      <trkpt lat="44.71655" lon="4.36086">
        <ele>419.7</ele>
      </trkpt>
      <trkpt lat="44.71648" lon="4.36093">
        <ele>421.1</ele>
      </trkpt>
      <trkpt lat="44.71645" lon="4.361">
        <ele>422.9</ele>
      </trkpt>
      <trkpt lat="44.7163" lon="4.36137">
        <ele>430.1</ele>
      </trkpt>
      <trkpt lat="44.71601" lon="4.36172">
        <ele>435.2</ele>
      </trkpt>
      <trkpt lat="44.71592" lon="4.36187">
        <ele>436.9</ele>
      </trkpt>
      <trkpt lat="44.71584" lon="4.36212">
        <ele>443.6</ele>
      </trkpt>
      <trkpt lat="44.71581" lon="4.36216">
        <ele>444.7</ele>
      </trkpt>
      <trkpt lat="44.71548" lon="4.36227">
        <ele>444.1</ele>
      </trkpt>
      <trkpt lat="44.71527" lon="4.36253">
        <ele>450.3</ele>
      </trkpt>
      <trkpt lat="44.71502" lon="4.3627">
        <ele>452.4</ele>
      </trkpt>
      <trkpt lat="44.71483" lon="4.3629">
        <ele>454</ele>
      </trkpt>
      <trkpt lat="44.71471" lon="4.36334">
        <ele>461.8</ele>
      </trkpt>
      <trkpt lat="44.71441" lon="4.36388">
        <ele>470.6</ele>
      </trkpt>
      <trkpt lat="44.71391" lon="4.36403">
        <ele>477.4</ele>
      </trkpt>
      <trkpt lat="44.71357" lon="4.3643">
        <ele>479.7</ele>
      </trkpt>
      <trkpt lat="44.71341" lon="4.3645">
        <ele>489.8</ele>
      </trkpt>
      <trkpt lat="44.71315" lon="4.36451">
        <ele>495</ele>
      </trkpt>
      <trkpt lat="44.71304" lon="4.36448">
        <ele>495.4</ele>
      </trkpt>
      <trkpt lat="44.71295" lon="4.36442">
        <ele>491.4</ele>
      </trkpt>
      <trkpt lat="44.71254" lon="4.3647">
        <ele>501.3</ele>
      </trkpt>
      <trkpt lat="44.7123" lon="4.36493">
        <ele>503.6</ele>
      </trkpt>
      <trkpt lat="44.71224" lon="4.36505">
        <ele>505.1</ele>
      </trkpt>
      <trkpt lat="44.71214" lon="4.36547">
        <ele>514.6</ele>
      </trkpt>
      <trkpt lat="44.71206" lon="4.36555">
        <ele>514</ele>
      </trkpt>
      <trkpt lat="44.71198" lon="4.36573">
        <ele>519.1</ele>
      </trkpt>
      <trkpt lat="44.71183" lon="4.36584">
        <ele>520</ele>
      </trkpt>
      <trkpt lat="44.71172" lon="4.36587">
        <ele>518.5</ele>
      </trkpt>
      <trkpt lat="44.71158" lon="4.36586">
        <ele>517</ele>
      </trkpt>
      <trkpt lat="44.71119" lon="4.36576">
        <ele>516.2</ele>
      </trkpt>
      <trkpt lat="44.71104" lon="4.36578">
        <ele>516.9</ele>
      </trkpt>
      <trkpt lat="44.71081" lon="4.36597">
        <ele>521.3</ele>
      </trkpt>
      <trkpt lat="44.71074" lon="4.36608">
        <ele>522.9</ele>
      </trkpt>
      <trkpt lat="44.7106" lon="4.36648">
        <ele>530.4</ele>
      </trkpt>
      <trkpt lat="44.71054" lon="4.36659">
        <ele>531.3</ele>
      </trkpt>
      <trkpt lat="44.71043" lon="4.36672">
        <ele>532.9</ele>
      </trkpt>
      <trkpt lat="44.7103" lon="4.36684">
        <ele>535.1</ele>
      </trkpt>
      <trkpt lat="44.71013" lon="4.36689">
        <ele>531.6</ele>
      </trkpt>
      <trkpt lat="44.71003" lon="4.36686">
        <ele>526.2</ele>
      </trkpt>
      <trkpt lat="44.7099" lon="4.36688">
        <ele>524</ele>
      </trkpt>
      <trkpt lat="44.7097" lon="4.36701">
        <ele>527.4</ele>
      </trkpt>
      <trkpt lat="44.70954" lon="4.36708">
        <ele>530</ele>
      </trkpt>
      <trkpt lat="44.70927" lon="4.36709">
        <ele>531.1</ele>
      </trkpt>
      <trkpt lat="44.70913" lon="4.36704">
        <ele>530.4</ele>
      </trkpt>
      <trkpt lat="44.70898" lon="4.36704">
        <ele>532.9</ele>
      </trkpt>
      <trkpt lat="44.70894" lon="4.36711">
        <ele>536.8</ele>
      </trkpt>
      <trkpt lat="44.70889" lon="4.36713">
        <ele>538.7</ele>
      </trkpt>
      <trkpt lat="44.70882" lon="4.36719">
        <ele>541.3</ele>
      </trkpt>
      <trkpt lat="44.70876" lon="4.3672">
        <ele>541.6</ele>
      </trkpt>
      <trkpt lat="44.70877" lon="4.36737">
        <ele>548.4</ele>
      </trkpt>
      <trkpt lat="44.70868" lon="4.36751">
        <ele>553.6</ele>
      </trkpt>
      <trkpt lat="44.70869" lon="4.36767">
        <ele>559.3</ele>
      </trkpt>
      <trkpt lat="44.70879" lon="4.36775">
        <ele>563.5</ele>
      </trkpt>
      <trkpt lat="44.70897" lon="4.36775">
        <ele>563.3</ele>
      </trkpt>
      <trkpt lat="44.70909" lon="4.36803">
        <ele>572.8</ele>
      </trkpt>
      <trkpt lat="44.70925" lon="4.36804">
        <ele>573.2</ele>
      </trkpt>
      <trkpt lat="44.70953" lon="4.36793">
        <ele>573.5</ele>
      </trkpt>
      <trkpt lat="44.70965" lon="4.36791">
        <ele>576.1</ele>
        <extensions>
          <visugpx:TrkExtension xmlns:visugpx="https://www.visugpx.com/editgpx/">
            <visugpx:node>3</visugpx:node>
            </visugpx:TrkExtension>
        </extensions>
      </trkpt>
      <trkpt lat="44.70953" lon="4.36793">
        <ele>573.5</ele>
      </trkpt>
      <trkpt lat="44.70925" lon="4.36804">
        <ele>573.2</ele>
      </trkpt>
      <trkpt lat="44.70909" lon="4.36803">
        <ele>572.8</ele>
      </trkpt>
      <trkpt lat="44.70897" lon="4.36775">
        <ele>563.3</ele>
      </trkpt>
      <trkpt lat="44.70879" lon="4.36775">
        <ele>563.5</ele>
      </trkpt>
      <trkpt lat="44.70869" lon="4.36767">
        <ele>559.3</ele>
      </trkpt>
      <trkpt lat="44.70868" lon="4.36751">
        <ele>553.6</ele>
      </trkpt>
      <trkpt lat="44.70845" lon="4.36786">
        <ele>559.3</ele>
      </trkpt>
      <trkpt lat="44.70834" lon="4.36806">
        <ele>560.5</ele>
      </trkpt>
      <trkpt lat="44.70815" lon="4.36832">
        <ele>561</ele>
      </trkpt>
      <trkpt lat="44.7081" lon="4.36851">
        <ele>562.3</ele>
      </trkpt>
      <trkpt lat="44.70796" lon="4.36886">
        <ele>560.7</ele>
      </trkpt>
      <trkpt lat="44.70787" lon="4.36934">
        <ele>562.4</ele>
      </trkpt>
      <trkpt lat="44.70778" lon="4.36962">
        <ele>563.2</ele>
      </trkpt>
      <trkpt lat="44.70767" lon="4.36974">
        <ele>563.5</ele>
      </trkpt>
      <trkpt lat="44.70739" lon="4.36994">
        <ele>564.1</ele>
      </trkpt>
      <trkpt lat="44.70729" lon="4.37007">
        <ele>565.3</ele>
      </trkpt>
      <trkpt lat="44.70727" lon="4.37012">
        <ele>566.3</ele>
        <extensions>
          <visugpx:TrkExtension xmlns:visugpx="https://www.visugpx.com/editgpx/">
            <visugpx:node>4</visugpx:node>
            </visugpx:TrkExtension>
        </extensions>
      </trkpt>
      <trkpt lat="44.70725" lon="4.37018">
        <ele>567.6</ele>
      </trkpt>
      <trkpt lat="44.70721" lon="4.37021">
        <ele>567.6</ele>
      </trkpt>
      <trkpt lat="44.70723" lon="4.37025">
        <ele>569.3</ele>
      </trkpt>
      <trkpt lat="44.70728" lon="4.37034">
        <ele>572.5</ele>
      </trkpt>
      <trkpt lat="44.70734" lon="4.37037">
        <ele>574.5</ele>
      </trkpt>
      <trkpt lat="44.70766" lon="4.37049">
        <ele>585.5</ele>
      </trkpt>
      <trkpt lat="44.70771" lon="4.37049">
        <ele>587.3</ele>
      </trkpt>
      <trkpt lat="44.70774" lon="4.37053">
        <ele>589.1</ele>
      </trkpt>
      <trkpt lat="44.70765" lon="4.37083">
        <ele>592.5</ele>
      </trkpt>
      <trkpt lat="44.70763" lon="4.37095">
        <ele>592.6</ele>
      </trkpt>
      <trkpt lat="44.70764" lon="4.37105">
        <ele>594</ele>
      </trkpt>
      <trkpt lat="44.70771" lon="4.3712">
        <ele>599.1</ele>
      </trkpt>
      <trkpt lat="44.70772" lon="4.37131">
        <ele>600.6</ele>
      </trkpt>
      <trkpt lat="44.70775" lon="4.37134">
        <ele>602.3</ele>
      </trkpt>
      <trkpt lat="44.70784" lon="4.37115">
        <ele>605.7</ele>
      </trkpt>
      <trkpt lat="44.70786" lon="4.37106">
        <ele>605.8</ele>
      </trkpt>
      <trkpt lat="44.7079" lon="4.37098">
        <ele>606.8</ele>
      </trkpt>
      <trkpt lat="44.70791" lon="4.37092">
        <ele>606.4</ele>
      </trkpt>
      <trkpt lat="44.70796" lon="4.37092">
        <ele>608.9</ele>
      </trkpt>
      <trkpt lat="44.70805" lon="4.37082">
        <ele>611.3</ele>
      </trkpt>
      <trkpt lat="44.7081" lon="4.37082">
        <ele>613.5</ele>
      </trkpt>
      <trkpt lat="44.70816" lon="4.3708">
        <ele>615.5</ele>
      </trkpt>
      <trkpt lat="44.70836" lon="4.37065">
        <ele>620.3</ele>
      </trkpt>
      <trkpt lat="44.70853" lon="4.37059">
        <ele>624.8</ele>
      </trkpt>
      <trkpt lat="44.70846" lon="4.37073">
        <ele>625.4</ele>
      </trkpt>
      <trkpt lat="44.70828" lon="4.37097">
        <ele>623.4</ele>
      </trkpt>
      <trkpt lat="44.7083" lon="4.37109">
        <ele>625.6</ele>
      </trkpt>
      <trkpt lat="44.70838" lon="4.37099">
        <ele>627.2</ele>
        <extensions>
          <visugpx:TrkExtension xmlns:visugpx="https://www.visugpx.com/editgpx/">
            <visugpx:node>5</visugpx:node>
            </visugpx:TrkExtension>
        </extensions>
      </trkpt>
      <trkpt lat="44.70843" lon="4.37092">
        <ele>627.9</ele>
      </trkpt>
      <trkpt lat="44.70905" lon="4.37027">
        <ele>634.2</ele>
      </trkpt>
      <trkpt lat="44.70925" lon="4.37022">
        <ele>637.7</ele>
      </trkpt>
      <trkpt lat="44.70953" lon="4.37024">
        <ele>639.8</ele>
      </trkpt>
      <trkpt lat="44.70968" lon="4.37031">
        <ele>641.2</ele>
      </trkpt>
      <trkpt lat="44.70976" lon="4.37053">
        <ele>643</ele>
      </trkpt>
      <trkpt lat="44.70977" lon="4.37078">
        <ele>642.8</ele>
      </trkpt>
      <trkpt lat="44.70967" lon="4.37118">
        <ele>645</ele>
      </trkpt>
      <trkpt lat="44.70967" lon="4.37147">
        <ele>646.7</ele>
      </trkpt>
      <trkpt lat="44.70972" lon="4.37189">
        <ele>647.7</ele>
      </trkpt>
      <trkpt lat="44.70985" lon="4.37229">
        <ele>650.2</ele>
      </trkpt>
      <trkpt lat="44.71008" lon="4.37262">
        <ele>652.5</ele>
      </trkpt>
      <trkpt lat="44.71031" lon="4.37301">
        <ele>656.2</ele>
      </trkpt>
      <trkpt lat="44.71057" lon="4.37335">
        <ele>660.4</ele>
      </trkpt>
      <trkpt lat="44.71069" lon="4.37358">
        <ele>663.7</ele>
        <extensions>
          <visugpx:TrkExtension xmlns:visugpx="https://www.visugpx.com/editgpx/">
            <visugpx:node>6</visugpx:node>
            </visugpx:TrkExtension>
        </extensions>
      </trkpt>
      <trkpt lat="44.71057" lon="4.37335">
        <ele>660.4</ele>
      </trkpt>
      <trkpt lat="44.71031" lon="4.37301">
        <ele>656.2</ele>
      </trkpt>
      <trkpt lat="44.71008" lon="4.37262">
        <ele>652.5</ele>
      </trkpt>
      <trkpt lat="44.70985" lon="4.37229">
        <ele>650.2</ele>
      </trkpt>
      <trkpt lat="44.70972" lon="4.37189">
        <ele>647.7</ele>
      </trkpt>
      <trkpt lat="44.70967" lon="4.37147">
        <ele>646.7</ele>
      </trkpt>
      <trkpt lat="44.70967" lon="4.37118">
        <ele>645</ele>
      </trkpt>
      <trkpt lat="44.70977" lon="4.37078">
        <ele>642.8</ele>
      </trkpt>
      <trkpt lat="44.70976" lon="4.37053">
        <ele>643</ele>
      </trkpt>
      <trkpt lat="44.70968" lon="4.37031">
        <ele>641.2</ele>
      </trkpt>
      <trkpt lat="44.70953" lon="4.37024">
        <ele>639.8</ele>
      </trkpt>
      <trkpt lat="44.70925" lon="4.37022">
        <ele>637.7</ele>
      </trkpt>
      <trkpt lat="44.70905" lon="4.37027">
        <ele>634.2</ele>
      </trkpt>
      <trkpt lat="44.70843" lon="4.37092">
        <ele>627.9</ele>
      </trkpt>
      <trkpt lat="44.7083" lon="4.37109">
        <ele>625.6</ele>
      </trkpt>
      <trkpt lat="44.70825" lon="4.37115">
        <ele>624.7</ele>
      </trkpt>
      <trkpt lat="44.70801" lon="4.3717">
        <ele>622.2</ele>
      </trkpt>
      <trkpt lat="44.70786" lon="4.37197">
        <ele>620.2</ele>
      </trkpt>
      <trkpt lat="44.70784" lon="4.37217">
        <ele>622.1</ele>
      </trkpt>
      <trkpt lat="44.70776" lon="4.37255">
        <ele>625.2</ele>
      </trkpt>
      <trkpt lat="44.7076" lon="4.37304">
        <ele>624.9</ele>
      </trkpt>
      <trkpt lat="44.70757" lon="4.37334">
        <ele>625.2</ele>
      </trkpt>
      <trkpt lat="44.7076" lon="4.37416">
        <ele>621.1</ele>
      </trkpt>
      <trkpt lat="44.70759" lon="4.37447">
        <ele>621</ele>
      </trkpt>
      <trkpt lat="44.70751" lon="4.37499">
        <ele>617.6</ele>
      </trkpt>
      <trkpt lat="44.70746" lon="4.37561">
        <ele>616.7</ele>
      </trkpt>
      <trkpt lat="44.7074" lon="4.37584">
        <ele>617.1</ele>
      </trkpt>
      <trkpt lat="44.7073" lon="4.37606">
        <ele>618.8</ele>
      </trkpt>
      <trkpt lat="44.70725" lon="4.37613">
        <ele>618.7</ele>
      </trkpt>
      <trkpt lat="44.70722" lon="4.37634">
        <ele>622.7</ele>
      </trkpt>
      <trkpt lat="44.7071" lon="4.37647">
        <ele>622.8</ele>
      </trkpt>
      <trkpt lat="44.70703" lon="4.37667">
        <ele>626.5</ele>
      </trkpt>
      <trkpt lat="44.70693" lon="4.3768">
        <ele>625.6</ele>
        <extensions>
          <visugpx:TrkExtension xmlns:visugpx="https://www.visugpx.com/editgpx/">
            <visugpx:node>7</visugpx:node>
            </visugpx:TrkExtension>
        </extensions>
      </trkpt>
      <trkpt lat="44.70682" lon="4.37692">
        <ele>621.8</ele>
      </trkpt>
      <trkpt lat="44.70623" lon="4.37779">
        <ele>626.1</ele>
      </trkpt>
      <trkpt lat="44.70587" lon="4.37816">
        <ele>634.6</ele>
      </trkpt>
      <trkpt lat="44.70572" lon="4.37847">
        <ele>636.8</ele>
      </trkpt>
      <trkpt lat="44.70556" lon="4.37935">
        <ele>638.4</ele>
      </trkpt>
      <trkpt lat="44.70545" lon="4.38003">
        <ele>642.2</ele>
      </trkpt>
      <trkpt lat="44.70548" lon="4.38056">
        <ele>642.7</ele>
      </trkpt>
      <trkpt lat="44.70552" lon="4.38074">
        <ele>641.3</ele>
      </trkpt>
      <trkpt lat="44.70565" lon="4.38249">
        <ele>639</ele>
      </trkpt>
      <trkpt lat="44.70573" lon="4.38297">
        <ele>649.5</ele>
      </trkpt>
      <trkpt lat="44.70559" lon="4.38356">
        <ele>649.1</ele>
      </trkpt>
      <trkpt lat="44.70561" lon="4.38418">
        <ele>651.1</ele>
      </trkpt>
      <trkpt lat="44.70572" lon="4.3845">
        <ele>659.5</ele>
      </trkpt>
      <trkpt lat="44.70558" lon="4.38504">
        <ele>660.7</ele>
      </trkpt>
      <trkpt lat="44.70556" lon="4.38511">
        <ele>660.5</ele>
      </trkpt>
      <trkpt lat="44.70533" lon="4.38647">
        <ele>651.3</ele>
      </trkpt>
      <trkpt lat="44.70448" lon="4.38776">
        <ele>628.9</ele>
      </trkpt>
      <trkpt lat="44.70425" lon="4.38824">
        <ele>620.4</ele>
      </trkpt>
      <trkpt lat="44.70387" lon="4.38855">
        <ele>619</ele>
      </trkpt>
      <trkpt lat="44.70355" lon="4.38931">
        <ele>604.2</ele>
      </trkpt>
      <trkpt lat="44.70337" lon="4.38937">
        <ele>602.5</ele>
      </trkpt>
      <trkpt lat="44.70315" lon="4.38956">
        <ele>597.6</ele>
      </trkpt>
      <trkpt lat="44.70306" lon="4.38965">
        <ele>595.3</ele>
      </trkpt>
      <trkpt lat="44.70296" lon="4.38966">
        <ele>593.9</ele>
      </trkpt>
      <trkpt lat="44.7029" lon="4.38977">
        <ele>591.5</ele>
      </trkpt>
      <trkpt lat="44.70284" lon="4.38983">
        <ele>589.6</ele>
        <extensions>
          <visugpx:TrkExtension xmlns:visugpx="https://www.visugpx.com/editgpx/">
            <visugpx:node>8</visugpx:node>
            </visugpx:TrkExtension>
        </extensions>
      </trkpt>
      <trkpt lat="44.70281" lon="4.38986">
        <ele>588.5</ele>
      </trkpt>
      <trkpt lat="44.70271" lon="4.38977">
        <ele>586.1</ele>
      </trkpt>
      <trkpt lat="44.70268" lon="4.38946">
        <ele>588.9</ele>
      </trkpt>
      <trkpt lat="44.70264" lon="4.38933">
        <ele>589.5</ele>
      </trkpt>
      <trkpt lat="44.70255" lon="4.38903">
        <ele>590.4</ele>
      </trkpt>
      <trkpt lat="44.70237" lon="4.38871">
        <ele>588.6</ele>
      </trkpt>
      <trkpt lat="44.70247" lon="4.38929">
        <ele>581.5</ele>
      </trkpt>
      <trkpt lat="44.70227" lon="4.38912">
        <ele>576.9</ele>
      </trkpt>
      <trkpt lat="44.7022" lon="4.389">
        <ele>576.6</ele>
      </trkpt>
      <trkpt lat="44.70203" lon="4.38877">
        <ele>574.3</ele>
      </trkpt>
      <trkpt lat="44.70192" lon="4.38872">
        <ele>572.1</ele>
      </trkpt>
      <trkpt lat="44.70178" lon="4.38876">
        <ele>570</ele>
      </trkpt>
      <trkpt lat="44.70168" lon="4.3888">
        <ele>567.7</ele>
      </trkpt>
      <trkpt lat="44.70153" lon="4.38901">
        <ele>559.8</ele>
      </trkpt>
      <trkpt lat="44.70137" lon="4.38905">
        <ele>558.5</ele>
      </trkpt>
      <trkpt lat="44.70129" lon="4.38915">
        <ele>555.9</ele>
      </trkpt>
      <trkpt lat="44.70114" lon="4.38928">
        <ele>553</ele>
      </trkpt>
      <trkpt lat="44.70103" lon="4.3894">
        <ele>552.4</ele>
      </trkpt>
      <trkpt lat="44.701" lon="4.38956">
        <ele>550</ele>
      </trkpt>
      <trkpt lat="44.70096" lon="4.38973">
        <ele>548.3</ele>
      </trkpt>
      <trkpt lat="44.70097" lon="4.3899">
        <ele>544.9</ele>
      </trkpt>
      <trkpt lat="44.70105" lon="4.38989">
        <ele>541.8</ele>
      </trkpt>
      <trkpt lat="44.70111" lon="4.38985">
        <ele>540.3</ele>
      </trkpt>
      <trkpt lat="44.70121" lon="4.38992">
        <ele>536.9</ele>
      </trkpt>
      <trkpt lat="44.70118" lon="4.39006">
        <ele>534.4</ele>
      </trkpt>
      <trkpt lat="44.70109" lon="4.39011">
        <ele>535.8</ele>
      </trkpt>
      <trkpt lat="44.70084" lon="4.39048">
        <ele>528.7</ele>
      </trkpt>
      <trkpt lat="44.70089" lon="4.39062">
        <ele>522.5</ele>
      </trkpt>
      <trkpt lat="44.7008" lon="4.39067">
        <ele>521.7</ele>
      </trkpt>
      <trkpt lat="44.70078" lon="4.39075">
        <ele>519.4</ele>
      </trkpt>
      <trkpt lat="44.70067" lon="4.39098">
        <ele>513.8</ele>
      </trkpt>
      <trkpt lat="44.70061" lon="4.39102">
        <ele>513.3</ele>
      </trkpt>
      <trkpt lat="44.70052" lon="4.39115">
        <ele>509.3</ele>
      </trkpt>
      <trkpt lat="44.70064" lon="4.39116">
        <ele>508.3</ele>
      </trkpt>
      <trkpt lat="44.70061" lon="4.39126">
        <ele>504.7</ele>
      </trkpt>
      <trkpt lat="44.70038" lon="4.39132">
        <ele>502.6</ele>
      </trkpt>
      <trkpt lat="44.70013" lon="4.39156">
        <ele>494.3</ele>
      </trkpt>
      <trkpt lat="44.69981" lon="4.39182">
        <ele>481.7</ele>
      </trkpt>
      <trkpt lat="44.69952" lon="4.39189">
        <ele>476.3</ele>
      </trkpt>
      <trkpt lat="44.69931" lon="4.39182">
        <ele>473.7</ele>
      </trkpt>
      <trkpt lat="44.69918" lon="4.39172">
        <ele>471.3</ele>
      </trkpt>
      <trkpt lat="44.69915" lon="4.39143">
        <ele>474</ele>
      </trkpt>
      <trkpt lat="44.69914" lon="4.39105">
        <ele>480.5</ele>
      </trkpt>
      <trkpt lat="44.69902" lon="4.39098">
        <ele>476.4</ele>
      </trkpt>
      <trkpt lat="44.69878" lon="4.39097">
        <ele>472.7</ele>
      </trkpt>
      <trkpt lat="44.69863" lon="4.39103">
        <ele>472.6</ele>
      </trkpt>
      <trkpt lat="44.69849" lon="4.3915">
        <ele>461.2</ele>
      </trkpt>
      <trkpt lat="44.69836" lon="4.39163">
        <ele>460.6</ele>
      </trkpt>
      <trkpt lat="44.69816" lon="4.39169">
        <ele>461.6</ele>
      </trkpt>
      <trkpt lat="44.69798" lon="4.39185">
        <ele>458.1</ele>
      </trkpt>
      <trkpt lat="44.69786" lon="4.39202">
        <ele>454.3</ele>
      </trkpt>
      <trkpt lat="44.69787" lon="4.3922">
        <ele>449.9</ele>
      </trkpt>
      <trkpt lat="44.69775" lon="4.39227">
        <ele>449.5</ele>
      </trkpt>
      <trkpt lat="44.69761" lon="4.39265">
        <ele>441.7</ele>
      </trkpt>
      <trkpt lat="44.69736" lon="4.39291">
        <ele>440.2</ele>
      </trkpt>
      <trkpt lat="44.69732" lon="4.39298">
        <ele>439.8</ele>
      </trkpt>
      <trkpt lat="44.69734" lon="4.39312">
        <ele>437</ele>
      </trkpt>
      <trkpt lat="44.69733" lon="4.39323">
        <ele>436.1</ele>
      </trkpt>
      <trkpt lat="44.69735" lon="4.39338">
        <ele>433.2</ele>
      </trkpt>
      <trkpt lat="44.69735" lon="4.39376">
        <ele>428.3</ele>
      </trkpt>
      <trkpt lat="44.69739" lon="4.39395">
        <ele>424.7</ele>
      </trkpt>
      <trkpt lat="44.69743" lon="4.39455">
        <ele>410.9</ele>
      </trkpt>
      <trkpt lat="44.69731" lon="4.39492">
        <ele>406.6</ele>
      </trkpt>
      <trkpt lat="44.69738" lon="4.3949">
        <ele>404.9</ele>
      </trkpt>
      <trkpt lat="44.69719" lon="4.39533">
        <ele>399.4</ele>
      </trkpt>
      <trkpt lat="44.69711" lon="4.39557">
        <ele>396.3</ele>
      </trkpt>
      <trkpt lat="44.69719" lon="4.39595">
        <ele>401.2</ele>
      </trkpt>
      <trkpt lat="44.69714" lon="4.39607">
        <ele>404.8</ele>
      </trkpt>
      <trkpt lat="44.69704" lon="4.3962">
        <ele>405.4</ele>
      </trkpt>
      <trkpt lat="44.69696" lon="4.39624">
        <ele>403.3</ele>
      </trkpt>
      <trkpt lat="44.69685" lon="4.39623">
        <ele>401.7</ele>
      </trkpt>
      <trkpt lat="44.69675" lon="4.39627">
        <ele>402.8</ele>
      </trkpt>
      <trkpt lat="44.69655" lon="4.39639">
        <ele>406.8</ele>
      </trkpt>
      <trkpt lat="44.69651" lon="4.39648">
        <ele>409.7</ele>
      </trkpt>
      <trkpt lat="44.69634" lon="4.3966">
        <ele>412.7</ele>
      </trkpt>
      <trkpt lat="44.69617" lon="4.39667">
        <ele>415.9</ele>
      </trkpt>
      <trkpt lat="44.69577" lon="4.39662">
        <ele>419.6</ele>
      </trkpt>
      <trkpt lat="44.69563" lon="4.39649">
        <ele>420.4</ele>
      </trkpt>
      <trkpt lat="44.6955" lon="4.39644">
        <ele>423.5</ele>
      </trkpt>
      <trkpt lat="44.69535" lon="4.39643">
        <ele>428.1</ele>
      </trkpt>
      <trkpt lat="44.6953" lon="4.3964">
        <ele>428.7</ele>
      </trkpt>
      <trkpt lat="44.69526" lon="4.3963">
        <ele>426.8</ele>
      </trkpt>
      <trkpt lat="44.69509" lon="4.39606">
        <ele>428.8</ele>
      </trkpt>
      <trkpt lat="44.69494" lon="4.39602">
        <ele>432.7</ele>
      </trkpt>
      <trkpt lat="44.69485" lon="4.3961">
        <ele>433.4</ele>
      </trkpt>
      <trkpt lat="44.69471" lon="4.39615">
        <ele>432.6</ele>
      </trkpt>
      <trkpt lat="44.69479" lon="4.39632">
        <ele>435.3</ele>
      </trkpt>
      <trkpt lat="44.69477" lon="4.39633">
        <ele>435.2</ele>
      </trkpt>
      <trkpt lat="44.69474" lon="4.39655">
        <ele>434.9</ele>
      </trkpt>
      <trkpt lat="44.69467" lon="4.39666">
        <ele>432.1</ele>
      </trkpt>
      <trkpt lat="44.69468" lon="4.39705">
        <ele>437.7</ele>
      </trkpt>
      <trkpt lat="44.69458" lon="4.39718">
        <ele>437.6</ele>
      </trkpt>
      <trkpt lat="44.69455" lon="4.39727">
        <ele>437.8</ele>
      </trkpt>
      <trkpt lat="44.69455" lon="4.39746">
        <ele>438.5</ele>
      </trkpt>
      <trkpt lat="44.69468" lon="4.39766">
        <ele>439.3</ele>
      </trkpt>
      <trkpt lat="44.69501" lon="4.39832">
        <ele>438.6</ele>
      </trkpt>
      <trkpt lat="44.69511" lon="4.39836">
        <ele>441.4</ele>
      </trkpt>
      <trkpt lat="44.69537" lon="4.39872">
        <ele>443.8</ele>
      </trkpt>
      <trkpt lat="44.69543" lon="4.39885">
        <ele>444.7</ele>
      </trkpt>
      <trkpt lat="44.69542" lon="4.39894">
        <ele>444.9</ele>
      </trkpt>
      <trkpt lat="44.69521" lon="4.39904">
        <ele>446.1</ele>
      </trkpt>
      <trkpt lat="44.69512" lon="4.39907">
        <ele>447.4</ele>
      </trkpt>
      <trkpt lat="44.69488" lon="4.3991">
        <ele>449.3</ele>
      </trkpt>
      <trkpt lat="44.69458" lon="4.39923">
        <ele>453.4</ele>
      </trkpt>
      <trkpt lat="44.69447" lon="4.39936">
        <ele>455.6</ele>
      </trkpt>
      <trkpt lat="44.6943" lon="4.39978">
        <ele>460.8</ele>
      </trkpt>
      <trkpt lat="44.69422" lon="4.39991">
        <ele>463</ele>
      </trkpt>
      <trkpt lat="44.69409" lon="4.40007">
        <ele>464.8</ele>
      </trkpt>
      <trkpt lat="44.69402" lon="4.40022">
        <ele>468.1</ele>
      </trkpt>
      <trkpt lat="44.69383" lon="4.40049">
        <ele>472.5</ele>
      </trkpt>
      <trkpt lat="44.69363" lon="4.4007">
        <ele>473.2</ele>
      </trkpt>
      <trkpt lat="44.69336" lon="4.40103">
        <ele>477</ele>
      </trkpt>
      <trkpt lat="44.69327" lon="4.40118">
        <ele>479.5</ele>
      </trkpt>
      <trkpt lat="44.69289" lon="4.40149">
        <ele>480.2</ele>
      </trkpt>
      <trkpt lat="44.69272" lon="4.40157">
        <ele>480.2</ele>
      </trkpt>
      <trkpt lat="44.69254" lon="4.40173">
        <ele>480.7</ele>
      </trkpt>
      <trkpt lat="44.69232" lon="4.40188">
        <ele>480.2</ele>
      </trkpt>
      <trkpt lat="44.69228" lon="4.40173">
        <ele>480.5</ele>
      </trkpt>
      <trkpt lat="44.69221" lon="4.40171">
        <ele>480.9</ele>
      </trkpt>
      <trkpt lat="44.69211" lon="4.40176">
        <ele>482.2</ele>
      </trkpt>
      <trkpt lat="44.69202" lon="4.4018">
        <ele>483.3</ele>
      </trkpt>
      <trkpt lat="44.69192" lon="4.40179">
        <ele>484.6</ele>
      </trkpt>
      <trkpt lat="44.69179" lon="4.40173">
        <ele>485.2</ele>
      </trkpt>
      <trkpt lat="44.69169" lon="4.40166">
        <ele>486</ele>
      </trkpt>
      <trkpt lat="44.69168" lon="4.40165">
        <ele>486.1</ele>
      </trkpt>
      <trkpt lat="44.69167" lon="4.40156">
        <ele>486.4</ele>
      </trkpt>
      <trkpt lat="44.69169" lon="4.40146">
        <ele>486.8</ele>
      </trkpt>
      <trkpt lat="44.69175" lon="4.40136">
        <ele>487</ele>
      </trkpt>
      <trkpt lat="44.69196" lon="4.40127">
        <ele>486.9</ele>
      </trkpt>
      <trkpt lat="44.69203" lon="4.40135">
        <ele>486</ele>
        <extensions>
          <visugpx:TrkExtension xmlns:visugpx="https://www.visugpx.com/editgpx/">
            <visugpx:node>9</visugpx:node>
            </visugpx:TrkExtension>
        </extensions>
      </trkpt>
    </trkseg>
  </trk>
</gpx>